<?xml version="1.0" encoding="UTF-8" standalone="no" ?>
<gpx xmlns="http://www.topografix.com/GPX/1/1" xmlns:xsi="http://www.w3.org/2001/XMLSchema-instance" xsi:schemaLocation="http://www.topografix.com/GPX/1/1 http://www.topografix.com/GPX/1/1/gpx.xsd" version="1.1" creator="VisuGPX - https://www.visugpx.com">
  <metadata>
    <name>Flines Mont St Aubert Montroeul Flines</name>
    <desc><![CDATA[Randonnée Flines vers le mont Saint Aubert  suivi de la montée de 15% du trou Robin à  Montroeul au bois retour sur Flines.

Départ Mortagne du nord                                       ]]></desc>
  </metadata>
  <trk>
    <name><![CDATA[20180911205255-sFb5k]]></name>
    <trkseg>
      <trkpt lat="50.50313" lon="3.44785">
        <ele>15.7</ele>
        <time>2018-09-06T09:51:07.000Z</time>
      </trkpt>
      <trkpt lat="50.50292" lon="3.44752">
        <ele>15.7</ele>
        <time>2018-09-06T09:51:07.476Z</time>
      </trkpt>
      <trkpt lat="50.50282" lon="3.44742">
        <ele>16</ele>
        <time>2018-09-06T09:51:07.666Z</time>
      </trkpt>
      <trkpt lat="50.50268" lon="3.44739">
        <ele>15.7</ele>
        <time>2018-09-06T09:51:07.893Z</time>
      </trkpt>
      <trkpt lat="50.5019" lon="3.44747">
        <ele>15.1</ele>
        <time>2018-09-06T09:51:09.146Z</time>
      </trkpt>
      <trkpt lat="50.50178" lon="3.4478">
        <ele>14.8</ele>
        <time>2018-09-06T09:51:09.534Z</time>
      </trkpt>
      <trkpt lat="50.50144" lon="3.44842">
        <ele>14.5</ele>
        <time>2018-09-06T09:51:10.369Z</time>
      </trkpt>
      <trkpt lat="50.50128" lon="3.44879">
        <ele>14.8</ele>
        <time>2018-09-06T09:51:10.825Z</time>
      </trkpt>
      <trkpt lat="50.50124" lon="3.44899">
        <ele>14.8</ele>
        <time>2018-09-06T09:51:11.039Z</time>
      </trkpt>
      <trkpt lat="50.50112" lon="3.45007">
        <ele>15.8</ele>
        <time>2018-09-06T09:51:12.152Z</time>
      </trkpt>
      <trkpt lat="50.501" lon="3.45114">
        <ele>15.9</ele>
        <time>2018-09-06T09:51:13.265Z</time>
      </trkpt>
      <trkpt lat="50.50092" lon="3.45227">
        <ele>15.9</ele>
        <time>2018-09-06T09:51:14.424Z</time>
      </trkpt>
      <trkpt lat="50.50043" lon="3.45198">
        <ele>16.5</ele>
        <time>2018-09-06T09:51:15.263Z</time>
      </trkpt>
      <trkpt lat="50.50005" lon="3.4519">
        <ele>17.2</ele>
        <time>2018-09-06T09:51:15.878Z</time>
      </trkpt>
      <trkpt lat="50.49974" lon="3.45177">
        <ele>18.1</ele>
        <time>2018-09-06T09:51:16.392Z</time>
      </trkpt>
      <trkpt lat="50.49958" lon="3.45158">
        <ele>17.5</ele>
        <time>2018-09-06T09:51:16.713Z</time>
      </trkpt>
      <trkpt lat="50.49922" lon="3.45075">
        <ele>16</ele>
        <time>2018-09-06T09:51:17.737Z</time>
      </trkpt>
      <trkpt lat="50.49886" lon="3.44992">
        <ele>15.2</ele>
        <time>2018-09-06T09:51:18.761Z</time>
      </trkpt>
      <trkpt lat="50.4985" lon="3.44909">
        <ele>15.3</ele>
        <time>2018-09-06T09:51:19.785Z</time>
      </trkpt>
      <trkpt lat="50.49825" lon="3.44835">
        <ele>15.2</ele>
        <time>2018-09-06T09:51:20.643Z</time>
      </trkpt>
      <trkpt lat="50.49799" lon="3.44761">
        <ele>15.5</ele>
        <time>2018-09-06T09:51:21.501Z</time>
      </trkpt>
      <trkpt lat="50.49767" lon="3.44665">
        <ele>15.5</ele>
        <time>2018-09-06T09:51:22.611Z</time>
      </trkpt>
      <trkpt lat="50.49735" lon="3.44568">
        <ele>15.3</ele>
        <time>2018-09-06T09:51:23.721Z</time>
      </trkpt>
      <trkpt lat="50.49711" lon="3.445">
        <ele>15.8</ele>
        <time>2018-09-06T09:51:24.518Z</time>
      </trkpt>
      <trkpt lat="50.49686" lon="3.44432">
        <ele>16.4</ele>
        <time>2018-09-06T09:51:25.315Z</time>
      </trkpt>
      <trkpt lat="50.49668" lon="3.44395">
        <ele>16.9</ele>
        <time>2018-09-06T09:51:25.790Z</time>
      </trkpt>
      <trkpt lat="50.49662" lon="3.44392">
        <ele>18.2</ele>
        <time>2018-09-06T09:51:25.891Z</time>
      </trkpt>
      <trkpt lat="50.49656" lon="3.4438">
        <ele>18.5</ele>
        <time>2018-09-06T09:51:26.047Z</time>
      </trkpt>
      <trkpt lat="50.49606" lon="3.44326">
        <ele>20.4</ele>
        <time>2018-09-06T09:51:27.020Z</time>
      </trkpt>
      <trkpt lat="50.49601" lon="3.44316">
        <ele>20.5</ele>
        <time>2018-09-06T09:51:27.150Z</time>
      </trkpt>
      <trkpt lat="50.496" lon="3.44307">
        <ele>20.5</ele>
        <time>2018-09-06T09:51:27.243Z</time>
      </trkpt>
      <trkpt lat="50.49602" lon="3.44292">
        <ele>20.6</ele>
        <time>2018-09-06T09:51:27.399Z</time>
      </trkpt>
      <trkpt lat="50.49628" lon="3.44231">
        <ele>21.3</ele>
        <time>2018-09-06T09:51:28.148Z</time>
      </trkpt>
      <trkpt lat="50.49684" lon="3.4413">
        <ele>20.4</ele>
        <time>2018-09-06T09:51:29.514Z</time>
      </trkpt>
      <trkpt lat="50.49724" lon="3.44084">
        <ele>20.2</ele>
        <time>2018-09-06T09:51:30.305Z</time>
      </trkpt>
      <trkpt lat="50.49763" lon="3.44037">
        <ele>19.3</ele>
        <time>2018-09-06T09:51:31.096Z</time>
      </trkpt>
      <trkpt lat="50.49781" lon="3.4402">
        <ele>19.2</ele>
        <time>2018-09-06T09:51:31.433Z</time>
      </trkpt>
      <trkpt lat="50.49829" lon="3.43992">
        <ele>19.4</ele>
        <time>2018-09-06T09:51:32.254Z</time>
      </trkpt>
      <trkpt lat="50.49837" lon="3.43985">
        <ele>19</ele>
        <time>2018-09-06T09:51:32.401Z</time>
      </trkpt>
      <trkpt lat="50.4985" lon="3.43976">
        <ele>19.1</ele>
        <time>2018-09-06T09:51:32.629Z</time>
      </trkpt>
      <trkpt lat="50.49875" lon="3.43952">
        <ele>19.1</ele>
        <time>2018-09-06T09:51:33.099Z</time>
      </trkpt>
      <trkpt lat="50.49907" lon="3.43909">
        <ele>19.7</ele>
        <time>2018-09-06T09:51:33.774Z</time>
      </trkpt>
      <trkpt lat="50.49932" lon="3.43868">
        <ele>19.2</ele>
        <time>2018-09-06T09:51:34.353Z</time>
      </trkpt>
      <trkpt lat="50.49884" lon="3.43792">
        <ele>22.4</ele>
        <time>2018-09-06T09:51:35.445Z</time>
      </trkpt>
      <trkpt lat="50.49855" lon="3.43729">
        <ele>24.4</ele>
        <time>2018-09-06T09:51:36.238Z</time>
      </trkpt>
      <trkpt lat="50.49836" lon="3.43653">
        <ele>26.2</ele>
        <time>2018-09-06T09:51:37.071Z</time>
      </trkpt>
      <trkpt lat="50.49831" lon="3.4363">
        <ele>26.8</ele>
        <time>2018-09-06T09:51:37.319Z</time>
      </trkpt>
      <trkpt lat="50.49821" lon="3.43591">
        <ele>27.5</ele>
        <time>2018-09-06T09:51:37.748Z</time>
      </trkpt>
      <trkpt lat="50.49775" lon="3.43501">
        <ele>29.2</ele>
        <time>2018-09-06T09:51:38.925Z</time>
      </trkpt>
      <trkpt lat="50.49755" lon="3.43431">
        <ele>30.4</ele>
        <time>2018-09-06T09:51:39.708Z</time>
      </trkpt>
      <trkpt lat="50.49782" lon="3.4341">
        <ele>30.2</ele>
        <time>2018-09-06T09:51:40.191Z</time>
      </trkpt>
      <trkpt lat="50.49832" lon="3.4337">
        <ele>29.6</ele>
        <time>2018-09-06T09:51:41.093Z</time>
      </trkpt>
      <trkpt lat="50.49882" lon="3.43329">
        <ele>29.3</ele>
        <time>2018-09-06T09:51:41.995Z</time>
      </trkpt>
      <trkpt lat="50.49915" lon="3.43311">
        <ele>29.3</ele>
        <time>2018-09-06T09:51:42.555Z</time>
      </trkpt>
      <trkpt lat="50.49945" lon="3.43298">
        <ele>28</ele>
        <time>2018-09-06T09:51:43.054Z</time>
      </trkpt>
      <trkpt lat="50.50005" lon="3.43276">
        <ele>25</ele>
        <time>2018-09-06T09:51:44.042Z</time>
      </trkpt>
      <trkpt lat="50.50072" lon="3.4327">
        <ele>23.3</ele>
        <time>2018-09-06T09:51:45.110Z</time>
      </trkpt>
      <trkpt lat="50.50138" lon="3.43263">
        <ele>21.7</ele>
        <time>2018-09-06T09:51:46.178Z</time>
      </trkpt>
      <trkpt lat="50.50203" lon="3.43254">
        <ele>20.9</ele>
        <time>2018-09-06T09:51:47.224Z</time>
      </trkpt>
      <trkpt lat="50.50251" lon="3.43233">
        <ele>20</ele>
        <time>2018-09-06T09:51:48.015Z</time>
      </trkpt>
      <trkpt lat="50.50298" lon="3.43212">
        <ele>20</ele>
        <time>2018-09-06T09:51:48.806Z</time>
      </trkpt>
      <trkpt lat="50.50342" lon="3.432">
        <ele>19.4</ele>
        <time>2018-09-06T09:51:49.522Z</time>
      </trkpt>
      <trkpt lat="50.50361" lon="3.43201">
        <ele>19.2</ele>
        <time>2018-09-06T09:51:49.827Z</time>
      </trkpt>
      <trkpt lat="50.5037" lon="3.43197">
        <ele>19.1</ele>
        <time>2018-09-06T09:51:49.977Z</time>
      </trkpt>
      <trkpt lat="50.50386" lon="3.43182">
        <ele>18.8</ele>
        <time>2018-09-06T09:51:50.276Z</time>
      </trkpt>
      <trkpt lat="50.50441" lon="3.4311">
        <ele>17.2</ele>
        <time>2018-09-06T09:51:51.420Z</time>
      </trkpt>
      <trkpt lat="50.50495" lon="3.43037">
        <ele>16.8</ele>
        <time>2018-09-06T09:51:52.564Z</time>
      </trkpt>
      <trkpt lat="50.50527" lon="3.42988">
        <ele>17.5</ele>
        <time>2018-09-06T09:51:53.280Z</time>
      </trkpt>
      <trkpt lat="50.50538" lon="3.42968">
        <ele>17.7</ele>
        <time>2018-09-06T09:51:53.550Z</time>
      </trkpt>
      <trkpt lat="50.50587" lon="3.42892">
        <ele>19</ele>
        <time>2018-09-06T09:51:54.651Z</time>
      </trkpt>
      <trkpt lat="50.50635" lon="3.42815">
        <ele>19</ele>
        <time>2018-09-06T09:51:55.752Z</time>
      </trkpt>
      <trkpt lat="50.50699" lon="3.42718">
        <ele>20.4</ele>
        <time>2018-09-06T09:51:57.175Z</time>
      </trkpt>
      <trkpt lat="50.50762" lon="3.4262">
        <ele>20.5</ele>
        <time>2018-09-06T09:51:58.598Z</time>
      </trkpt>
      <trkpt lat="50.50817" lon="3.42539">
        <ele>19.8</ele>
        <time>2018-09-06T09:51:59.808Z</time>
      </trkpt>
      <trkpt lat="50.50873" lon="3.42459">
        <ele>21.2</ele>
        <time>2018-09-06T09:52:01.018Z</time>
      </trkpt>
      <trkpt lat="50.50928" lon="3.42378">
        <ele>21.6</ele>
        <time>2018-09-06T09:52:02.228Z</time>
      </trkpt>
      <trkpt lat="50.50984" lon="3.42322">
        <ele>21</ele>
        <time>2018-09-06T09:52:03.292Z</time>
      </trkpt>
      <trkpt lat="50.5102" lon="3.42289">
        <ele>22.7</ele>
        <time>2018-09-06T09:52:03.960Z</time>
      </trkpt>
      <trkpt lat="50.51034" lon="3.42278">
        <ele>22.8</ele>
        <time>2018-09-06T09:52:04.211Z</time>
      </trkpt>
      <trkpt lat="50.51057" lon="3.42226">
        <ele>21.8</ele>
        <time>2018-09-06T09:52:04.857Z</time>
      </trkpt>
      <trkpt lat="50.51098" lon="3.42161">
        <ele>22.4</ele>
        <time>2018-09-06T09:52:05.790Z</time>
      </trkpt>
      <trkpt lat="50.51141" lon="3.42113">
        <ele>22.8</ele>
        <time>2018-09-06T09:52:06.635Z</time>
      </trkpt>
      <trkpt lat="50.51211" lon="3.42049">
        <ele>23.8</ele>
        <time>2018-09-06T09:52:07.933Z</time>
      </trkpt>
      <trkpt lat="50.51228" lon="3.42036">
        <ele>24</ele>
        <time>2018-09-06T09:52:08.236Z</time>
      </trkpt>
      <trkpt lat="50.51257" lon="3.42017">
        <ele>25</ele>
        <time>2018-09-06T09:52:08.740Z</time>
      </trkpt>
      <trkpt lat="50.51298" lon="3.41995">
        <ele>25</ele>
        <time>2018-09-06T09:52:09.434Z</time>
      </trkpt>
      <trkpt lat="50.51345" lon="3.41979">
        <ele>25.6</ele>
        <time>2018-09-06T09:52:10.205Z</time>
      </trkpt>
      <trkpt lat="50.51386" lon="3.4197">
        <ele>26</ele>
        <time>2018-09-06T09:52:10.869Z</time>
      </trkpt>
      <trkpt lat="50.51435" lon="3.41964">
        <ele>26.5</ele>
        <time>2018-09-06T09:52:11.657Z</time>
      </trkpt>
      <trkpt lat="50.51446" lon="3.41963">
        <ele>26.5</ele>
        <time>2018-09-06T09:52:11.834Z</time>
      </trkpt>
      <trkpt lat="50.51491" lon="3.41939">
        <ele>26.7</ele>
        <time>2018-09-06T09:52:12.596Z</time>
      </trkpt>
      <trkpt lat="50.51509" lon="3.41927">
        <ele>26.9</ele>
        <time>2018-09-06T09:52:12.909Z</time>
      </trkpt>
      <trkpt lat="50.51547" lon="3.41932">
        <ele>26.8</ele>
        <time>2018-09-06T09:52:13.520Z</time>
      </trkpt>
      <trkpt lat="50.5162" lon="3.41928">
        <ele>26.4</ele>
        <time>2018-09-06T09:52:14.683Z</time>
      </trkpt>
      <trkpt lat="50.51692" lon="3.41924">
        <ele>25.2</ele>
        <time>2018-09-06T09:52:15.846Z</time>
      </trkpt>
      <trkpt lat="50.51744" lon="3.41922">
        <ele>24.9</ele>
        <time>2018-09-06T09:52:16.680Z</time>
      </trkpt>
      <trkpt lat="50.51805" lon="3.41904">
        <ele>24.9</ele>
        <time>2018-09-06T09:52:17.676Z</time>
      </trkpt>
      <trkpt lat="50.51866" lon="3.41885">
        <ele>24.6</ele>
        <time>2018-09-06T09:52:18.672Z</time>
      </trkpt>
      <trkpt lat="50.51897" lon="3.41886">
        <ele>24.5</ele>
        <time>2018-09-06T09:52:19.169Z</time>
      </trkpt>
      <trkpt lat="50.51971" lon="3.41898">
        <ele>24.3</ele>
        <time>2018-09-06T09:52:20.362Z</time>
      </trkpt>
      <trkpt lat="50.51999" lon="3.41906">
        <ele>24.2</ele>
        <time>2018-09-06T09:52:20.818Z</time>
      </trkpt>
      <trkpt lat="50.51998" lon="3.41906">
        <ele>24.2</ele>
        <time>2018-09-06T09:52:20.834Z</time>
      </trkpt>
      <trkpt lat="50.52045" lon="3.41918">
        <ele>23.4</ele>
        <time>2018-09-06T09:52:21.597Z</time>
      </trkpt>
      <trkpt lat="50.52092" lon="3.4193">
        <ele>24.2</ele>
        <time>2018-09-06T09:52:22.360Z</time>
      </trkpt>
      <trkpt lat="50.52169" lon="3.41947">
        <ele>26.2</ele>
        <time>2018-09-06T09:52:23.599Z</time>
      </trkpt>
      <trkpt lat="50.52245" lon="3.41964">
        <ele>26.3</ele>
        <time>2018-09-06T09:52:24.838Z</time>
      </trkpt>
      <trkpt lat="50.52275" lon="3.41978">
        <ele>26.8</ele>
        <time>2018-09-06T09:52:25.340Z</time>
      </trkpt>
      <trkpt lat="50.5232" lon="3.41989">
        <ele>27</ele>
        <time>2018-09-06T09:52:26.069Z</time>
      </trkpt>
      <trkpt lat="50.52365" lon="3.41999">
        <ele>28</ele>
        <time>2018-09-06T09:52:26.798Z</time>
      </trkpt>
      <trkpt lat="50.52436" lon="3.4201">
        <ele>28.6</ele>
        <time>2018-09-06T09:52:27.942Z</time>
      </trkpt>
      <trkpt lat="50.52486" lon="3.4202">
        <ele>28.9</ele>
        <time>2018-09-06T09:52:28.750Z</time>
      </trkpt>
      <trkpt lat="50.52485" lon="3.4202">
        <ele>28.9</ele>
        <time>2018-09-06T09:52:28.766Z</time>
      </trkpt>
      <trkpt lat="50.52541" lon="3.42032">
        <ele>29.3</ele>
        <time>2018-09-06T09:52:29.672Z</time>
      </trkpt>
      <trkpt lat="50.52597" lon="3.42044">
        <ele>29.3</ele>
        <time>2018-09-06T09:52:30.578Z</time>
      </trkpt>
      <trkpt lat="50.52677" lon="3.42064">
        <ele>28.7</ele>
        <time>2018-09-06T09:52:31.869Z</time>
      </trkpt>
      <trkpt lat="50.52756" lon="3.42084">
        <ele>28</ele>
        <time>2018-09-06T09:52:33.160Z</time>
      </trkpt>
      <trkpt lat="50.52823" lon="3.42097">
        <ele>28.5</ele>
        <time>2018-09-06T09:52:34.242Z</time>
      </trkpt>
      <trkpt lat="50.5289" lon="3.4211">
        <ele>29.4</ele>
        <time>2018-09-06T09:52:35.324Z</time>
      </trkpt>
      <trkpt lat="50.52956" lon="3.42127">
        <ele>30.2</ele>
        <time>2018-09-06T09:52:36.396Z</time>
      </trkpt>
      <trkpt lat="50.52985" lon="3.42131">
        <ele>30.4</ele>
        <time>2018-09-06T09:52:36.863Z</time>
      </trkpt>
      <trkpt lat="50.53059" lon="3.42148">
        <ele>29.6</ele>
        <time>2018-09-06T09:52:38.062Z</time>
      </trkpt>
      <trkpt lat="50.53133" lon="3.42165">
        <ele>28.8</ele>
        <time>2018-09-06T09:52:39.261Z</time>
      </trkpt>
      <trkpt lat="50.53194" lon="3.42177">
        <ele>28.5</ele>
        <time>2018-09-06T09:52:40.239Z</time>
      </trkpt>
      <trkpt lat="50.53254" lon="3.42189">
        <ele>27.2</ele>
        <time>2018-09-06T09:52:41.217Z</time>
      </trkpt>
      <trkpt lat="50.53324" lon="3.42211">
        <ele>26</ele>
        <time>2018-09-06T09:52:42.361Z</time>
      </trkpt>
      <trkpt lat="50.53401" lon="3.42223">
        <ele>23.7</ele>
        <time>2018-09-06T09:52:43.593Z</time>
      </trkpt>
      <trkpt lat="50.53477" lon="3.42235">
        <ele>23</ele>
        <time>2018-09-06T09:52:44.825Z</time>
      </trkpt>
      <trkpt lat="50.53547" lon="3.42251">
        <ele>22.1</ele>
        <time>2018-09-06T09:52:45.950Z</time>
      </trkpt>
      <trkpt lat="50.53616" lon="3.42266">
        <ele>21.4</ele>
        <time>2018-09-06T09:52:47.075Z</time>
      </trkpt>
      <trkpt lat="50.53615" lon="3.42266">
        <ele>21.4</ele>
        <time>2018-09-06T09:52:47.091Z</time>
      </trkpt>
      <trkpt lat="50.53685" lon="3.42282">
        <ele>21</ele>
        <time>2018-09-06T09:52:48.220Z</time>
      </trkpt>
      <trkpt lat="50.53754" lon="3.42299">
        <ele>20.8</ele>
        <time>2018-09-06T09:52:49.349Z</time>
      </trkpt>
      <trkpt lat="50.53824" lon="3.42315">
        <ele>20.4</ele>
        <time>2018-09-06T09:52:50.478Z</time>
      </trkpt>
      <trkpt lat="50.53858" lon="3.42321">
        <ele>20</ele>
        <time>2018-09-06T09:52:51.026Z</time>
      </trkpt>
      <trkpt lat="50.53857" lon="3.42321">
        <ele>20</ele>
        <time>2018-09-06T09:52:51.042Z</time>
      </trkpt>
      <trkpt lat="50.53906" lon="3.42331">
        <ele>20</ele>
        <time>2018-09-06T09:52:51.834Z</time>
      </trkpt>
      <trkpt lat="50.53967" lon="3.42348">
        <ele>19.4</ele>
        <time>2018-09-06T09:52:52.827Z</time>
      </trkpt>
      <trkpt lat="50.53987" lon="3.4235">
        <ele>19.3</ele>
        <time>2018-09-06T09:52:53.148Z</time>
      </trkpt>
      <trkpt lat="50.54032" lon="3.4236">
        <ele>18.6</ele>
        <time>2018-09-06T09:52:53.876Z</time>
      </trkpt>
      <trkpt lat="50.54077" lon="3.42369">
        <ele>18.3</ele>
        <time>2018-09-06T09:52:54.604Z</time>
      </trkpt>
      <trkpt lat="50.54152" lon="3.42395">
        <ele>18.7</ele>
        <time>2018-09-06T09:52:55.835Z</time>
      </trkpt>
      <trkpt lat="50.54151" lon="3.42395">
        <ele>18.7</ele>
        <time>2018-09-06T09:52:55.851Z</time>
      </trkpt>
      <trkpt lat="50.54234" lon="3.4243">
        <ele>19.2</ele>
        <time>2018-09-06T09:52:57.229Z</time>
      </trkpt>
      <trkpt lat="50.54279" lon="3.42451">
        <ele>19.5</ele>
        <time>2018-09-06T09:52:57.981Z</time>
      </trkpt>
      <trkpt lat="50.54324" lon="3.42472">
        <ele>19.6</ele>
        <time>2018-09-06T09:52:58.733Z</time>
      </trkpt>
      <trkpt lat="50.5437" lon="3.42496">
        <ele>20.4</ele>
        <time>2018-09-06T09:52:59.501Z</time>
      </trkpt>
      <trkpt lat="50.54415" lon="3.42519">
        <ele>21.5</ele>
        <time>2018-09-06T09:53:00.269Z</time>
      </trkpt>
      <trkpt lat="50.54475" lon="3.42546">
        <ele>21.4</ele>
        <time>2018-09-06T09:53:01.269Z</time>
      </trkpt>
      <trkpt lat="50.54522" lon="3.42564">
        <ele>21.1</ele>
        <time>2018-09-06T09:53:02.037Z</time>
      </trkpt>
      <trkpt lat="50.54568" lon="3.42582">
        <ele>21.1</ele>
        <time>2018-09-06T09:53:02.805Z</time>
      </trkpt>
      <trkpt lat="50.54631" lon="3.4262">
        <ele>20</ele>
        <time>2018-09-06T09:53:03.887Z</time>
      </trkpt>
      <trkpt lat="50.5463" lon="3.4262">
        <ele>20</ele>
        <time>2018-09-06T09:53:03.903Z</time>
      </trkpt>
      <trkpt lat="50.54654" lon="3.42635">
        <ele>19.9</ele>
        <time>2018-09-06T09:53:04.317Z</time>
      </trkpt>
      <trkpt lat="50.54711" lon="3.42683">
        <ele>19.3</ele>
        <time>2018-09-06T09:53:05.353Z</time>
      </trkpt>
      <trkpt lat="50.54736" lon="3.42715">
        <ele>19.2</ele>
        <time>2018-09-06T09:53:05.870Z</time>
      </trkpt>
      <trkpt lat="50.54771" lon="3.42769">
        <ele>19</ele>
        <time>2018-09-06T09:53:06.652Z</time>
      </trkpt>
      <trkpt lat="50.54806" lon="3.42822">
        <ele>18.9</ele>
        <time>2018-09-06T09:53:07.434Z</time>
      </trkpt>
      <trkpt lat="50.54802" lon="3.42837">
        <ele>18.6</ele>
        <time>2018-09-06T09:53:07.600Z</time>
      </trkpt>
      <trkpt lat="50.54796" lon="3.42877">
        <ele>18.5</ele>
        <time>2018-09-06T09:53:08.019Z</time>
      </trkpt>
      <trkpt lat="50.54799" lon="3.42887">
        <ele>18.5</ele>
        <time>2018-09-06T09:53:08.132Z</time>
      </trkpt>
      <trkpt lat="50.54797" lon="3.42913">
        <ele>18.5</ele>
        <time>2018-09-06T09:53:08.399Z</time>
      </trkpt>
      <trkpt lat="50.54835" lon="3.42938">
        <ele>18.4</ele>
        <time>2018-09-06T09:53:09.059Z</time>
      </trkpt>
      <trkpt lat="50.54846" lon="3.4295">
        <ele>18.2</ele>
        <time>2018-09-06T09:53:09.274Z</time>
      </trkpt>
      <trkpt lat="50.5487" lon="3.42991">
        <ele>18</ele>
        <time>2018-09-06T09:53:09.842Z</time>
      </trkpt>
      <trkpt lat="50.5488" lon="3.42992">
        <ele>18</ele>
        <time>2018-09-06T09:53:10.003Z</time>
      </trkpt>
      <trkpt lat="50.54891" lon="3.42998">
        <ele>18</ele>
        <time>2018-09-06T09:53:10.190Z</time>
      </trkpt>
      <trkpt lat="50.54899" lon="3.43008">
        <ele>18</ele>
        <time>2018-09-06T09:53:10.354Z</time>
      </trkpt>
      <trkpt lat="50.54908" lon="3.43006">
        <ele>18</ele>
        <time>2018-09-06T09:53:10.500Z</time>
      </trkpt>
      <trkpt lat="50.5492" lon="3.43041">
        <ele>17.7</ele>
        <time>2018-09-06T09:53:10.905Z</time>
      </trkpt>
      <trkpt lat="50.54927" lon="3.43101">
        <ele>17.6</ele>
        <time>2018-09-06T09:53:11.526Z</time>
      </trkpt>
      <trkpt lat="50.54932" lon="3.43128">
        <ele>17.3</ele>
        <time>2018-09-06T09:53:11.812Z</time>
      </trkpt>
      <trkpt lat="50.5496" lon="3.43239">
        <ele>17</ele>
        <time>2018-09-06T09:53:13.029Z</time>
      </trkpt>
      <trkpt lat="50.54996" lon="3.43352">
        <ele>16.5</ele>
        <time>2018-09-06T09:53:14.317Z</time>
      </trkpt>
      <trkpt lat="50.55001" lon="3.4335">
        <ele>16.7</ele>
        <time>2018-09-06T09:53:14.400Z</time>
      </trkpt>
      <trkpt lat="50.55008" lon="3.43349">
        <ele>16.7</ele>
        <time>2018-09-06T09:53:14.513Z</time>
      </trkpt>
      <trkpt lat="50.55013" lon="3.43356">
        <ele>16.7</ele>
        <time>2018-09-06T09:53:14.620Z</time>
      </trkpt>
      <trkpt lat="50.55062" lon="3.43447">
        <ele>15.3</ele>
        <time>2018-09-06T09:53:15.835Z</time>
      </trkpt>
      <trkpt lat="50.55077" lon="3.4345">
        <ele>15.3</ele>
        <time>2018-09-06T09:53:16.077Z</time>
      </trkpt>
      <trkpt lat="50.55085" lon="3.4344">
        <ele>15.6</ele>
        <time>2018-09-06T09:53:16.241Z</time>
      </trkpt>
      <trkpt lat="50.5511" lon="3.43419">
        <ele>15.8</ele>
        <time>2018-09-06T09:53:16.695Z</time>
      </trkpt>
      <trkpt lat="50.55164" lon="3.43377">
        <ele>17.2</ele>
        <time>2018-09-06T09:53:17.661Z</time>
      </trkpt>
      <trkpt lat="50.55218" lon="3.43335">
        <ele>17.7</ele>
        <time>2018-09-06T09:53:18.627Z</time>
      </trkpt>
      <trkpt lat="50.55282" lon="3.43299">
        <ele>17.5</ele>
        <time>2018-09-06T09:53:19.717Z</time>
      </trkpt>
      <trkpt lat="50.55326" lon="3.43278">
        <ele>17.4</ele>
        <time>2018-09-06T09:53:20.454Z</time>
      </trkpt>
      <trkpt lat="50.55398" lon="3.43254">
        <ele>17.2</ele>
        <time>2018-09-06T09:53:21.634Z</time>
      </trkpt>
      <trkpt lat="50.55442" lon="3.43245">
        <ele>16.1</ele>
        <time>2018-09-06T09:53:22.345Z</time>
      </trkpt>
      <trkpt lat="50.5547" lon="3.4324">
        <ele>15.4</ele>
        <time>2018-09-06T09:53:22.797Z</time>
      </trkpt>
      <trkpt lat="50.55537" lon="3.43241">
        <ele>15.5</ele>
        <time>2018-09-06T09:53:23.871Z</time>
      </trkpt>
      <trkpt lat="50.55542" lon="3.43224">
        <ele>15.7</ele>
        <time>2018-09-06T09:53:24.062Z</time>
      </trkpt>
      <trkpt lat="50.55555" lon="3.43217">
        <ele>15.9</ele>
        <time>2018-09-06T09:53:24.282Z</time>
      </trkpt>
      <trkpt lat="50.55566" lon="3.43205">
        <ele>16.1</ele>
        <time>2018-09-06T09:53:24.497Z</time>
      </trkpt>
      <trkpt lat="50.55574" lon="3.43152">
        <ele>16.4</ele>
        <time>2018-09-06T09:53:25.052Z</time>
      </trkpt>
      <trkpt lat="50.55582" lon="3.43125">
        <ele>16</ele>
        <time>2018-09-06T09:53:25.355Z</time>
      </trkpt>
      <trkpt lat="50.5559" lon="3.4311">
        <ele>17.1</ele>
        <time>2018-09-06T09:53:25.554Z</time>
      </trkpt>
      <trkpt lat="50.55609" lon="3.43099">
        <ele>17.2</ele>
        <time>2018-09-06T09:53:25.879Z</time>
      </trkpt>
      <trkpt lat="50.55639" lon="3.43091">
        <ele>17.7</ele>
        <time>2018-09-06T09:53:26.367Z</time>
      </trkpt>
      <trkpt lat="50.55669" lon="3.43091">
        <ele>18.6</ele>
        <time>2018-09-06T09:53:26.848Z</time>
      </trkpt>
      <trkpt lat="50.55702" lon="3.43102">
        <ele>19.8</ele>
        <time>2018-09-06T09:53:27.389Z</time>
      </trkpt>
      <trkpt lat="50.55751" lon="3.43109">
        <ele>20.2</ele>
        <time>2018-09-06T09:53:28.178Z</time>
      </trkpt>
      <trkpt lat="50.55761" lon="3.43113">
        <ele>20.2</ele>
        <time>2018-09-06T09:53:28.343Z</time>
      </trkpt>
      <trkpt lat="50.55772" lon="3.431">
        <ele>20</ele>
        <time>2018-09-06T09:53:28.564Z</time>
      </trkpt>
      <trkpt lat="50.55778" lon="3.43086">
        <ele>19.9</ele>
        <time>2018-09-06T09:53:28.736Z</time>
      </trkpt>
      <trkpt lat="50.55799" lon="3.43074">
        <ele>18.4</ele>
        <time>2018-09-06T09:53:29.094Z</time>
      </trkpt>
      <trkpt lat="50.55831" lon="3.43089">
        <ele>18.4</ele>
        <time>2018-09-06T09:53:29.629Z</time>
      </trkpt>
      <trkpt lat="50.55863" lon="3.43108">
        <ele>18.5</ele>
        <time>2018-09-06T09:53:30.177Z</time>
      </trkpt>
      <trkpt lat="50.55896" lon="3.4313">
        <ele>18.5</ele>
        <time>2018-09-06T09:53:30.752Z</time>
      </trkpt>
      <trkpt lat="50.559" lon="3.43129">
        <ele>18.5</ele>
        <time>2018-09-06T09:53:30.817Z</time>
      </trkpt>
      <trkpt lat="50.55905" lon="3.43135">
        <ele>18.4</ele>
        <time>2018-09-06T09:53:30.918Z</time>
      </trkpt>
      <trkpt lat="50.55908" lon="3.4304">
        <ele>18.7</ele>
        <time>2018-09-06T09:53:31.887Z</time>
      </trkpt>
      <trkpt lat="50.55957" lon="3.43132">
        <ele>18.9</ele>
        <time>2018-09-06T09:53:33.101Z</time>
      </trkpt>
      <trkpt lat="50.56005" lon="3.43223">
        <ele>20</ele>
        <time>2018-09-06T09:53:34.315Z</time>
      </trkpt>
      <trkpt lat="50.56044" lon="3.43308">
        <ele>19.9</ele>
        <time>2018-09-06T09:53:35.378Z</time>
      </trkpt>
      <trkpt lat="50.56082" lon="3.43393">
        <ele>19.9</ele>
        <time>2018-09-06T09:53:36.441Z</time>
      </trkpt>
      <trkpt lat="50.56123" lon="3.4348">
        <ele>22.3</ele>
        <time>2018-09-06T09:53:37.545Z</time>
      </trkpt>
      <trkpt lat="50.56165" lon="3.43566">
        <ele>21.6</ele>
        <time>2018-09-06T09:53:38.649Z</time>
      </trkpt>
      <trkpt lat="50.56206" lon="3.43653">
        <ele>23.1</ele>
        <time>2018-09-06T09:53:39.753Z</time>
      </trkpt>
      <trkpt lat="50.56254" lon="3.43747">
        <ele>22.8</ele>
        <time>2018-09-06T09:53:40.981Z</time>
      </trkpt>
      <trkpt lat="50.56278" lon="3.43785">
        <ele>21.8</ele>
        <time>2018-09-06T09:53:41.527Z</time>
      </trkpt>
      <trkpt lat="50.56315" lon="3.43836">
        <ele>20.1</ele>
        <time>2018-09-06T09:53:42.315Z</time>
      </trkpt>
      <trkpt lat="50.56352" lon="3.43887">
        <ele>22.4</ele>
        <time>2018-09-06T09:53:43.103Z</time>
      </trkpt>
      <trkpt lat="50.56404" lon="3.43943">
        <ele>20.7</ele>
        <time>2018-09-06T09:53:44.113Z</time>
      </trkpt>
      <trkpt lat="50.56428" lon="3.43963">
        <ele>22.3</ele>
        <time>2018-09-06T09:53:44.548Z</time>
      </trkpt>
      <trkpt lat="50.56447" lon="3.43974">
        <ele>22.2</ele>
        <time>2018-09-06T09:53:44.873Z</time>
      </trkpt>
      <trkpt lat="50.56527" lon="3.44013">
        <ele>19.6</ele>
        <time>2018-09-06T09:53:46.216Z</time>
      </trkpt>
      <trkpt lat="50.56545" lon="3.44025">
        <ele>19.1</ele>
        <time>2018-09-06T09:53:46.529Z</time>
      </trkpt>
      <trkpt lat="50.56604" lon="3.44069">
        <ele>17.2</ele>
        <time>2018-09-06T09:53:47.576Z</time>
      </trkpt>
      <trkpt lat="50.56613" lon="3.44075">
        <ele>17.1</ele>
        <time>2018-09-06T09:53:47.733Z</time>
      </trkpt>
      <trkpt lat="50.56634" lon="3.44082">
        <ele>16.9</ele>
        <time>2018-09-06T09:53:48.077Z</time>
      </trkpt>
      <trkpt lat="50.56654" lon="3.44083">
        <ele>16.5</ele>
        <time>2018-09-06T09:53:48.398Z</time>
      </trkpt>
      <trkpt lat="50.56655" lon="3.44089">
        <ele>15.9</ele>
        <time>2018-09-06T09:53:48.461Z</time>
      </trkpt>
      <trkpt lat="50.56659" lon="3.44097">
        <ele>15.9</ele>
        <time>2018-09-06T09:53:48.565Z</time>
      </trkpt>
      <trkpt lat="50.56664" lon="3.44103">
        <ele>15.8</ele>
        <time>2018-09-06T09:53:48.666Z</time>
      </trkpt>
      <trkpt lat="50.56688" lon="3.44104">
        <ele>16.3</ele>
        <time>2018-09-06T09:53:49.051Z</time>
      </trkpt>
      <trkpt lat="50.56722" lon="3.44108">
        <ele>16.9</ele>
        <time>2018-09-06T09:53:49.598Z</time>
      </trkpt>
      <trkpt lat="50.5673" lon="3.44112">
        <ele>16.9</ele>
        <time>2018-09-06T09:53:49.733Z</time>
      </trkpt>
      <trkpt lat="50.56753" lon="3.44145">
        <ele>16.2</ele>
        <time>2018-09-06T09:53:50.232Z</time>
      </trkpt>
      <trkpt lat="50.56759" lon="3.44132">
        <ele>17</ele>
        <time>2018-09-06T09:53:50.396Z</time>
      </trkpt>
      <trkpt lat="50.56764" lon="3.44125">
        <ele>17.4</ele>
        <time>2018-09-06T09:53:50.503Z</time>
      </trkpt>
      <trkpt lat="50.56778" lon="3.44115">
        <ele>17.8</ele>
        <time>2018-09-06T09:53:50.749Z</time>
      </trkpt>
      <trkpt lat="50.5682" lon="3.44115">
        <ele>18</ele>
        <time>2018-09-06T09:53:51.422Z</time>
      </trkpt>
      <trkpt lat="50.56831" lon="3.44117">
        <ele>18</ele>
        <time>2018-09-06T09:53:51.600Z</time>
      </trkpt>
      <trkpt lat="50.56836" lon="3.44113">
        <ele>17.3</ele>
        <time>2018-09-06T09:53:51.690Z</time>
      </trkpt>
      <trkpt lat="50.56843" lon="3.441">
        <ele>17.9</ele>
        <time>2018-09-06T09:53:51.864Z</time>
      </trkpt>
      <trkpt lat="50.56897" lon="3.44103">
        <ele>15.4</ele>
        <time>2018-09-06T09:53:52.730Z</time>
      </trkpt>
      <trkpt lat="50.56897" lon="3.44103">
        <ele>15.4</ele>
        <time>2018-09-06T09:53:52.730Z</time>
      </trkpt>
      <trkpt lat="50.56983" lon="3.4411">
        <ele>14.8</ele>
        <time>2018-09-06T09:53:54.111Z</time>
      </trkpt>
      <trkpt lat="50.57038" lon="3.44109">
        <ele>16.6</ele>
        <time>2018-09-06T09:53:54.993Z</time>
      </trkpt>
      <trkpt lat="50.57068" lon="3.44105">
        <ele>17.6</ele>
        <time>2018-09-06T09:53:55.476Z</time>
      </trkpt>
      <trkpt lat="50.57118" lon="3.44092">
        <ele>18.5</ele>
        <time>2018-09-06T09:53:56.288Z</time>
      </trkpt>
      <trkpt lat="50.57196" lon="3.44068">
        <ele>21</ele>
        <time>2018-09-06T09:53:57.556Z</time>
      </trkpt>
      <trkpt lat="50.57273" lon="3.44045">
        <ele>22.1</ele>
        <time>2018-09-06T09:53:58.824Z</time>
      </trkpt>
      <trkpt lat="50.57351" lon="3.44021">
        <ele>23.5</ele>
        <time>2018-09-06T09:54:00.092Z</time>
      </trkpt>
      <trkpt lat="50.57433" lon="3.43998">
        <ele>20.2</ele>
        <time>2018-09-06T09:54:01.427Z</time>
      </trkpt>
      <trkpt lat="50.57488" lon="3.43982">
        <ele>18</ele>
        <time>2018-09-06T09:54:02.316Z</time>
      </trkpt>
      <trkpt lat="50.57542" lon="3.43966">
        <ele>21</ele>
        <time>2018-09-06T09:54:03.205Z</time>
      </trkpt>
      <trkpt lat="50.57588" lon="3.43946">
        <ele>25.8</ele>
        <time>2018-09-06T09:54:03.962Z</time>
      </trkpt>
      <trkpt lat="50.57633" lon="3.43926">
        <ele>26.5</ele>
        <time>2018-09-06T09:54:04.719Z</time>
      </trkpt>
      <trkpt lat="50.57659" lon="3.43913">
        <ele>27.6</ele>
        <time>2018-09-06T09:54:05.156Z</time>
      </trkpt>
      <trkpt lat="50.5768" lon="3.43895">
        <ele>27.8</ele>
        <time>2018-09-06T09:54:05.539Z</time>
      </trkpt>
      <trkpt lat="50.57705" lon="3.43869">
        <ele>27.9</ele>
        <time>2018-09-06T09:54:06.019Z</time>
      </trkpt>
      <trkpt lat="50.57725" lon="3.43853">
        <ele>28.1</ele>
        <time>2018-09-06T09:54:06.379Z</time>
      </trkpt>
      <trkpt lat="50.57764" lon="3.43832">
        <ele>28.4</ele>
        <time>2018-09-06T09:54:07.040Z</time>
      </trkpt>
      <trkpt lat="50.57787" lon="3.43817">
        <ele>27.7</ele>
        <time>2018-09-06T09:54:07.439Z</time>
      </trkpt>
      <trkpt lat="50.57812" lon="3.43792">
        <ele>27.3</ele>
        <time>2018-09-06T09:54:07.914Z</time>
      </trkpt>
      <trkpt lat="50.5782" lon="3.4378">
        <ele>27.4</ele>
        <time>2018-09-06T09:54:08.091Z</time>
      </trkpt>
      <trkpt lat="50.57823" lon="3.4377">
        <ele>27.3</ele>
        <time>2018-09-06T09:54:08.204Z</time>
      </trkpt>
      <trkpt lat="50.57825" lon="3.43754">
        <ele>27.2</ele>
        <time>2018-09-06T09:54:08.370Z</time>
      </trkpt>
      <trkpt lat="50.57808" lon="3.43667">
        <ele>28.5</ele>
        <time>2018-09-06T09:54:09.297Z</time>
      </trkpt>
      <trkpt lat="50.57814" lon="3.43641">
        <ele>28.9</ele>
        <time>2018-09-06T09:54:09.579Z</time>
      </trkpt>
      <trkpt lat="50.57865" lon="3.43571">
        <ele>27.1</ele>
        <time>2018-09-06T09:54:10.664Z</time>
      </trkpt>
      <trkpt lat="50.57881" lon="3.43554">
        <ele>26.8</ele>
        <time>2018-09-06T09:54:10.973Z</time>
      </trkpt>
      <trkpt lat="50.57906" lon="3.43536">
        <ele>26.8</ele>
        <time>2018-09-06T09:54:11.414Z</time>
      </trkpt>
      <trkpt lat="50.57972" lon="3.43521">
        <ele>25.1</ele>
        <time>2018-09-06T09:54:12.483Z</time>
      </trkpt>
      <trkpt lat="50.57998" lon="3.43511">
        <ele>25</ele>
        <time>2018-09-06T09:54:12.912Z</time>
      </trkpt>
      <trkpt lat="50.58034" lon="3.43484">
        <ele>26.6</ele>
        <time>2018-09-06T09:54:13.551Z</time>
      </trkpt>
      <trkpt lat="50.58075" lon="3.43434">
        <ele>27.5</ele>
        <time>2018-09-06T09:54:14.385Z</time>
      </trkpt>
      <trkpt lat="50.58116" lon="3.43383">
        <ele>28.2</ele>
        <time>2018-09-06T09:54:15.219Z</time>
      </trkpt>
      <trkpt lat="50.58139" lon="3.43358">
        <ele>28.4</ele>
        <time>2018-09-06T09:54:15.667Z</time>
      </trkpt>
      <trkpt lat="50.58211" lon="3.43291">
        <ele>31</ele>
        <time>2018-09-06T09:54:17.003Z</time>
      </trkpt>
      <trkpt lat="50.58282" lon="3.43223">
        <ele>29.9</ele>
        <time>2018-09-06T09:54:18.339Z</time>
      </trkpt>
      <trkpt lat="50.58326" lon="3.43176">
        <ele>26.7</ele>
        <time>2018-09-06T09:54:19.191Z</time>
      </trkpt>
      <trkpt lat="50.58363" lon="3.43132">
        <ele>23.6</ele>
        <time>2018-09-06T09:54:19.937Z</time>
      </trkpt>
      <trkpt lat="50.584" lon="3.43087">
        <ele>22.2</ele>
        <time>2018-09-06T09:54:20.683Z</time>
      </trkpt>
      <trkpt lat="50.58452" lon="3.43012">
        <ele>19.9</ele>
        <time>2018-09-06T09:54:21.817Z</time>
      </trkpt>
      <trkpt lat="50.58504" lon="3.42936">
        <ele>20.1</ele>
        <time>2018-09-06T09:54:22.951Z</time>
      </trkpt>
      <trkpt lat="50.58531" lon="3.42893">
        <ele>21.4</ele>
        <time>2018-09-06T09:54:23.567Z</time>
      </trkpt>
      <trkpt lat="50.58576" lon="3.42812">
        <ele>23</ele>
        <time>2018-09-06T09:54:24.663Z</time>
      </trkpt>
      <trkpt lat="50.58611" lon="3.42736">
        <ele>22.6</ele>
        <time>2018-09-06T09:54:25.625Z</time>
      </trkpt>
      <trkpt lat="50.58647" lon="3.42659">
        <ele>22.9</ele>
        <time>2018-09-06T09:54:26.587Z</time>
      </trkpt>
      <trkpt lat="50.58682" lon="3.42583">
        <ele>23.4</ele>
        <time>2018-09-06T09:54:27.549Z</time>
      </trkpt>
      <trkpt lat="50.58705" lon="3.42548">
        <ele>22.8</ele>
        <time>2018-09-06T09:54:28.062Z</time>
      </trkpt>
      <trkpt lat="50.58761" lon="3.42473">
        <ele>22.7</ele>
        <time>2018-09-06T09:54:29.240Z</time>
      </trkpt>
      <trkpt lat="50.58794" lon="3.42533">
        <ele>19.9</ele>
        <time>2018-09-06T09:54:30.044Z</time>
      </trkpt>
      <trkpt lat="50.58827" lon="3.42592">
        <ele>17.6</ele>
        <time>2018-09-06T09:54:30.848Z</time>
      </trkpt>
      <trkpt lat="50.58868" lon="3.42671">
        <ele>15</ele>
        <time>2018-09-06T09:54:31.887Z</time>
      </trkpt>
      <trkpt lat="50.58912" lon="3.42748">
        <ele>16.7</ele>
        <time>2018-09-06T09:54:32.941Z</time>
      </trkpt>
      <trkpt lat="50.58929" lon="3.42705">
        <ele>17.8</ele>
        <time>2018-09-06T09:54:33.457Z</time>
      </trkpt>
      <trkpt lat="50.58949" lon="3.42644">
        <ele>17.2</ele>
        <time>2018-09-06T09:54:34.156Z</time>
      </trkpt>
      <trkpt lat="50.58962" lon="3.42611">
        <ele>17.2</ele>
        <time>2018-09-06T09:54:34.551Z</time>
      </trkpt>
      <trkpt lat="50.58994" lon="3.42591">
        <ele>17.8</ele>
        <time>2018-09-06T09:54:35.103Z</time>
      </trkpt>
      <trkpt lat="50.59005" lon="3.42573">
        <ele>17.9</ele>
        <time>2018-09-06T09:54:35.357Z</time>
      </trkpt>
      <trkpt lat="50.59033" lon="3.42572">
        <ele>17.9</ele>
        <time>2018-09-06T09:54:35.806Z</time>
      </trkpt>
      <trkpt lat="50.59043" lon="3.42575">
        <ele>18</ele>
        <time>2018-09-06T09:54:35.969Z</time>
      </trkpt>
      <trkpt lat="50.59052" lon="3.42582">
        <ele>18.2</ele>
        <time>2018-09-06T09:54:36.130Z</time>
      </trkpt>
      <trkpt lat="50.59064" lon="3.42602">
        <ele>19.1</ele>
        <time>2018-09-06T09:54:36.410Z</time>
      </trkpt>
      <trkpt lat="50.59089" lon="3.42666">
        <ele>19.9</ele>
        <time>2018-09-06T09:54:37.175Z</time>
      </trkpt>
      <trkpt lat="50.59125" lon="3.4273">
        <ele>20</ele>
        <time>2018-09-06T09:54:38.041Z</time>
      </trkpt>
      <trkpt lat="50.59161" lon="3.42793">
        <ele>20.2</ele>
        <time>2018-09-06T09:54:38.907Z</time>
      </trkpt>
      <trkpt lat="50.59217" lon="3.42711">
        <ele>21.4</ele>
        <time>2018-09-06T09:54:40.133Z</time>
      </trkpt>
      <trkpt lat="50.59246" lon="3.4269">
        <ele>22</ele>
        <time>2018-09-06T09:54:40.645Z</time>
      </trkpt>
      <trkpt lat="50.59287" lon="3.4267">
        <ele>23.6</ele>
        <time>2018-09-06T09:54:41.333Z</time>
      </trkpt>
      <trkpt lat="50.59307" lon="3.42667">
        <ele>24</ele>
        <time>2018-09-06T09:54:41.655Z</time>
      </trkpt>
      <trkpt lat="50.59355" lon="3.42559">
        <ele>25.5</ele>
        <time>2018-09-06T09:54:43.001Z</time>
      </trkpt>
      <trkpt lat="50.59403" lon="3.4245">
        <ele>28.4</ele>
        <time>2018-09-06T09:54:44.347Z</time>
      </trkpt>
      <trkpt lat="50.59446" lon="3.42339">
        <ele>31.6</ele>
        <time>2018-09-06T09:54:45.670Z</time>
      </trkpt>
      <trkpt lat="50.59469" lon="3.42282">
        <ele>30.9</ele>
        <time>2018-09-06T09:54:46.357Z</time>
      </trkpt>
      <trkpt lat="50.59489" lon="3.42239">
        <ele>29.8</ele>
        <time>2018-09-06T09:54:46.899Z</time>
      </trkpt>
      <trkpt lat="50.59515" lon="3.42207">
        <ele>27</ele>
        <time>2018-09-06T09:54:47.428Z</time>
      </trkpt>
      <trkpt lat="50.59576" lon="3.4212">
        <ele>22.6</ele>
        <time>2018-09-06T09:54:48.741Z</time>
      </trkpt>
      <trkpt lat="50.59636" lon="3.42034">
        <ele>23.2</ele>
        <time>2018-09-06T09:54:50.054Z</time>
      </trkpt>
      <trkpt lat="50.59697" lon="3.41947">
        <ele>24.4</ele>
        <time>2018-09-06T09:54:51.367Z</time>
      </trkpt>
      <trkpt lat="50.5975" lon="3.41862">
        <ele>27</ele>
        <time>2018-09-06T09:54:52.579Z</time>
      </trkpt>
      <trkpt lat="50.59803" lon="3.41777">
        <ele>25.7</ele>
        <time>2018-09-06T09:54:53.791Z</time>
      </trkpt>
      <trkpt lat="50.59846" lon="3.41712">
        <ele>23</ele>
        <time>2018-09-06T09:54:54.750Z</time>
      </trkpt>
      <trkpt lat="50.59889" lon="3.41646">
        <ele>23.4</ele>
        <time>2018-09-06T09:54:55.709Z</time>
      </trkpt>
      <trkpt lat="50.59922" lon="3.41596">
        <ele>24.8</ele>
        <time>2018-09-06T09:54:56.447Z</time>
      </trkpt>
      <trkpt lat="50.59955" lon="3.41545">
        <ele>27.4</ele>
        <time>2018-09-06T09:54:57.185Z</time>
      </trkpt>
      <trkpt lat="50.59962" lon="3.41531">
        <ele>27.7</ele>
        <time>2018-09-06T09:54:57.366Z</time>
      </trkpt>
      <trkpt lat="50.59966" lon="3.41519">
        <ele>28</ele>
        <time>2018-09-06T09:54:57.504Z</time>
      </trkpt>
      <trkpt lat="50.5997" lon="3.41493">
        <ele>28.6</ele>
        <time>2018-09-06T09:54:57.776Z</time>
      </trkpt>
      <trkpt lat="50.59973" lon="3.4139">
        <ele>27.9</ele>
        <time>2018-09-06T09:54:58.825Z</time>
      </trkpt>
      <trkpt lat="50.59983" lon="3.4131">
        <ele>26.8</ele>
        <time>2018-09-06T09:54:59.655Z</time>
      </trkpt>
      <trkpt lat="50.59986" lon="3.4131">
        <ele>26.8</ele>
        <time>2018-09-06T09:54:59.703Z</time>
      </trkpt>
      <trkpt lat="50.59988" lon="3.41308">
        <ele>26.8</ele>
        <time>2018-09-06T09:54:59.741Z</time>
      </trkpt>
      <trkpt lat="50.59993" lon="3.41297">
        <ele>26.7</ele>
        <time>2018-09-06T09:54:59.879Z</time>
      </trkpt>
      <trkpt lat="50.60034" lon="3.41294">
        <ele>25.6</ele>
        <time>2018-09-06T09:55:00.537Z</time>
      </trkpt>
      <trkpt lat="50.60099" lon="3.41305">
        <ele>24.8</ele>
        <time>2018-09-06T09:55:01.585Z</time>
      </trkpt>
      <trkpt lat="50.60116" lon="3.4131">
        <ele>24.9</ele>
        <time>2018-09-06T09:55:01.862Z</time>
      </trkpt>
      <trkpt lat="50.60127" lon="3.41317">
        <ele>25</ele>
        <time>2018-09-06T09:55:02.052Z</time>
      </trkpt>
      <trkpt lat="50.60139" lon="3.41328">
        <ele>25.2</ele>
        <time>2018-09-06T09:55:02.275Z</time>
      </trkpt>
      <trkpt lat="50.60152" lon="3.41347">
        <ele>25.4</ele>
        <time>2018-09-06T09:55:02.559Z</time>
      </trkpt>
      <trkpt lat="50.60203" lon="3.41411">
        <ele>27.4</ele>
        <time>2018-09-06T09:55:03.604Z</time>
      </trkpt>
      <trkpt lat="50.60247" lon="3.41448">
        <ele>29.1</ele>
        <time>2018-09-06T09:55:04.397Z</time>
      </trkpt>
      <trkpt lat="50.6029" lon="3.41485">
        <ele>30.8</ele>
        <time>2018-09-06T09:55:05.190Z</time>
      </trkpt>
      <trkpt lat="50.60342" lon="3.4152">
        <ele>31.2</ele>
        <time>2018-09-06T09:55:06.097Z</time>
      </trkpt>
      <trkpt lat="50.60369" lon="3.41532">
        <ele>30.6</ele>
        <time>2018-09-06T09:55:06.547Z</time>
      </trkpt>
      <trkpt lat="50.60368" lon="3.41532">
        <ele>30.6</ele>
        <time>2018-09-06T09:55:06.563Z</time>
      </trkpt>
      <trkpt lat="50.60419" lon="3.41544">
        <ele>28.4</ele>
        <time>2018-09-06T09:55:07.390Z</time>
      </trkpt>
      <trkpt lat="50.60467" lon="3.41571">
        <ele>27.9</ele>
        <time>2018-09-06T09:55:08.198Z</time>
      </trkpt>
      <trkpt lat="50.60514" lon="3.41597">
        <ele>25.9</ele>
        <time>2018-09-06T09:55:09.006Z</time>
      </trkpt>
      <trkpt lat="50.60561" lon="3.41622">
        <ele>24.4</ele>
        <time>2018-09-06T09:55:09.792Z</time>
      </trkpt>
      <trkpt lat="50.60607" lon="3.41646">
        <ele>21.3</ele>
        <time>2018-09-06T09:55:10.578Z</time>
      </trkpt>
      <trkpt lat="50.60631" lon="3.41644">
        <ele>20.5</ele>
        <time>2018-09-06T09:55:10.963Z</time>
      </trkpt>
      <trkpt lat="50.60684" lon="3.41585">
        <ele>19.6</ele>
        <time>2018-09-06T09:55:12.003Z</time>
      </trkpt>
      <trkpt lat="50.6072" lon="3.41581">
        <ele>20.1</ele>
        <time>2018-09-06T09:55:12.582Z</time>
      </trkpt>
      <trkpt lat="50.60742" lon="3.41598">
        <ele>19.6</ele>
        <time>2018-09-06T09:55:12.975Z</time>
      </trkpt>
      <trkpt lat="50.60799" lon="3.41706">
        <ele>19.5</ele>
        <time>2018-09-06T09:55:14.404Z</time>
      </trkpt>
      <trkpt lat="50.60851" lon="3.41817">
        <ele>18.7</ele>
        <time>2018-09-06T09:55:15.808Z</time>
      </trkpt>
      <trkpt lat="50.60857" lon="3.4189">
        <ele>18.2</ele>
        <time>2018-09-06T09:55:16.557Z</time>
      </trkpt>
      <trkpt lat="50.60863" lon="3.41963">
        <ele>18.4</ele>
        <time>2018-09-06T09:55:17.306Z</time>
      </trkpt>
      <trkpt lat="50.60893" lon="3.42075">
        <ele>18.3</ele>
        <time>2018-09-06T09:55:18.543Z</time>
      </trkpt>
      <trkpt lat="50.60927" lon="3.42148">
        <ele>17.9</ele>
        <time>2018-09-06T09:55:19.464Z</time>
      </trkpt>
      <trkpt lat="50.60961" lon="3.42221">
        <ele>18</ele>
        <time>2018-09-06T09:55:20.385Z</time>
      </trkpt>
      <trkpt lat="50.60997" lon="3.42277">
        <ele>18.2</ele>
        <time>2018-09-06T09:55:21.192Z</time>
      </trkpt>
      <trkpt lat="50.61033" lon="3.42332">
        <ele>18.4</ele>
        <time>2018-09-06T09:55:21.999Z</time>
      </trkpt>
      <trkpt lat="50.61046" lon="3.4232">
        <ele>18.3</ele>
        <time>2018-09-06T09:55:22.241Z</time>
      </trkpt>
      <trkpt lat="50.61085" lon="3.42234">
        <ele>18</ele>
        <time>2018-09-06T09:55:23.316Z</time>
      </trkpt>
      <trkpt lat="50.6109" lon="3.42225">
        <ele>18</ele>
        <time>2018-09-06T09:55:23.438Z</time>
      </trkpt>
      <trkpt lat="50.6112" lon="3.42165">
        <ele>18</ele>
        <time>2018-09-06T09:55:24.215Z</time>
      </trkpt>
      <trkpt lat="50.61147" lon="3.42105">
        <ele>17.8</ele>
        <time>2018-09-06T09:55:24.959Z</time>
      </trkpt>
      <trkpt lat="50.61173" lon="3.42045">
        <ele>17.6</ele>
        <time>2018-09-06T09:55:25.703Z</time>
      </trkpt>
      <trkpt lat="50.61191" lon="3.42008">
        <ele>17.7</ele>
        <time>2018-09-06T09:55:26.177Z</time>
      </trkpt>
      <trkpt lat="50.61205" lon="3.41977">
        <ele>17.8</ele>
        <time>2018-09-06T09:55:26.564Z</time>
      </trkpt>
      <trkpt lat="50.61221" lon="3.41951">
        <ele>17.8</ele>
        <time>2018-09-06T09:55:26.932Z</time>
      </trkpt>
      <trkpt lat="50.61262" lon="3.41897">
        <ele>17.7</ele>
        <time>2018-09-06T09:55:27.792Z</time>
      </trkpt>
      <trkpt lat="50.61303" lon="3.41842">
        <ele>17.3</ele>
        <time>2018-09-06T09:55:28.652Z</time>
      </trkpt>
      <trkpt lat="50.61349" lon="3.41783">
        <ele>16.5</ele>
        <time>2018-09-06T09:55:29.603Z</time>
      </trkpt>
      <trkpt lat="50.61395" lon="3.41724">
        <ele>16.5</ele>
        <time>2018-09-06T09:55:30.554Z</time>
      </trkpt>
      <trkpt lat="50.61455" lon="3.41662">
        <ele>17.3</ele>
        <time>2018-09-06T09:55:31.704Z</time>
      </trkpt>
      <trkpt lat="50.61472" lon="3.41637">
        <ele>17.4</ele>
        <time>2018-09-06T09:55:32.077Z</time>
      </trkpt>
      <trkpt lat="50.61505" lon="3.41558">
        <ele>18</ele>
        <time>2018-09-06T09:55:33.039Z</time>
      </trkpt>
      <trkpt lat="50.61539" lon="3.4148">
        <ele>18</ele>
        <time>2018-09-06T09:55:34.001Z</time>
      </trkpt>
      <trkpt lat="50.61572" lon="3.41401">
        <ele>18.4</ele>
        <time>2018-09-06T09:55:34.963Z</time>
      </trkpt>
      <trkpt lat="50.61614" lon="3.41312">
        <ele>19</ele>
        <time>2018-09-06T09:55:36.091Z</time>
      </trkpt>
      <trkpt lat="50.61624" lon="3.4129">
        <ele>19</ele>
        <time>2018-09-06T09:55:36.366Z</time>
      </trkpt>
      <trkpt lat="50.61631" lon="3.41283">
        <ele>19</ele>
        <time>2018-09-06T09:55:36.499Z</time>
      </trkpt>
      <trkpt lat="50.61637" lon="3.41268">
        <ele>19.1</ele>
        <time>2018-09-06T09:55:36.679Z</time>
      </trkpt>
      <trkpt lat="50.61653" lon="3.41278">
        <ele>18.9</ele>
        <time>2018-09-06T09:55:36.955Z</time>
      </trkpt>
      <trkpt lat="50.6172" lon="3.4131">
        <ele>18.3</ele>
        <time>2018-09-06T09:55:38.077Z</time>
      </trkpt>
      <trkpt lat="50.61787" lon="3.41326">
        <ele>18.5</ele>
        <time>2018-09-06T09:55:39.163Z</time>
      </trkpt>
      <trkpt lat="50.61854" lon="3.41341">
        <ele>18.2</ele>
        <time>2018-09-06T09:55:40.249Z</time>
      </trkpt>
      <trkpt lat="50.61921" lon="3.41357">
        <ele>17.3</ele>
        <time>2018-09-06T09:55:41.335Z</time>
      </trkpt>
      <trkpt lat="50.62004" lon="3.41377">
        <ele>18.3</ele>
        <time>2018-09-06T09:55:42.676Z</time>
      </trkpt>
      <trkpt lat="50.62086" lon="3.41397">
        <ele>19</ele>
        <time>2018-09-06T09:55:44.017Z</time>
      </trkpt>
      <trkpt lat="50.62169" lon="3.41417">
        <ele>19</ele>
        <time>2018-09-06T09:55:45.358Z</time>
      </trkpt>
      <trkpt lat="50.62252" lon="3.41437">
        <ele>18.9</ele>
        <time>2018-09-06T09:55:46.699Z</time>
      </trkpt>
      <trkpt lat="50.62334" lon="3.41457">
        <ele>19.1</ele>
        <time>2018-09-06T09:55:48.040Z</time>
      </trkpt>
      <trkpt lat="50.62417" lon="3.41477">
        <ele>20.6</ele>
        <time>2018-09-06T09:55:49.381Z</time>
      </trkpt>
      <trkpt lat="50.62498" lon="3.41497">
        <ele>20.9</ele>
        <time>2018-09-06T09:55:50.690Z</time>
      </trkpt>
      <trkpt lat="50.62578" lon="3.41517">
        <ele>20.3</ele>
        <time>2018-09-06T09:55:51.999Z</time>
      </trkpt>
      <trkpt lat="50.62659" lon="3.41537">
        <ele>20.7</ele>
        <time>2018-09-06T09:55:53.308Z</time>
      </trkpt>
      <trkpt lat="50.62714" lon="3.41552">
        <ele>21.6</ele>
        <time>2018-09-06T09:55:54.203Z</time>
      </trkpt>
      <trkpt lat="50.62743" lon="3.41571">
        <ele>22.3</ele>
        <time>2018-09-06T09:55:54.706Z</time>
      </trkpt>
      <trkpt lat="50.62762" lon="3.41589">
        <ele>23.2</ele>
        <time>2018-09-06T09:55:55.061Z</time>
      </trkpt>
      <trkpt lat="50.62765" lon="3.41597">
        <ele>23.3</ele>
        <time>2018-09-06T09:55:55.156Z</time>
      </trkpt>
      <trkpt lat="50.62777" lon="3.41612">
        <ele>23.4</ele>
        <time>2018-09-06T09:55:55.402Z</time>
      </trkpt>
      <trkpt lat="50.62789" lon="3.41617">
        <ele>23.4</ele>
        <time>2018-09-06T09:55:55.601Z</time>
      </trkpt>
      <trkpt lat="50.62797" lon="3.41616">
        <ele>23.4</ele>
        <time>2018-09-06T09:55:55.730Z</time>
      </trkpt>
      <trkpt lat="50.62806" lon="3.41612">
        <ele>23.2</ele>
        <time>2018-09-06T09:55:55.880Z</time>
      </trkpt>
      <trkpt lat="50.62816" lon="3.416">
        <ele>22.9</ele>
        <time>2018-09-06T09:55:56.081Z</time>
      </trkpt>
      <trkpt lat="50.62824" lon="3.41579">
        <ele>21.8</ele>
        <time>2018-09-06T09:55:56.330Z</time>
      </trkpt>
      <trkpt lat="50.62824" lon="3.41551">
        <ele>21.5</ele>
        <time>2018-09-06T09:55:56.615Z</time>
      </trkpt>
      <trkpt lat="50.62816" lon="3.41528">
        <ele>21.1</ele>
        <time>2018-09-06T09:55:56.882Z</time>
      </trkpt>
      <trkpt lat="50.6281" lon="3.41521">
        <ele>21.1</ele>
        <time>2018-09-06T09:55:57.002Z</time>
      </trkpt>
      <trkpt lat="50.62834" lon="3.41478">
        <ele>20.1</ele>
        <time>2018-09-06T09:55:57.584Z</time>
      </trkpt>
      <trkpt lat="50.62841" lon="3.41454">
        <ele>19.9</ele>
        <time>2018-09-06T09:55:57.853Z</time>
      </trkpt>
      <trkpt lat="50.62866" lon="3.41332">
        <ele>19</ele>
        <time>2018-09-06T09:55:59.160Z</time>
      </trkpt>
      <trkpt lat="50.62892" lon="3.4121">
        <ele>20.3</ele>
        <time>2018-09-06T09:56:00.467Z</time>
      </trkpt>
      <trkpt lat="50.62917" lon="3.41087">
        <ele>20.1</ele>
        <time>2018-09-06T09:56:01.774Z</time>
      </trkpt>
      <trkpt lat="50.62942" lon="3.40965">
        <ele>20.1</ele>
        <time>2018-09-06T09:56:03.081Z</time>
      </trkpt>
      <trkpt lat="50.62946" lon="3.40934">
        <ele>20.2</ele>
        <time>2018-09-06T09:56:03.403Z</time>
      </trkpt>
      <trkpt lat="50.62946" lon="3.40905">
        <ele>20.2</ele>
        <time>2018-09-06T09:56:03.698Z</time>
      </trkpt>
      <trkpt lat="50.6294" lon="3.40863">
        <ele>20.2</ele>
        <time>2018-09-06T09:56:04.136Z</time>
      </trkpt>
      <trkpt lat="50.62923" lon="3.4082">
        <ele>20.3</ele>
        <time>2018-09-06T09:56:04.651Z</time>
      </trkpt>
      <trkpt lat="50.62881" lon="3.40742">
        <ele>19.8</ele>
        <time>2018-09-06T09:56:05.695Z</time>
      </trkpt>
      <trkpt lat="50.62839" lon="3.40663">
        <ele>19.9</ele>
        <time>2018-09-06T09:56:06.739Z</time>
      </trkpt>
      <trkpt lat="50.62817" lon="3.40631">
        <ele>20</ele>
        <time>2018-09-06T09:56:07.219Z</time>
      </trkpt>
      <trkpt lat="50.62771" lon="3.40572">
        <ele>20</ele>
        <time>2018-09-06T09:56:08.170Z</time>
      </trkpt>
      <trkpt lat="50.62726" lon="3.40506">
        <ele>19.7</ele>
        <time>2018-09-06T09:56:09.155Z</time>
      </trkpt>
      <trkpt lat="50.62705" lon="3.40478">
        <ele>19.5</ele>
        <time>2018-09-06T09:56:09.596Z</time>
      </trkpt>
      <trkpt lat="50.62659" lon="3.40431">
        <ele>19.8</ele>
        <time>2018-09-06T09:56:10.484Z</time>
      </trkpt>
      <trkpt lat="50.62612" lon="3.40383">
        <ele>20.4</ele>
        <time>2018-09-06T09:56:11.372Z</time>
      </trkpt>
      <trkpt lat="50.62622" lon="3.40364">
        <ele>20.6</ele>
        <time>2018-09-06T09:56:11.623Z</time>
      </trkpt>
      <trkpt lat="50.62635" lon="3.40327">
        <ele>21.8</ele>
        <time>2018-09-06T09:56:12.053Z</time>
      </trkpt>
      <trkpt lat="50.62636" lon="3.40297">
        <ele>22.2</ele>
        <time>2018-09-06T09:56:12.359Z</time>
      </trkpt>
      <trkpt lat="50.62617" lon="3.40201">
        <ele>24.2</ele>
        <time>2018-09-06T09:56:13.382Z</time>
      </trkpt>
      <trkpt lat="50.62615" lon="3.40183">
        <ele>24.3</ele>
        <time>2018-09-06T09:56:13.568Z</time>
      </trkpt>
      <trkpt lat="50.62615" lon="3.40161">
        <ele>25</ele>
        <time>2018-09-06T09:56:13.792Z</time>
      </trkpt>
      <trkpt lat="50.62627" lon="3.40079">
        <ele>25.6</ele>
        <time>2018-09-06T09:56:14.653Z</time>
      </trkpt>
      <trkpt lat="50.62639" lon="3.39996">
        <ele>25.2</ele>
        <time>2018-09-06T09:56:15.514Z</time>
      </trkpt>
      <trkpt lat="50.62644" lon="3.39949">
        <ele>24.6</ele>
        <time>2018-09-06T09:56:15.999Z</time>
      </trkpt>
      <trkpt lat="50.6265" lon="3.39879">
        <ele>23.1</ele>
        <time>2018-09-06T09:56:16.722Z</time>
      </trkpt>
      <trkpt lat="50.62656" lon="3.39808">
        <ele>22.3</ele>
        <time>2018-09-06T09:56:17.445Z</time>
      </trkpt>
      <trkpt lat="50.6268" lon="3.39683">
        <ele>22.4</ele>
        <time>2018-09-06T09:56:18.773Z</time>
      </trkpt>
      <trkpt lat="50.62689" lon="3.39614">
        <ele>21.8</ele>
        <time>2018-09-06T09:56:19.489Z</time>
      </trkpt>
      <trkpt lat="50.62703" lon="3.39546">
        <ele>20.3</ele>
        <time>2018-09-06T09:56:20.214Z</time>
      </trkpt>
      <trkpt lat="50.62716" lon="3.39478">
        <ele>19.8</ele>
        <time>2018-09-06T09:56:20.939Z</time>
      </trkpt>
      <trkpt lat="50.62738" lon="3.39398">
        <ele>20.6</ele>
        <time>2018-09-06T09:56:21.826Z</time>
      </trkpt>
      <trkpt lat="50.6276" lon="3.39318">
        <ele>21.6</ele>
        <time>2018-09-06T09:56:22.713Z</time>
      </trkpt>
      <trkpt lat="50.6279" lon="3.392">
        <ele>23.5</ele>
        <time>2018-09-06T09:56:24.006Z</time>
      </trkpt>
      <trkpt lat="50.62813" lon="3.39133">
        <ele>24</ele>
        <time>2018-09-06T09:56:24.781Z</time>
      </trkpt>
      <trkpt lat="50.62822" lon="3.39096">
        <ele>23.8</ele>
        <time>2018-09-06T09:56:25.184Z</time>
      </trkpt>
      <trkpt lat="50.62826" lon="3.39074">
        <ele>23.5</ele>
        <time>2018-09-06T09:56:25.417Z</time>
      </trkpt>
      <trkpt lat="50.62828" lon="3.39058">
        <ele>23.2</ele>
        <time>2018-09-06T09:56:25.583Z</time>
      </trkpt>
      <trkpt lat="50.62864" lon="3.3896">
        <ele>23</ele>
        <time>2018-09-06T09:56:26.735Z</time>
      </trkpt>
      <trkpt lat="50.62894" lon="3.38977">
        <ele>23</ele>
        <time>2018-09-06T09:56:27.246Z</time>
      </trkpt>
      <trkpt lat="50.62956" lon="3.3902">
        <ele>21.7</ele>
        <time>2018-09-06T09:56:28.332Z</time>
      </trkpt>
      <trkpt lat="50.6298" lon="3.39042">
        <ele>21.3</ele>
        <time>2018-09-06T09:56:28.777Z</time>
      </trkpt>
      <trkpt lat="50.63021" lon="3.39099">
        <ele>20.2</ele>
        <time>2018-09-06T09:56:29.650Z</time>
      </trkpt>
      <trkpt lat="50.63062" lon="3.39155">
        <ele>20.2</ele>
        <time>2018-09-06T09:56:30.523Z</time>
      </trkpt>
      <trkpt lat="50.63068" lon="3.3917">
        <ele>20</ele>
        <time>2018-09-06T09:56:30.703Z</time>
      </trkpt>
      <trkpt lat="50.63071" lon="3.39186">
        <ele>20</ele>
        <time>2018-09-06T09:56:30.873Z</time>
      </trkpt>
      <trkpt lat="50.63074" lon="3.39241">
        <ele>19.4</ele>
        <time>2018-09-06T09:56:31.434Z</time>
      </trkpt>
      <trkpt lat="50.63083" lon="3.39284">
        <ele>18.7</ele>
        <time>2018-09-06T09:56:31.894Z</time>
      </trkpt>
      <trkpt lat="50.6309" lon="3.39303">
        <ele>18.9</ele>
        <time>2018-09-06T09:56:32.117Z</time>
      </trkpt>
      <trkpt lat="50.63101" lon="3.39322">
        <ele>18.7</ele>
        <time>2018-09-06T09:56:32.379Z</time>
      </trkpt>
      <trkpt lat="50.63137" lon="3.39367">
        <ele>18.7</ele>
        <time>2018-09-06T09:56:33.112Z</time>
      </trkpt>
      <trkpt lat="50.63173" lon="3.39411">
        <ele>19.1</ele>
        <time>2018-09-06T09:56:33.845Z</time>
      </trkpt>
      <trkpt lat="50.63233" lon="3.39481">
        <ele>18.3</ele>
        <time>2018-09-06T09:56:35.046Z</time>
      </trkpt>
      <trkpt lat="50.63294" lon="3.39551">
        <ele>18.7</ele>
        <time>2018-09-06T09:56:36.247Z</time>
      </trkpt>
      <trkpt lat="50.63354" lon="3.39621">
        <ele>19.3</ele>
        <time>2018-09-06T09:56:37.448Z</time>
      </trkpt>
      <trkpt lat="50.63369" lon="3.39634">
        <ele>19.4</ele>
        <time>2018-09-06T09:56:37.722Z</time>
      </trkpt>
      <trkpt lat="50.63402" lon="3.39648">
        <ele>20</ele>
        <time>2018-09-06T09:56:38.270Z</time>
      </trkpt>
      <trkpt lat="50.63402" lon="3.39648">
        <ele>20</ele>
        <time>2018-09-06T09:56:38.270Z</time>
      </trkpt>
      <trkpt lat="50.63418" lon="3.39652">
        <ele>20.7</ele>
        <time>2018-09-06T09:56:38.530Z</time>
      </trkpt>
      <trkpt lat="50.63445" lon="3.39654">
        <ele>20.5</ele>
        <time>2018-09-06T09:56:38.963Z</time>
      </trkpt>
      <trkpt lat="50.63531" lon="3.39656">
        <ele>21.2</ele>
        <time>2018-09-06T09:56:40.347Z</time>
      </trkpt>
      <trkpt lat="50.63618" lon="3.39658">
        <ele>22.9</ele>
        <time>2018-09-06T09:56:41.731Z</time>
      </trkpt>
      <trkpt lat="50.63704" lon="3.3966">
        <ele>23.1</ele>
        <time>2018-09-06T09:56:43.115Z</time>
      </trkpt>
      <trkpt lat="50.63735" lon="3.39667">
        <ele>22.3</ele>
        <time>2018-09-06T09:56:43.617Z</time>
      </trkpt>
      <trkpt lat="50.63754" lon="3.39678">
        <ele>21.9</ele>
        <time>2018-09-06T09:56:43.941Z</time>
      </trkpt>
      <trkpt lat="50.63775" lon="3.39693">
        <ele>21.8</ele>
        <time>2018-09-06T09:56:44.311Z</time>
      </trkpt>
      <trkpt lat="50.63819" lon="3.39753">
        <ele>21</ele>
        <time>2018-09-06T09:56:45.240Z</time>
      </trkpt>
      <trkpt lat="50.63863" lon="3.39812">
        <ele>21.2</ele>
        <time>2018-09-06T09:56:46.169Z</time>
      </trkpt>
      <trkpt lat="50.63934" lon="3.39895">
        <ele>21.7</ele>
        <time>2018-09-06T09:56:47.586Z</time>
      </trkpt>
      <trkpt lat="50.63961" lon="3.3991">
        <ele>21.8</ele>
        <time>2018-09-06T09:56:48.045Z</time>
      </trkpt>
      <trkpt lat="50.64015" lon="3.39924">
        <ele>21.9</ele>
        <time>2018-09-06T09:56:48.914Z</time>
      </trkpt>
      <trkpt lat="50.64068" lon="3.39937">
        <ele>22.2</ele>
        <time>2018-09-06T09:56:49.783Z</time>
      </trkpt>
      <trkpt lat="50.64099" lon="3.39951">
        <ele>23.3</ele>
        <time>2018-09-06T09:56:50.300Z</time>
      </trkpt>
      <trkpt lat="50.64118" lon="3.39964">
        <ele>23.4</ele>
        <time>2018-09-06T09:56:50.632Z</time>
      </trkpt>
      <trkpt lat="50.64191" lon="3.40024">
        <ele>25.4</ele>
        <time>2018-09-06T09:56:51.950Z</time>
      </trkpt>
      <trkpt lat="50.64264" lon="3.40084">
        <ele>28.4</ele>
        <time>2018-09-06T09:56:53.268Z</time>
      </trkpt>
      <trkpt lat="50.64336" lon="3.40145">
        <ele>34</ele>
        <time>2018-09-06T09:56:54.586Z</time>
      </trkpt>
      <trkpt lat="50.64409" lon="3.40205">
        <ele>35.9</ele>
        <time>2018-09-06T09:56:55.904Z</time>
      </trkpt>
      <trkpt lat="50.64482" lon="3.40265">
        <ele>38.4</ele>
        <time>2018-09-06T09:56:57.222Z</time>
      </trkpt>
      <trkpt lat="50.64501" lon="3.40278">
        <ele>40.2</ele>
        <time>2018-09-06T09:56:57.554Z</time>
      </trkpt>
      <trkpt lat="50.64528" lon="3.40291">
        <ele>40.8</ele>
        <time>2018-09-06T09:56:58.007Z</time>
      </trkpt>
      <trkpt lat="50.64584" lon="3.40311">
        <ele>43.7</ele>
        <time>2018-09-06T09:56:58.927Z</time>
      </trkpt>
      <trkpt lat="50.64628" lon="3.40334">
        <ele>45.7</ele>
        <time>2018-09-06T09:56:59.670Z</time>
      </trkpt>
      <trkpt lat="50.64664" lon="3.40342">
        <ele>46.6</ele>
        <time>2018-09-06T09:57:00.253Z</time>
      </trkpt>
      <trkpt lat="50.64677" lon="3.40344">
        <ele>48.8</ele>
        <time>2018-09-06T09:57:00.462Z</time>
      </trkpt>
      <trkpt lat="50.64718" lon="3.40342">
        <ele>51.4</ele>
        <time>2018-09-06T09:57:01.120Z</time>
      </trkpt>
      <trkpt lat="50.64783" lon="3.40343">
        <ele>57.3</ele>
        <time>2018-09-06T09:57:02.162Z</time>
      </trkpt>
      <trkpt lat="50.64798" lon="3.40344">
        <ele>58.2</ele>
        <time>2018-09-06T09:57:02.403Z</time>
      </trkpt>
      <trkpt lat="50.64815" lon="3.40349">
        <ele>59.1</ele>
        <time>2018-09-06T09:57:02.680Z</time>
      </trkpt>
      <trkpt lat="50.64836" lon="3.40367">
        <ele>63.4</ele>
        <time>2018-09-06T09:57:03.063Z</time>
      </trkpt>
      <trkpt lat="50.64848" lon="3.40383">
        <ele>63.9</ele>
        <time>2018-09-06T09:57:03.315Z</time>
      </trkpt>
      <trkpt lat="50.6487" lon="3.40422">
        <ele>66.7</ele>
        <time>2018-09-06T09:57:03.846Z</time>
      </trkpt>
      <trkpt lat="50.64885" lon="3.40438">
        <ele>67.9</ele>
        <time>2018-09-06T09:57:04.136Z</time>
      </trkpt>
      <trkpt lat="50.64899" lon="3.40445">
        <ele>68.7</ele>
        <time>2018-09-06T09:57:04.371Z</time>
      </trkpt>
      <trkpt lat="50.64911" lon="3.40446">
        <ele>69.1</ele>
        <time>2018-09-06T09:57:04.564Z</time>
      </trkpt>
      <trkpt lat="50.64952" lon="3.40437">
        <ele>74.3</ele>
        <time>2018-09-06T09:57:05.228Z</time>
      </trkpt>
      <trkpt lat="50.64975" lon="3.40426">
        <ele>75.4</ele>
        <time>2018-09-06T09:57:05.613Z</time>
      </trkpt>
      <trkpt lat="50.6505" lon="3.40395">
        <ele>80.7</ele>
        <time>2018-09-06T09:57:06.856Z</time>
      </trkpt>
      <trkpt lat="50.6506" lon="3.40393">
        <ele>81.2</ele>
        <time>2018-09-06T09:57:07.018Z</time>
      </trkpt>
      <trkpt lat="50.65083" lon="3.40396">
        <ele>82.1</ele>
        <time>2018-09-06T09:57:07.388Z</time>
      </trkpt>
      <trkpt lat="50.65101" lon="3.40408">
        <ele>85.2</ele>
        <time>2018-09-06T09:57:07.701Z</time>
      </trkpt>
      <trkpt lat="50.65171" lon="3.40484">
        <ele>89.7</ele>
        <time>2018-09-06T09:57:09.063Z</time>
      </trkpt>
      <trkpt lat="50.65191" lon="3.40497">
        <ele>91</ele>
        <time>2018-09-06T09:57:09.410Z</time>
      </trkpt>
      <trkpt lat="50.65204" lon="3.40509">
        <ele>92.1</ele>
        <time>2018-09-06T09:57:09.651Z</time>
      </trkpt>
      <trkpt lat="50.6521" lon="3.40501">
        <ele>92.7</ele>
        <time>2018-09-06T09:57:09.777Z</time>
      </trkpt>
      <trkpt lat="50.65216" lon="3.40496">
        <ele>93.6</ele>
        <time>2018-09-06T09:57:09.886Z</time>
      </trkpt>
      <trkpt lat="50.65251" lon="3.40488">
        <ele>99.9</ele>
        <time>2018-09-06T09:57:10.453Z</time>
      </trkpt>
      <trkpt lat="50.65256" lon="3.40486">
        <ele>100.3</ele>
        <time>2018-09-06T09:57:10.536Z</time>
      </trkpt>
      <trkpt lat="50.65322" lon="3.40466">
        <ele>104.7</ele>
        <time>2018-09-06T09:57:11.606Z</time>
      </trkpt>
      <trkpt lat="50.65387" lon="3.40446">
        <ele>113.3</ele>
        <time>2018-09-06T09:57:12.676Z</time>
      </trkpt>
      <trkpt lat="50.65466" lon="3.40421">
        <ele>121.8</ele>
        <time>2018-09-06T09:57:13.968Z</time>
      </trkpt>
      <trkpt lat="50.65474" lon="3.40414">
        <ele>123.9</ele>
        <time>2018-09-06T09:57:14.115Z</time>
      </trkpt>
      <trkpt lat="50.65477" lon="3.40402">
        <ele>124</ele>
        <time>2018-09-06T09:57:14.246Z</time>
      </trkpt>
      <trkpt lat="50.65487" lon="3.40327">
        <ele>127.4</ele>
        <time>2018-09-06T09:57:15.030Z</time>
      </trkpt>
      <trkpt lat="50.65497" lon="3.40251">
        <ele>132.1</ele>
        <time>2018-09-06T09:57:15.814Z</time>
      </trkpt>
      <trkpt lat="50.6549" lon="3.40119">
        <ele>133.1</ele>
        <time>2018-09-06T09:57:17.160Z</time>
      </trkpt>
      <trkpt lat="50.65494" lon="3.40013">
        <ele>137.5</ele>
        <time>2018-09-06T09:57:18.239Z</time>
      </trkpt>
      <trkpt lat="50.65488" lon="3.39975">
        <ele>135.8</ele>
        <time>2018-09-06T09:57:18.637Z</time>
      </trkpt>
      <trkpt lat="50.65493" lon="3.39964">
        <ele>135.2</ele>
        <time>2018-09-06T09:57:18.775Z</time>
      </trkpt>
      <trkpt lat="50.65504" lon="3.3995">
        <ele>133.7</ele>
        <time>2018-09-06T09:57:19.002Z</time>
      </trkpt>
      <trkpt lat="50.65503" lon="3.3992">
        <ele>133</ele>
        <time>2018-09-06T09:57:19.307Z</time>
      </trkpt>
      <trkpt lat="50.65501" lon="3.39914">
        <ele>132.4</ele>
        <time>2018-09-06T09:57:19.376Z</time>
      </trkpt>
      <trkpt lat="50.655" lon="3.39914">
        <ele>132.5</ele>
        <time>2018-09-06T09:57:19.392Z</time>
      </trkpt>
      <trkpt lat="50.65498" lon="3.39907">
        <ele>132.3</ele>
        <time>2018-09-06T09:57:19.470Z</time>
      </trkpt>
      <trkpt lat="50.65481" lon="3.3988">
        <ele>131.1</ele>
        <time>2018-09-06T09:57:19.857Z</time>
      </trkpt>
      <trkpt lat="50.65473" lon="3.39872">
        <ele>131</ele>
        <time>2018-09-06T09:57:20.009Z</time>
      </trkpt>
      <trkpt lat="50.65453" lon="3.39856">
        <ele>131.1</ele>
        <time>2018-09-06T09:57:20.369Z</time>
      </trkpt>
      <trkpt lat="50.65432" lon="3.39849">
        <ele>131.8</ele>
        <time>2018-09-06T09:57:20.713Z</time>
      </trkpt>
      <trkpt lat="50.65428" lon="3.39853">
        <ele>131.8</ele>
        <time>2018-09-06T09:57:20.789Z</time>
      </trkpt>
      <trkpt lat="50.65429" lon="3.39863">
        <ele>131.7</ele>
        <time>2018-09-06T09:57:20.892Z</time>
      </trkpt>
      <trkpt lat="50.65433" lon="3.39876">
        <ele>131.6</ele>
        <time>2018-09-06T09:57:21.039Z</time>
      </trkpt>
      <trkpt lat="50.65441" lon="3.399">
        <ele>131.7</ele>
        <time>2018-09-06T09:57:21.315Z</time>
      </trkpt>
      <trkpt lat="50.65442" lon="3.39922">
        <ele>133.1</ele>
        <time>2018-09-06T09:57:21.539Z</time>
      </trkpt>
      <trkpt lat="50.65446" lon="3.39935">
        <ele>133.4</ele>
        <time>2018-09-06T09:57:21.686Z</time>
      </trkpt>
      <trkpt lat="50.65447" lon="3.39945">
        <ele>133.5</ele>
        <time>2018-09-06T09:57:21.789Z</time>
      </trkpt>
      <trkpt lat="50.65459" lon="3.39962">
        <ele>134.1</ele>
        <time>2018-09-06T09:57:22.048Z</time>
      </trkpt>
      <trkpt lat="50.65474" lon="3.39968">
        <ele>134.8</ele>
        <time>2018-09-06T09:57:22.296Z</time>
      </trkpt>
      <trkpt lat="50.65473" lon="3.39968">
        <ele>134.8</ele>
        <time>2018-09-06T09:57:22.312Z</time>
      </trkpt>
      <trkpt lat="50.65488" lon="3.39975">
        <ele>135.8</ele>
        <time>2018-09-06T09:57:22.563Z</time>
      </trkpt>
      <trkpt lat="50.65494" lon="3.40013">
        <ele>137.5</ele>
        <time>2018-09-06T09:57:22.961Z</time>
      </trkpt>
      <trkpt lat="50.6549" lon="3.40119">
        <ele>133.1</ele>
        <time>2018-09-06T09:57:24.040Z</time>
      </trkpt>
      <trkpt lat="50.65497" lon="3.40251">
        <ele>132.1</ele>
        <time>2018-09-06T09:57:25.386Z</time>
      </trkpt>
      <trkpt lat="50.65487" lon="3.40327">
        <ele>127.4</ele>
        <time>2018-09-06T09:57:26.170Z</time>
      </trkpt>
      <trkpt lat="50.65477" lon="3.40402">
        <ele>124</ele>
        <time>2018-09-06T09:57:26.954Z</time>
      </trkpt>
      <trkpt lat="50.65474" lon="3.40414">
        <ele>123.9</ele>
        <time>2018-09-06T09:57:27.085Z</time>
      </trkpt>
      <trkpt lat="50.65466" lon="3.40421">
        <ele>121.8</ele>
        <time>2018-09-06T09:57:27.232Z</time>
      </trkpt>
      <trkpt lat="50.65418" lon="3.40437">
        <ele>119.3</ele>
        <time>2018-09-06T09:57:28.017Z</time>
      </trkpt>
      <trkpt lat="50.6537" lon="3.40452">
        <ele>112.3</ele>
        <time>2018-09-06T09:57:28.802Z</time>
      </trkpt>
      <trkpt lat="50.65313" lon="3.40469">
        <ele>104.3</ele>
        <time>2018-09-06T09:57:29.732Z</time>
      </trkpt>
      <trkpt lat="50.65256" lon="3.40486">
        <ele>100.3</ele>
        <time>2018-09-06T09:57:30.662Z</time>
      </trkpt>
      <trkpt lat="50.65239" lon="3.40498">
        <ele>96.1</ele>
        <time>2018-09-06T09:57:30.961Z</time>
      </trkpt>
      <trkpt lat="50.65231" lon="3.40509">
        <ele>94.7</ele>
        <time>2018-09-06T09:57:31.131Z</time>
      </trkpt>
      <trkpt lat="50.65227" lon="3.40524">
        <ele>93.9</ele>
        <time>2018-09-06T09:57:31.296Z</time>
      </trkpt>
      <trkpt lat="50.65226" lon="3.40541">
        <ele>93.6</ele>
        <time>2018-09-06T09:57:31.470Z</time>
      </trkpt>
      <trkpt lat="50.65236" lon="3.40567">
        <ele>94.9</ele>
        <time>2018-09-06T09:57:31.779Z</time>
      </trkpt>
      <trkpt lat="50.65246" lon="3.40585">
        <ele>97</ele>
        <time>2018-09-06T09:57:32.022Z</time>
      </trkpt>
      <trkpt lat="50.65279" lon="3.40641">
        <ele>100.5</ele>
        <time>2018-09-06T09:57:32.795Z</time>
      </trkpt>
      <trkpt lat="50.65312" lon="3.40696">
        <ele>101</ele>
        <time>2018-09-06T09:57:33.568Z</time>
      </trkpt>
      <trkpt lat="50.65347" lon="3.40785">
        <ele>103.7</ele>
        <time>2018-09-06T09:57:34.627Z</time>
      </trkpt>
      <trkpt lat="50.65381" lon="3.40873">
        <ele>101.5</ele>
        <time>2018-09-06T09:57:35.686Z</time>
      </trkpt>
      <trkpt lat="50.65416" lon="3.40962">
        <ele>99.3</ele>
        <time>2018-09-06T09:57:36.745Z</time>
      </trkpt>
      <trkpt lat="50.65464" lon="3.41074">
        <ele>104.1</ele>
        <time>2018-09-06T09:57:38.119Z</time>
      </trkpt>
      <trkpt lat="50.65476" lon="3.41107">
        <ele>103.3</ele>
        <time>2018-09-06T09:57:38.506Z</time>
      </trkpt>
      <trkpt lat="50.65488" lon="3.41169">
        <ele>102.6</ele>
        <time>2018-09-06T09:57:39.165Z</time>
      </trkpt>
      <trkpt lat="50.65502" lon="3.41273">
        <ele>104.3</ele>
        <time>2018-09-06T09:57:40.246Z</time>
      </trkpt>
      <trkpt lat="50.65518" lon="3.41358">
        <ele>102.7</ele>
        <time>2018-09-06T09:57:41.147Z</time>
      </trkpt>
      <trkpt lat="50.65541" lon="3.4143">
        <ele>100.8</ele>
        <time>2018-09-06T09:57:41.962Z</time>
      </trkpt>
      <trkpt lat="50.65564" lon="3.41501">
        <ele>99</ele>
        <time>2018-09-06T09:57:42.777Z</time>
      </trkpt>
      <trkpt lat="50.65581" lon="3.41522">
        <ele>99</ele>
        <time>2018-09-06T09:57:43.123Z</time>
      </trkpt>
      <trkpt lat="50.656" lon="3.41528">
        <ele>99.6</ele>
        <time>2018-09-06T09:57:43.434Z</time>
      </trkpt>
      <trkpt lat="50.65652" lon="3.41521">
        <ele>100.9</ele>
        <time>2018-09-06T09:57:44.263Z</time>
      </trkpt>
      <trkpt lat="50.65703" lon="3.41514">
        <ele>101.1</ele>
        <time>2018-09-06T09:57:45.092Z</time>
      </trkpt>
      <trkpt lat="50.65738" lon="3.41516">
        <ele>100.5</ele>
        <time>2018-09-06T09:57:45.653Z</time>
      </trkpt>
      <trkpt lat="50.65777" lon="3.41526">
        <ele>95.6</ele>
        <time>2018-09-06T09:57:46.286Z</time>
      </trkpt>
      <trkpt lat="50.65816" lon="3.41541">
        <ele>93</ele>
        <time>2018-09-06T09:57:46.930Z</time>
      </trkpt>
      <trkpt lat="50.65893" lon="3.41551">
        <ele>80.6</ele>
        <time>2018-09-06T09:57:48.169Z</time>
      </trkpt>
      <trkpt lat="50.65964" lon="3.41547">
        <ele>72.9</ele>
        <time>2018-09-06T09:57:49.303Z</time>
      </trkpt>
      <trkpt lat="50.66034" lon="3.41543">
        <ele>69.4</ele>
        <time>2018-09-06T09:57:50.437Z</time>
      </trkpt>
      <trkpt lat="50.66105" lon="3.41539">
        <ele>66.5</ele>
        <time>2018-09-06T09:57:51.571Z</time>
      </trkpt>
      <trkpt lat="50.66109" lon="3.41556">
        <ele>66.6</ele>
        <time>2018-09-06T09:57:51.755Z</time>
      </trkpt>
      <trkpt lat="50.66111" lon="3.41584">
        <ele>67</ele>
        <time>2018-09-06T09:57:52.041Z</time>
      </trkpt>
      <trkpt lat="50.6611" lon="3.41619">
        <ele>67</ele>
        <time>2018-09-06T09:57:52.397Z</time>
      </trkpt>
      <trkpt lat="50.66094" lon="3.41734">
        <ele>67.1</ele>
        <time>2018-09-06T09:57:53.590Z</time>
      </trkpt>
      <trkpt lat="50.66077" lon="3.41848">
        <ele>67.9</ele>
        <time>2018-09-06T09:57:54.783Z</time>
      </trkpt>
      <trkpt lat="50.66053" lon="3.41976">
        <ele>68.6</ele>
        <time>2018-09-06T09:57:56.140Z</time>
      </trkpt>
      <trkpt lat="50.66052" lon="3.4203">
        <ele>68.6</ele>
        <time>2018-09-06T09:57:56.689Z</time>
      </trkpt>
      <trkpt lat="50.66049" lon="3.42059">
        <ele>68.7</ele>
        <time>2018-09-06T09:57:56.988Z</time>
      </trkpt>
      <trkpt lat="50.66043" lon="3.42088">
        <ele>69.1</ele>
        <time>2018-09-06T09:57:57.298Z</time>
      </trkpt>
      <trkpt lat="50.66032" lon="3.42122">
        <ele>69.6</ele>
        <time>2018-09-06T09:57:57.686Z</time>
      </trkpt>
      <trkpt lat="50.66014" lon="3.42163">
        <ele>71.3</ele>
        <time>2018-09-06T09:57:58.193Z</time>
      </trkpt>
      <trkpt lat="50.66001" lon="3.42204">
        <ele>71</ele>
        <time>2018-09-06T09:57:58.659Z</time>
      </trkpt>
      <trkpt lat="50.65982" lon="3.42288">
        <ele>75.7</ele>
        <time>2018-09-06T09:57:59.565Z</time>
      </trkpt>
      <trkpt lat="50.65956" lon="3.42362">
        <ele>75.9</ele>
        <time>2018-09-06T09:58:00.425Z</time>
      </trkpt>
      <trkpt lat="50.65948" lon="3.42377">
        <ele>75.9</ele>
        <time>2018-09-06T09:58:00.624Z</time>
      </trkpt>
      <trkpt lat="50.65923" lon="3.42397">
        <ele>76</ele>
        <time>2018-09-06T09:58:01.073Z</time>
      </trkpt>
      <trkpt lat="50.65912" lon="3.42417">
        <ele>75.8</ele>
        <time>2018-09-06T09:58:01.342Z</time>
      </trkpt>
      <trkpt lat="50.65884" lon="3.425">
        <ele>71.8</ele>
        <time>2018-09-06T09:58:02.298Z</time>
      </trkpt>
      <trkpt lat="50.65852" lon="3.42586">
        <ele>69.2</ele>
        <time>2018-09-06T09:58:03.311Z</time>
      </trkpt>
      <trkpt lat="50.65857" lon="3.42658">
        <ele>67.7</ele>
        <time>2018-09-06T09:58:04.047Z</time>
      </trkpt>
      <trkpt lat="50.65854" lon="3.42779">
        <ele>65</ele>
        <time>2018-09-06T09:58:05.278Z</time>
      </trkpt>
      <trkpt lat="50.6584" lon="3.4284">
        <ele>63.7</ele>
        <time>2018-09-06T09:58:05.937Z</time>
      </trkpt>
      <trkpt lat="50.65835" lon="3.42869">
        <ele>63.1</ele>
        <time>2018-09-06T09:58:06.242Z</time>
      </trkpt>
      <trkpt lat="50.65837" lon="3.42901">
        <ele>62.5</ele>
        <time>2018-09-06T09:58:06.569Z</time>
      </trkpt>
      <trkpt lat="50.65847" lon="3.42991">
        <ele>59.8</ele>
        <time>2018-09-06T09:58:07.498Z</time>
      </trkpt>
      <trkpt lat="50.65845" lon="3.43094">
        <ele>59</ele>
        <time>2018-09-06T09:58:08.545Z</time>
      </trkpt>
      <trkpt lat="50.65849" lon="3.43115">
        <ele>58.9</ele>
        <time>2018-09-06T09:58:08.768Z</time>
      </trkpt>
      <trkpt lat="50.65857" lon="3.43129">
        <ele>58.9</ele>
        <time>2018-09-06T09:58:08.960Z</time>
      </trkpt>
      <trkpt lat="50.65874" lon="3.43141">
        <ele>58.9</ele>
        <time>2018-09-06T09:58:09.259Z</time>
      </trkpt>
      <trkpt lat="50.65889" lon="3.43161">
        <ele>58.9</ele>
        <time>2018-09-06T09:58:09.574Z</time>
      </trkpt>
      <trkpt lat="50.65892" lon="3.43186">
        <ele>58.8</ele>
        <time>2018-09-06T09:58:09.833Z</time>
      </trkpt>
      <trkpt lat="50.6589" lon="3.43209">
        <ele>58.8</ele>
        <time>2018-09-06T09:58:10.069Z</time>
      </trkpt>
      <trkpt lat="50.65883" lon="3.43243">
        <ele>58.8</ele>
        <time>2018-09-06T09:58:10.432Z</time>
      </trkpt>
      <trkpt lat="50.65869" lon="3.43312">
        <ele>59.1</ele>
        <time>2018-09-06T09:58:11.163Z</time>
      </trkpt>
      <trkpt lat="50.65855" lon="3.4338">
        <ele>59.4</ele>
        <time>2018-09-06T09:58:11.894Z</time>
      </trkpt>
      <trkpt lat="50.65827" lon="3.43445">
        <ele>59.5</ele>
        <time>2018-09-06T09:58:12.688Z</time>
      </trkpt>
      <trkpt lat="50.65799" lon="3.43509">
        <ele>57.8</ele>
        <time>2018-09-06T09:58:13.482Z</time>
      </trkpt>
      <trkpt lat="50.65787" lon="3.435">
        <ele>57.7</ele>
        <time>2018-09-06T09:58:13.695Z</time>
      </trkpt>
      <trkpt lat="50.65716" lon="3.43467">
        <ele>59.8</ele>
        <time>2018-09-06T09:58:14.882Z</time>
      </trkpt>
      <trkpt lat="50.65691" lon="3.43461">
        <ele>60.2</ele>
        <time>2018-09-06T09:58:15.287Z</time>
      </trkpt>
      <trkpt lat="50.6567" lon="3.43463">
        <ele>60.3</ele>
        <time>2018-09-06T09:58:15.624Z</time>
      </trkpt>
      <trkpt lat="50.65632" lon="3.43471">
        <ele>61.6</ele>
        <time>2018-09-06T09:58:16.239Z</time>
      </trkpt>
      <trkpt lat="50.65629" lon="3.43571">
        <ele>59</ele>
        <time>2018-09-06T09:58:17.256Z</time>
      </trkpt>
      <trkpt lat="50.65622" lon="3.43648">
        <ele>55.9</ele>
        <time>2018-09-06T09:58:18.042Z</time>
      </trkpt>
      <trkpt lat="50.65615" lon="3.43724">
        <ele>52.9</ele>
        <time>2018-09-06T09:58:18.828Z</time>
      </trkpt>
      <trkpt lat="50.656" lon="3.4382">
        <ele>50</ele>
        <time>2018-09-06T09:58:19.833Z</time>
      </trkpt>
      <trkpt lat="50.65586" lon="3.43886">
        <ele>47.9</ele>
        <time>2018-09-06T09:58:20.540Z</time>
      </trkpt>
      <trkpt lat="50.6557" lon="3.4395">
        <ele>46.9</ele>
        <time>2018-09-06T09:58:21.239Z</time>
      </trkpt>
      <trkpt lat="50.6554" lon="3.44056">
        <ele>44.7</ele>
        <time>2018-09-06T09:58:22.417Z</time>
      </trkpt>
      <trkpt lat="50.65509" lon="3.44161">
        <ele>43.7</ele>
        <time>2018-09-06T09:58:23.595Z</time>
      </trkpt>
      <trkpt lat="50.65498" lon="3.44193">
        <ele>43.8</ele>
        <time>2018-09-06T09:58:23.965Z</time>
      </trkpt>
      <trkpt lat="50.65468" lon="3.4425">
        <ele>43.6</ele>
        <time>2018-09-06T09:58:24.714Z</time>
      </trkpt>
      <trkpt lat="50.65438" lon="3.44306">
        <ele>42.8</ele>
        <time>2018-09-06T09:58:25.463Z</time>
      </trkpt>
      <trkpt lat="50.6541" lon="3.4435">
        <ele>42.3</ele>
        <time>2018-09-06T09:58:26.097Z</time>
      </trkpt>
      <trkpt lat="50.6536" lon="3.44389">
        <ele>41.6</ele>
        <time>2018-09-06T09:58:26.989Z</time>
      </trkpt>
      <trkpt lat="50.6531" lon="3.44427">
        <ele>39.4</ele>
        <time>2018-09-06T09:58:27.881Z</time>
      </trkpt>
      <trkpt lat="50.65334" lon="3.44515">
        <ele>38.5</ele>
        <time>2018-09-06T09:58:28.855Z</time>
      </trkpt>
      <trkpt lat="50.65336" lon="3.44538">
        <ele>38.1</ele>
        <time>2018-09-06T09:58:29.091Z</time>
      </trkpt>
      <trkpt lat="50.65336" lon="3.4458">
        <ele>37.2</ele>
        <time>2018-09-06T09:58:29.518Z</time>
      </trkpt>
      <trkpt lat="50.65339" lon="3.44596">
        <ele>36.6</ele>
        <time>2018-09-06T09:58:29.688Z</time>
      </trkpt>
      <trkpt lat="50.65371" lon="3.44716">
        <ele>34.7</ele>
        <time>2018-09-06T09:58:31.008Z</time>
      </trkpt>
      <trkpt lat="50.65402" lon="3.44836">
        <ele>33.9</ele>
        <time>2018-09-06T09:58:32.328Z</time>
      </trkpt>
      <trkpt lat="50.65405" lon="3.44858">
        <ele>34.3</ele>
        <time>2018-09-06T09:58:32.557Z</time>
      </trkpt>
      <trkpt lat="50.65404" lon="3.44879">
        <ele>34.6</ele>
        <time>2018-09-06T09:58:32.771Z</time>
      </trkpt>
      <trkpt lat="50.65396" lon="3.44914">
        <ele>34.6</ele>
        <time>2018-09-06T09:58:33.149Z</time>
      </trkpt>
      <trkpt lat="50.65381" lon="3.44957">
        <ele>36.4</ele>
        <time>2018-09-06T09:58:33.648Z</time>
      </trkpt>
      <trkpt lat="50.65373" lon="3.44965">
        <ele>36.6</ele>
        <time>2018-09-06T09:58:33.800Z</time>
      </trkpt>
      <trkpt lat="50.65324" lon="3.45012">
        <ele>39.4</ele>
        <time>2018-09-06T09:58:34.719Z</time>
      </trkpt>
      <trkpt lat="50.6529" lon="3.45037">
        <ele>40</ele>
        <time>2018-09-06T09:58:35.320Z</time>
      </trkpt>
      <trkpt lat="50.65272" lon="3.45039">
        <ele>40.2</ele>
        <time>2018-09-06T09:58:35.609Z</time>
      </trkpt>
      <trkpt lat="50.65242" lon="3.45031">
        <ele>41.9</ele>
        <time>2018-09-06T09:58:36.097Z</time>
      </trkpt>
      <trkpt lat="50.65227" lon="3.4503">
        <ele>42.2</ele>
        <time>2018-09-06T09:58:36.338Z</time>
      </trkpt>
      <trkpt lat="50.65193" lon="3.45042">
        <ele>42.8</ele>
        <time>2018-09-06T09:58:36.897Z</time>
      </trkpt>
      <trkpt lat="50.65176" lon="3.45051">
        <ele>43</ele>
        <time>2018-09-06T09:58:37.184Z</time>
      </trkpt>
      <trkpt lat="50.65162" lon="3.45063">
        <ele>44.8</ele>
        <time>2018-09-06T09:58:37.439Z</time>
      </trkpt>
      <trkpt lat="50.65147" lon="3.45083">
        <ele>44.9</ele>
        <time>2018-09-06T09:58:37.754Z</time>
      </trkpt>
      <trkpt lat="50.65131" lon="3.45101">
        <ele>45.7</ele>
        <time>2018-09-06T09:58:38.069Z</time>
      </trkpt>
      <trkpt lat="50.65092" lon="3.45132">
        <ele>46.6</ele>
        <time>2018-09-06T09:58:38.769Z</time>
      </trkpt>
      <trkpt lat="50.65076" lon="3.45148">
        <ele>48.2</ele>
        <time>2018-09-06T09:58:39.073Z</time>
      </trkpt>
      <trkpt lat="50.65061" lon="3.45167">
        <ele>48.8</ele>
        <time>2018-09-06T09:58:39.381Z</time>
      </trkpt>
      <trkpt lat="50.65048" lon="3.45189">
        <ele>49.1</ele>
        <time>2018-09-06T09:58:39.687Z</time>
      </trkpt>
      <trkpt lat="50.65008" lon="3.45283">
        <ele>50.5</ele>
        <time>2018-09-06T09:58:40.842Z</time>
      </trkpt>
      <trkpt lat="50.64967" lon="3.45377">
        <ele>52.9</ele>
        <time>2018-09-06T09:58:41.997Z</time>
      </trkpt>
      <trkpt lat="50.64955" lon="3.45422">
        <ele>53.2</ele>
        <time>2018-09-06T09:58:42.493Z</time>
      </trkpt>
      <trkpt lat="50.64941" lon="3.45499">
        <ele>53.5</ele>
        <time>2018-09-06T09:58:43.307Z</time>
      </trkpt>
      <trkpt lat="50.6492" lon="3.45607">
        <ele>54.7</ele>
        <time>2018-09-06T09:58:44.455Z</time>
      </trkpt>
      <trkpt lat="50.6491" lon="3.45648">
        <ele>56.1</ele>
        <time>2018-09-06T09:58:44.902Z</time>
      </trkpt>
      <trkpt lat="50.64889" lon="3.45697">
        <ele>57.2</ele>
        <time>2018-09-06T09:58:45.503Z</time>
      </trkpt>
      <trkpt lat="50.64867" lon="3.45741">
        <ele>57.8</ele>
        <time>2018-09-06T09:58:46.073Z</time>
      </trkpt>
      <trkpt lat="50.64829" lon="3.45809">
        <ele>59.5</ele>
        <time>2018-09-06T09:58:46.996Z</time>
      </trkpt>
      <trkpt lat="50.6479" lon="3.45876">
        <ele>60.3</ele>
        <time>2018-09-06T09:58:47.919Z</time>
      </trkpt>
      <trkpt lat="50.64744" lon="3.45955">
        <ele>61.4</ele>
        <time>2018-09-06T09:58:49.008Z</time>
      </trkpt>
      <trkpt lat="50.64698" lon="3.46033">
        <ele>62.4</ele>
        <time>2018-09-06T09:58:50.097Z</time>
      </trkpt>
      <trkpt lat="50.64651" lon="3.46112">
        <ele>61.5</ele>
        <time>2018-09-06T09:58:51.186Z</time>
      </trkpt>
      <trkpt lat="50.64605" lon="3.4619">
        <ele>61.9</ele>
        <time>2018-09-06T09:58:52.275Z</time>
      </trkpt>
      <trkpt lat="50.64571" lon="3.46246">
        <ele>61.4</ele>
        <time>2018-09-06T09:58:53.059Z</time>
      </trkpt>
      <trkpt lat="50.64537" lon="3.46301">
        <ele>61.5</ele>
        <time>2018-09-06T09:58:53.843Z</time>
      </trkpt>
      <trkpt lat="50.64507" lon="3.46415">
        <ele>61.2</ele>
        <time>2018-09-06T09:58:55.098Z</time>
      </trkpt>
      <trkpt lat="50.64477" lon="3.46529">
        <ele>59.8</ele>
        <time>2018-09-06T09:58:56.353Z</time>
      </trkpt>
      <trkpt lat="50.64449" lon="3.46653">
        <ele>60.7</ele>
        <time>2018-09-06T09:58:57.691Z</time>
      </trkpt>
      <trkpt lat="50.64421" lon="3.46777">
        <ele>60.6</ele>
        <time>2018-09-06T09:58:59.029Z</time>
      </trkpt>
      <trkpt lat="50.64393" lon="3.46901">
        <ele>59.7</ele>
        <time>2018-09-06T09:59:00.367Z</time>
      </trkpt>
      <trkpt lat="50.64375" lon="3.46963">
        <ele>60.8</ele>
        <time>2018-09-06T09:59:01.060Z</time>
      </trkpt>
      <trkpt lat="50.64347" lon="3.47031">
        <ele>62.1</ele>
        <time>2018-09-06T09:59:01.884Z</time>
      </trkpt>
      <trkpt lat="50.64318" lon="3.47098">
        <ele>63.1</ele>
        <time>2018-09-06T09:59:02.708Z</time>
      </trkpt>
      <trkpt lat="50.64292" lon="3.47148">
        <ele>63.4</ele>
        <time>2018-09-06T09:59:03.365Z</time>
      </trkpt>
      <trkpt lat="50.64257" lon="3.47198">
        <ele>64</ele>
        <time>2018-09-06T09:59:04.122Z</time>
      </trkpt>
      <trkpt lat="50.643" lon="3.4731">
        <ele>64.6</ele>
        <time>2018-09-06T09:59:05.449Z</time>
      </trkpt>
      <trkpt lat="50.64342" lon="3.47422">
        <ele>63.5</ele>
        <time>2018-09-06T09:59:06.776Z</time>
      </trkpt>
      <trkpt lat="50.64387" lon="3.47543">
        <ele>62</ele>
        <time>2018-09-06T09:59:08.201Z</time>
      </trkpt>
      <trkpt lat="50.64431" lon="3.47665">
        <ele>60.8</ele>
        <time>2018-09-06T09:59:09.626Z</time>
      </trkpt>
      <trkpt lat="50.64476" lon="3.47786">
        <ele>60.9</ele>
        <time>2018-09-06T09:59:11.051Z</time>
      </trkpt>
      <trkpt lat="50.6452" lon="3.47907">
        <ele>61.7</ele>
        <time>2018-09-06T09:59:12.476Z</time>
      </trkpt>
      <trkpt lat="50.64565" lon="3.48028">
        <ele>64.4</ele>
        <time>2018-09-06T09:59:13.901Z</time>
      </trkpt>
      <trkpt lat="50.64609" lon="3.4815">
        <ele>65.7</ele>
        <time>2018-09-06T09:59:15.326Z</time>
      </trkpt>
      <trkpt lat="50.64654" lon="3.48271">
        <ele>65.2</ele>
        <time>2018-09-06T09:59:16.751Z</time>
      </trkpt>
      <trkpt lat="50.64667" lon="3.48335">
        <ele>64.9</ele>
        <time>2018-09-06T09:59:17.434Z</time>
      </trkpt>
      <trkpt lat="50.64674" lon="3.48386">
        <ele>64</ele>
        <time>2018-09-06T09:59:17.964Z</time>
      </trkpt>
      <trkpt lat="50.64683" lon="3.4849">
        <ele>61.8</ele>
        <time>2018-09-06T09:59:19.031Z</time>
      </trkpt>
      <trkpt lat="50.64692" lon="3.48594">
        <ele>59.4</ele>
        <time>2018-09-06T09:59:20.098Z</time>
      </trkpt>
      <trkpt lat="50.64703" lon="3.48714">
        <ele>57.4</ele>
        <time>2018-09-06T09:59:21.336Z</time>
      </trkpt>
      <trkpt lat="50.64715" lon="3.48835">
        <ele>55.3</ele>
        <time>2018-09-06T09:59:22.574Z</time>
      </trkpt>
      <trkpt lat="50.64726" lon="3.48955">
        <ele>53.4</ele>
        <time>2018-09-06T09:59:23.812Z</time>
      </trkpt>
      <trkpt lat="50.64726" lon="3.48955">
        <ele>53.4</ele>
        <time>2018-09-06T09:59:23.812Z</time>
      </trkpt>
      <trkpt lat="50.64737" lon="3.49076">
        <ele>52.4</ele>
        <time>2018-09-06T09:59:25.049Z</time>
      </trkpt>
      <trkpt lat="50.64748" lon="3.49196">
        <ele>49.9</ele>
        <time>2018-09-06T09:59:26.287Z</time>
      </trkpt>
      <trkpt lat="50.6476" lon="3.49317">
        <ele>49.3</ele>
        <time>2018-09-06T09:59:27.525Z</time>
      </trkpt>
      <trkpt lat="50.64771" lon="3.49437">
        <ele>47.6</ele>
        <time>2018-09-06T09:59:28.763Z</time>
      </trkpt>
      <trkpt lat="50.64783" lon="3.49571">
        <ele>46.2</ele>
        <time>2018-09-06T09:59:30.141Z</time>
      </trkpt>
      <trkpt lat="50.64794" lon="3.49706">
        <ele>44</ele>
        <time>2018-09-06T09:59:31.519Z</time>
      </trkpt>
      <trkpt lat="50.64806" lon="3.4984">
        <ele>42.3</ele>
        <time>2018-09-06T09:59:32.897Z</time>
      </trkpt>
      <trkpt lat="50.64817" lon="3.49974">
        <ele>40.4</ele>
        <time>2018-09-06T09:59:34.275Z</time>
      </trkpt>
      <trkpt lat="50.64829" lon="3.50109">
        <ele>39.6</ele>
        <time>2018-09-06T09:59:35.653Z</time>
      </trkpt>
      <trkpt lat="50.64841" lon="3.50243">
        <ele>40.3</ele>
        <time>2018-09-06T09:59:37.031Z</time>
      </trkpt>
      <trkpt lat="50.64852" lon="3.50378">
        <ele>39.6</ele>
        <time>2018-09-06T09:59:38.409Z</time>
      </trkpt>
      <trkpt lat="50.64864" lon="3.50512">
        <ele>38.3</ele>
        <time>2018-09-06T09:59:39.787Z</time>
      </trkpt>
      <trkpt lat="50.64875" lon="3.50646">
        <ele>38</ele>
        <time>2018-09-06T09:59:41.165Z</time>
      </trkpt>
      <trkpt lat="50.64887" lon="3.50781">
        <ele>38</ele>
        <time>2018-09-06T09:59:42.543Z</time>
      </trkpt>
      <trkpt lat="50.64898" lon="3.50915">
        <ele>38.4</ele>
        <time>2018-09-06T09:59:43.921Z</time>
      </trkpt>
      <trkpt lat="50.6491" lon="3.51049">
        <ele>40</ele>
        <time>2018-09-06T09:59:45.299Z</time>
      </trkpt>
      <trkpt lat="50.64921" lon="3.51184">
        <ele>40.5</ele>
        <time>2018-09-06T09:59:46.677Z</time>
      </trkpt>
      <trkpt lat="50.64933" lon="3.51318">
        <ele>40</ele>
        <time>2018-09-06T09:59:48.055Z</time>
      </trkpt>
      <trkpt lat="50.64869" lon="3.51409">
        <ele>39.2</ele>
        <time>2018-09-06T09:59:49.433Z</time>
      </trkpt>
      <trkpt lat="50.64805" lon="3.51499">
        <ele>38.8</ele>
        <time>2018-09-06T09:59:50.811Z</time>
      </trkpt>
      <trkpt lat="50.64805" lon="3.515">
        <ele>39.2</ele>
        <time>2018-09-06T09:59:50.821Z</time>
      </trkpt>
      <trkpt lat="50.64777" lon="3.51542">
        <ele>40</ele>
        <time>2018-09-06T09:59:51.440Z</time>
      </trkpt>
      <trkpt lat="50.64746" lon="3.51605">
        <ele>43.2</ele>
        <time>2018-09-06T09:59:52.251Z</time>
      </trkpt>
      <trkpt lat="50.64715" lon="3.51668">
        <ele>45.2</ele>
        <time>2018-09-06T09:59:53.062Z</time>
      </trkpt>
      <trkpt lat="50.64674" lon="3.51738">
        <ele>46.4</ele>
        <time>2018-09-06T09:59:54.031Z</time>
      </trkpt>
      <trkpt lat="50.64624" lon="3.51803">
        <ele>49.1</ele>
        <time>2018-09-06T09:59:55.068Z</time>
      </trkpt>
      <trkpt lat="50.64574" lon="3.51867">
        <ele>51.7</ele>
        <time>2018-09-06T09:59:56.105Z</time>
      </trkpt>
      <trkpt lat="50.64524" lon="3.51932">
        <ele>52.3</ele>
        <time>2018-09-06T09:59:57.142Z</time>
      </trkpt>
      <trkpt lat="50.64479" lon="3.51988">
        <ele>53.8</ele>
        <time>2018-09-06T09:59:58.067Z</time>
      </trkpt>
      <trkpt lat="50.64433" lon="3.52044">
        <ele>53.8</ele>
        <time>2018-09-06T09:59:58.992Z</time>
      </trkpt>
      <trkpt lat="50.64377" lon="3.52069">
        <ele>54</ele>
        <time>2018-09-06T09:59:59.925Z</time>
      </trkpt>
      <trkpt lat="50.64321" lon="3.52094">
        <ele>53</ele>
        <time>2018-09-06T10:00:00.858Z</time>
      </trkpt>
      <trkpt lat="50.64241" lon="3.52144">
        <ele>53.7</ele>
        <time>2018-09-06T10:00:02.243Z</time>
      </trkpt>
      <trkpt lat="50.6416" lon="3.52193">
        <ele>52.8</ele>
        <time>2018-09-06T10:00:03.628Z</time>
      </trkpt>
      <trkpt lat="50.6412" lon="3.5228">
        <ele>50.9</ele>
        <time>2018-09-06T10:00:04.727Z</time>
      </trkpt>
      <trkpt lat="50.64079" lon="3.52368">
        <ele>48.4</ele>
        <time>2018-09-06T10:00:05.826Z</time>
      </trkpt>
      <trkpt lat="50.64039" lon="3.52455">
        <ele>47.6</ele>
        <time>2018-09-06T10:00:06.925Z</time>
      </trkpt>
      <trkpt lat="50.63998" lon="3.52542">
        <ele>49.4</ele>
        <time>2018-09-06T10:00:08.024Z</time>
      </trkpt>
      <trkpt lat="50.63987" lon="3.52561">
        <ele>49.3</ele>
        <time>2018-09-06T10:00:08.286Z</time>
      </trkpt>
      <trkpt lat="50.63924" lon="3.52611">
        <ele>49.3</ele>
        <time>2018-09-06T10:00:09.415Z</time>
      </trkpt>
      <trkpt lat="50.63861" lon="3.5266">
        <ele>50.9</ele>
        <time>2018-09-06T10:00:10.544Z</time>
      </trkpt>
      <trkpt lat="50.63798" lon="3.5271">
        <ele>50.9</ele>
        <time>2018-09-06T10:00:11.673Z</time>
      </trkpt>
      <trkpt lat="50.63806" lon="3.52844">
        <ele>47.3</ele>
        <time>2018-09-06T10:00:13.041Z</time>
      </trkpt>
      <trkpt lat="50.63808" lon="3.5298">
        <ele>45.3</ele>
        <time>2018-09-06T10:00:14.421Z</time>
      </trkpt>
      <trkpt lat="50.63811" lon="3.53115">
        <ele>42.8</ele>
        <time>2018-09-06T10:00:15.801Z</time>
      </trkpt>
      <trkpt lat="50.63813" lon="3.53251">
        <ele>42</ele>
        <time>2018-09-06T10:00:17.181Z</time>
      </trkpt>
      <trkpt lat="50.63809" lon="3.53264">
        <ele>42</ele>
        <time>2018-09-06T10:00:17.328Z</time>
      </trkpt>
      <trkpt lat="50.63757" lon="3.53363">
        <ele>43.5</ele>
        <time>2018-09-06T10:00:18.631Z</time>
      </trkpt>
      <trkpt lat="50.63705" lon="3.53461">
        <ele>44.5</ele>
        <time>2018-09-06T10:00:19.934Z</time>
      </trkpt>
      <trkpt lat="50.63702" lon="3.53497">
        <ele>44.7</ele>
        <time>2018-09-06T10:00:20.303Z</time>
      </trkpt>
      <trkpt lat="50.637" lon="3.53633">
        <ele>51.5</ele>
        <time>2018-09-06T10:00:21.681Z</time>
      </trkpt>
      <trkpt lat="50.63697" lon="3.53768">
        <ele>56.9</ele>
        <time>2018-09-06T10:00:23.059Z</time>
      </trkpt>
      <trkpt lat="50.63693" lon="3.53781">
        <ele>57.2</ele>
        <time>2018-09-06T10:00:23.206Z</time>
      </trkpt>
      <trkpt lat="50.6367" lon="3.53811">
        <ele>58</ele>
        <time>2018-09-06T10:00:23.685Z</time>
      </trkpt>
      <trkpt lat="50.63641" lon="3.53861">
        <ele>57.2</ele>
        <time>2018-09-06T10:00:24.374Z</time>
      </trkpt>
      <trkpt lat="50.63616" lon="3.53913">
        <ele>56.5</ele>
        <time>2018-09-06T10:00:25.037Z</time>
      </trkpt>
      <trkpt lat="50.636" lon="3.53954">
        <ele>57</ele>
        <time>2018-09-06T10:00:25.526Z</time>
      </trkpt>
      <trkpt lat="50.63593" lon="3.53977">
        <ele>57.2</ele>
        <time>2018-09-06T10:00:25.785Z</time>
      </trkpt>
      <trkpt lat="50.63574" lon="3.54022">
        <ele>56.4</ele>
        <time>2018-09-06T10:00:26.335Z</time>
      </trkpt>
      <trkpt lat="50.63533" lon="3.54075">
        <ele>56.1</ele>
        <time>2018-09-06T10:00:27.182Z</time>
      </trkpt>
      <trkpt lat="50.63492" lon="3.54127">
        <ele>56.5</ele>
        <time>2018-09-06T10:00:28.029Z</time>
      </trkpt>
      <trkpt lat="50.63471" lon="3.5415">
        <ele>56.7</ele>
        <time>2018-09-06T10:00:28.439Z</time>
      </trkpt>
      <trkpt lat="50.63457" lon="3.54168">
        <ele>57.5</ele>
        <time>2018-09-06T10:00:28.729Z</time>
      </trkpt>
      <trkpt lat="50.63454" lon="3.5419">
        <ele>57.5</ele>
        <time>2018-09-06T10:00:28.958Z</time>
      </trkpt>
      <trkpt lat="50.63463" lon="3.54226">
        <ele>57.5</ele>
        <time>2018-09-06T10:00:29.351Z</time>
      </trkpt>
      <trkpt lat="50.63465" lon="3.54249">
        <ele>57.6</ele>
        <time>2018-09-06T10:00:29.587Z</time>
      </trkpt>
      <trkpt lat="50.63455" lon="3.54306">
        <ele>57.5</ele>
        <time>2018-09-06T10:00:30.188Z</time>
      </trkpt>
      <trkpt lat="50.63486" lon="3.54414">
        <ele>55.8</ele>
        <time>2018-09-06T10:00:31.394Z</time>
      </trkpt>
      <trkpt lat="50.63516" lon="3.54523">
        <ele>52.1</ele>
        <time>2018-09-06T10:00:32.600Z</time>
      </trkpt>
      <trkpt lat="50.63547" lon="3.54631">
        <ele>50.2</ele>
        <time>2018-09-06T10:00:33.806Z</time>
      </trkpt>
      <trkpt lat="50.63569" lon="3.54668">
        <ele>50.7</ele>
        <time>2018-09-06T10:00:34.322Z</time>
      </trkpt>
      <trkpt lat="50.63587" lon="3.54689">
        <ele>49.8</ele>
        <time>2018-09-06T10:00:34.681Z</time>
      </trkpt>
      <trkpt lat="50.63644" lon="3.54726">
        <ele>49.2</ele>
        <time>2018-09-06T10:00:35.668Z</time>
      </trkpt>
      <trkpt lat="50.63701" lon="3.54762">
        <ele>47</ele>
        <time>2018-09-06T10:00:36.655Z</time>
      </trkpt>
      <trkpt lat="50.63758" lon="3.54799">
        <ele>45.3</ele>
        <time>2018-09-06T10:00:37.642Z</time>
      </trkpt>
      <trkpt lat="50.63797" lon="3.54748">
        <ele>45.8</ele>
        <time>2018-09-06T10:00:38.448Z</time>
      </trkpt>
      <trkpt lat="50.63835" lon="3.54697">
        <ele>45.5</ele>
        <time>2018-09-06T10:00:39.254Z</time>
      </trkpt>
      <trkpt lat="50.63901" lon="3.54621">
        <ele>47.1</ele>
        <time>2018-09-06T10:00:40.558Z</time>
      </trkpt>
      <trkpt lat="50.63966" lon="3.54545">
        <ele>48.7</ele>
        <time>2018-09-06T10:00:41.862Z</time>
      </trkpt>
      <trkpt lat="50.63994" lon="3.54517">
        <ele>49.3</ele>
        <time>2018-09-06T10:00:42.394Z</time>
      </trkpt>
      <trkpt lat="50.64063" lon="3.54467">
        <ele>50.7</ele>
        <time>2018-09-06T10:00:43.614Z</time>
      </trkpt>
      <trkpt lat="50.64132" lon="3.54416">
        <ele>51</ele>
        <time>2018-09-06T10:00:44.834Z</time>
      </trkpt>
      <trkpt lat="50.64154" lon="3.54408">
        <ele>50.6</ele>
        <time>2018-09-06T10:00:45.196Z</time>
      </trkpt>
      <trkpt lat="50.64165" lon="3.54419">
        <ele>50</ele>
        <time>2018-09-06T10:00:45.405Z</time>
      </trkpt>
      <trkpt lat="50.64224" lon="3.5451">
        <ele>48.1</ele>
        <time>2018-09-06T10:00:46.726Z</time>
      </trkpt>
      <trkpt lat="50.64282" lon="3.54602">
        <ele>46.2</ele>
        <time>2018-09-06T10:00:48.047Z</time>
      </trkpt>
      <trkpt lat="50.64341" lon="3.54693">
        <ele>44.3</ele>
        <time>2018-09-06T10:00:49.368Z</time>
      </trkpt>
      <trkpt lat="50.64399" lon="3.54785">
        <ele>42.7</ele>
        <time>2018-09-06T10:00:50.689Z</time>
      </trkpt>
      <trkpt lat="50.64458" lon="3.54876">
        <ele>40.5</ele>
        <time>2018-09-06T10:00:52.010Z</time>
      </trkpt>
      <trkpt lat="50.64458" lon="3.54875">
        <ele>40.5</ele>
        <time>2018-09-06T10:00:52.020Z</time>
      </trkpt>
      <trkpt lat="50.64475" lon="3.54916">
        <ele>39.9</ele>
        <time>2018-09-06T10:00:52.518Z</time>
      </trkpt>
      <trkpt lat="50.64504" lon="3.55045">
        <ele>37.2</ele>
        <time>2018-09-06T10:00:53.906Z</time>
      </trkpt>
      <trkpt lat="50.64533" lon="3.55173">
        <ele>37</ele>
        <time>2018-09-06T10:00:55.294Z</time>
      </trkpt>
      <trkpt lat="50.64562" lon="3.55302">
        <ele>38.9</ele>
        <time>2018-09-06T10:00:56.682Z</time>
      </trkpt>
      <trkpt lat="50.64574" lon="3.55337">
        <ele>40.2</ele>
        <time>2018-09-06T10:00:57.086Z</time>
      </trkpt>
      <trkpt lat="50.64606" lon="3.55412">
        <ele>41.6</ele>
        <time>2018-09-06T10:00:57.996Z</time>
      </trkpt>
      <trkpt lat="50.64637" lon="3.55486">
        <ele>43.3</ele>
        <time>2018-09-06T10:00:58.906Z</time>
      </trkpt>
      <trkpt lat="50.64661" lon="3.55537">
        <ele>44.5</ele>
        <time>2018-09-06T10:00:59.552Z</time>
      </trkpt>
      <trkpt lat="50.64684" lon="3.55572">
        <ele>44.6</ele>
        <time>2018-09-06T10:01:00.064Z</time>
      </trkpt>
      <trkpt lat="50.64742" lon="3.55647">
        <ele>44.4</ele>
        <time>2018-09-06T10:01:01.266Z</time>
      </trkpt>
      <trkpt lat="50.64714" lon="3.55706">
        <ele>44.9</ele>
        <time>2018-09-06T10:01:02.015Z</time>
      </trkpt>
      <trkpt lat="50.64677" lon="3.55804">
        <ele>45.4</ele>
        <time>2018-09-06T10:01:03.174Z</time>
      </trkpt>
      <trkpt lat="50.64652" lon="3.55856">
        <ele>46</ele>
        <time>2018-09-06T10:01:03.837Z</time>
      </trkpt>
      <trkpt lat="50.64636" lon="3.55885">
        <ele>46</ele>
        <time>2018-09-06T10:01:04.228Z</time>
      </trkpt>
      <trkpt lat="50.64624" lon="3.55926">
        <ele>46.2</ele>
        <time>2018-09-06T10:01:04.687Z</time>
      </trkpt>
      <trkpt lat="50.64617" lon="3.56018">
        <ele>46.6</ele>
        <time>2018-09-06T10:01:05.629Z</time>
      </trkpt>
      <trkpt lat="50.6461" lon="3.5611">
        <ele>46.4</ele>
        <time>2018-09-06T10:01:06.571Z</time>
      </trkpt>
      <trkpt lat="50.64616" lon="3.56238">
        <ele>44.8</ele>
        <time>2018-09-06T10:01:07.876Z</time>
      </trkpt>
      <trkpt lat="50.64615" lon="3.56343">
        <ele>42.5</ele>
        <time>2018-09-06T10:01:08.944Z</time>
      </trkpt>
      <trkpt lat="50.64591" lon="3.56466">
        <ele>43.2</ele>
        <time>2018-09-06T10:01:10.252Z</time>
      </trkpt>
      <trkpt lat="50.64582" lon="3.56541">
        <ele>44.6</ele>
        <time>2018-09-06T10:01:11.028Z</time>
      </trkpt>
      <trkpt lat="50.64572" lon="3.56573">
        <ele>44.5</ele>
        <time>2018-09-06T10:01:11.391Z</time>
      </trkpt>
      <trkpt lat="50.64511" lon="3.5666">
        <ele>45.5</ele>
        <time>2018-09-06T10:01:12.710Z</time>
      </trkpt>
      <trkpt lat="50.6449" lon="3.56696">
        <ele>47.1</ele>
        <time>2018-09-06T10:01:13.207Z</time>
      </trkpt>
      <trkpt lat="50.64482" lon="3.56712">
        <ele>47.3</ele>
        <time>2018-09-06T10:01:13.414Z</time>
      </trkpt>
      <trkpt lat="50.64471" lon="3.56773">
        <ele>48</ele>
        <time>2018-09-06T10:01:14.059Z</time>
      </trkpt>
      <trkpt lat="50.64462" lon="3.56796">
        <ele>48.4</ele>
        <time>2018-09-06T10:01:14.334Z</time>
      </trkpt>
      <trkpt lat="50.64427" lon="3.5687">
        <ele>50.4</ele>
        <time>2018-09-06T10:01:15.272Z</time>
      </trkpt>
      <trkpt lat="50.64392" lon="3.56944">
        <ele>56.1</ele>
        <time>2018-09-06T10:01:16.210Z</time>
      </trkpt>
      <trkpt lat="50.64346" lon="3.57001">
        <ele>59.8</ele>
        <time>2018-09-06T10:01:17.148Z</time>
      </trkpt>
      <trkpt lat="50.64332" lon="3.57072">
        <ele>62.7</ele>
        <time>2018-09-06T10:01:17.904Z</time>
      </trkpt>
      <trkpt lat="50.64319" lon="3.5713">
        <ele>63.4</ele>
        <time>2018-09-06T10:01:18.529Z</time>
      </trkpt>
      <trkpt lat="50.6432" lon="3.57143">
        <ele>63</ele>
        <time>2018-09-06T10:01:18.662Z</time>
      </trkpt>
      <trkpt lat="50.64347" lon="3.57203">
        <ele>58.7</ele>
        <time>2018-09-06T10:01:19.401Z</time>
      </trkpt>
      <trkpt lat="50.64373" lon="3.57262">
        <ele>58.9</ele>
        <time>2018-09-06T10:01:20.140Z</time>
      </trkpt>
      <trkpt lat="50.64397" lon="3.57289">
        <ele>58.4</ele>
        <time>2018-09-06T10:01:20.613Z</time>
      </trkpt>
      <trkpt lat="50.64448" lon="3.57322">
        <ele>55.3</ele>
        <time>2018-09-06T10:01:21.497Z</time>
      </trkpt>
      <trkpt lat="50.64499" lon="3.57355">
        <ele>55.5</ele>
        <time>2018-09-06T10:01:22.381Z</time>
      </trkpt>
      <trkpt lat="50.64489" lon="3.57366">
        <ele>56</ele>
        <time>2018-09-06T10:01:22.576Z</time>
      </trkpt>
      <trkpt lat="50.64444" lon="3.57392">
        <ele>57.4</ele>
        <time>2018-09-06T10:01:23.344Z</time>
      </trkpt>
      <trkpt lat="50.64378" lon="3.57414">
        <ele>61.7</ele>
        <time>2018-09-06T10:01:24.425Z</time>
      </trkpt>
      <trkpt lat="50.6434" lon="3.57436">
        <ele>65.6</ele>
        <time>2018-09-06T10:01:25.074Z</time>
      </trkpt>
      <trkpt lat="50.64276" lon="3.5749">
        <ele>71.5</ele>
        <time>2018-09-06T10:01:26.245Z</time>
      </trkpt>
      <trkpt lat="50.64211" lon="3.57544">
        <ele>80.3</ele>
        <time>2018-09-06T10:01:27.416Z</time>
      </trkpt>
      <trkpt lat="50.642" lon="3.57556">
        <ele>81.3</ele>
        <time>2018-09-06T10:01:27.630Z</time>
      </trkpt>
      <trkpt lat="50.64138" lon="3.5765">
        <ele>92.9</ele>
        <time>2018-09-06T10:01:29.005Z</time>
      </trkpt>
      <trkpt lat="50.64076" lon="3.57743">
        <ele>98.4</ele>
        <time>2018-09-06T10:01:30.380Z</time>
      </trkpt>
      <trkpt lat="50.64042" lon="3.57783">
        <ele>96.7</ele>
        <time>2018-09-06T10:01:31.060Z</time>
      </trkpt>
      <trkpt lat="50.63987" lon="3.57833">
        <ele>93.8</ele>
        <time>2018-09-06T10:01:32.078Z</time>
      </trkpt>
      <trkpt lat="50.63953" lon="3.57872">
        <ele>90</ele>
        <time>2018-09-06T10:01:32.752Z</time>
      </trkpt>
      <trkpt lat="50.63917" lon="3.57922">
        <ele>86.8</ele>
        <time>2018-09-06T10:01:33.521Z</time>
      </trkpt>
      <trkpt lat="50.63917" lon="3.57923">
        <ele>86.7</ele>
        <time>2018-09-06T10:01:33.531Z</time>
      </trkpt>
      <trkpt lat="50.63894" lon="3.57954">
        <ele>85</ele>
        <time>2018-09-06T10:01:34.016Z</time>
      </trkpt>
      <trkpt lat="50.6385" lon="3.5803">
        <ele>82.1</ele>
        <time>2018-09-06T10:01:35.062Z</time>
      </trkpt>
      <trkpt lat="50.63839" lon="3.58043">
        <ele>81.8</ele>
        <time>2018-09-06T10:01:35.282Z</time>
      </trkpt>
      <trkpt lat="50.63818" lon="3.58098">
        <ele>78.8</ele>
        <time>2018-09-06T10:01:35.935Z</time>
      </trkpt>
      <trkpt lat="50.63792" lon="3.58132">
        <ele>77.9</ele>
        <time>2018-09-06T10:01:36.477Z</time>
      </trkpt>
      <trkpt lat="50.63742" lon="3.5817">
        <ele>77</ele>
        <time>2018-09-06T10:01:37.367Z</time>
      </trkpt>
      <trkpt lat="50.63732" lon="3.5815">
        <ele>76.9</ele>
        <time>2018-09-06T10:01:37.626Z</time>
      </trkpt>
      <trkpt lat="50.63715" lon="3.58125">
        <ele>76.8</ele>
        <time>2018-09-06T10:01:37.999Z</time>
      </trkpt>
      <trkpt lat="50.63669" lon="3.58075">
        <ele>76.3</ele>
        <time>2018-09-06T10:01:38.901Z</time>
      </trkpt>
      <trkpt lat="50.63622" lon="3.58025">
        <ele>75</ele>
        <time>2018-09-06T10:01:39.803Z</time>
      </trkpt>
      <trkpt lat="50.63598" lon="3.58009">
        <ele>74.5</ele>
        <time>2018-09-06T10:01:40.221Z</time>
      </trkpt>
      <trkpt lat="50.63546" lon="3.57988">
        <ele>74.1</ele>
        <time>2018-09-06T10:01:41.082Z</time>
      </trkpt>
      <trkpt lat="50.63534" lon="3.5798">
        <ele>74</ele>
        <time>2018-09-06T10:01:41.291Z</time>
      </trkpt>
      <trkpt lat="50.63519" lon="3.57965">
        <ele>74.1</ele>
        <time>2018-09-06T10:01:41.576Z</time>
      </trkpt>
      <trkpt lat="50.63495" lon="3.57919">
        <ele>74.6</ele>
        <time>2018-09-06T10:01:42.182Z</time>
      </trkpt>
      <trkpt lat="50.63483" lon="3.57878">
        <ele>76.1</ele>
        <time>2018-09-06T10:01:42.641Z</time>
      </trkpt>
      <trkpt lat="50.63468" lon="3.57803">
        <ele>78.4</ele>
        <time>2018-09-06T10:01:43.441Z</time>
      </trkpt>
      <trkpt lat="50.63419" lon="3.57821">
        <ele>77.6</ele>
        <time>2018-09-06T10:01:44.248Z</time>
      </trkpt>
      <trkpt lat="50.63399" lon="3.57822">
        <ele>77</ele>
        <time>2018-09-06T10:01:44.569Z</time>
      </trkpt>
      <trkpt lat="50.63332" lon="3.57781">
        <ele>75</ele>
        <time>2018-09-06T10:01:45.721Z</time>
      </trkpt>
      <trkpt lat="50.63314" lon="3.57758">
        <ele>75.3</ele>
        <time>2018-09-06T10:01:46.092Z</time>
      </trkpt>
      <trkpt lat="50.63301" lon="3.57717">
        <ele>75.7</ele>
        <time>2018-09-06T10:01:46.558Z</time>
      </trkpt>
      <trkpt lat="50.63291" lon="3.57664">
        <ele>75.5</ele>
        <time>2018-09-06T10:01:47.120Z</time>
      </trkpt>
      <trkpt lat="50.63268" lon="3.57596">
        <ele>73.9</ele>
        <time>2018-09-06T10:01:47.908Z</time>
      </trkpt>
      <trkpt lat="50.63245" lon="3.57527">
        <ele>70.6</ele>
        <time>2018-09-06T10:01:48.696Z</time>
      </trkpt>
      <trkpt lat="50.63231" lon="3.57503">
        <ele>70.6</ele>
        <time>2018-09-06T10:01:49.028Z</time>
      </trkpt>
      <trkpt lat="50.63165" lon="3.57436">
        <ele>69.7</ele>
        <time>2018-09-06T10:01:50.286Z</time>
      </trkpt>
      <trkpt lat="50.63148" lon="3.57413">
        <ele>70.1</ele>
        <time>2018-09-06T10:01:50.645Z</time>
      </trkpt>
      <trkpt lat="50.63124" lon="3.57353">
        <ele>70.3</ele>
        <time>2018-09-06T10:01:51.371Z</time>
      </trkpt>
      <trkpt lat="50.631" lon="3.57292">
        <ele>71</ele>
        <time>2018-09-06T10:01:52.097Z</time>
      </trkpt>
      <trkpt lat="50.6309" lon="3.57279">
        <ele>71.1</ele>
        <time>2018-09-06T10:01:52.305Z</time>
      </trkpt>
      <trkpt lat="50.63077" lon="3.57276">
        <ele>70.3</ele>
        <time>2018-09-06T10:01:52.516Z</time>
      </trkpt>
      <trkpt lat="50.63022" lon="3.57321">
        <ele>69.6</ele>
        <time>2018-09-06T10:01:53.514Z</time>
      </trkpt>
      <trkpt lat="50.62966" lon="3.57365">
        <ele>68.1</ele>
        <time>2018-09-06T10:01:54.512Z</time>
      </trkpt>
      <trkpt lat="50.62949" lon="3.57367">
        <ele>67.9</ele>
        <time>2018-09-06T10:01:54.785Z</time>
      </trkpt>
      <trkpt lat="50.62939" lon="3.57352">
        <ele>67.7</ele>
        <time>2018-09-06T10:01:55.006Z</time>
      </trkpt>
      <trkpt lat="50.62932" lon="3.57321">
        <ele>67.5</ele>
        <time>2018-09-06T10:01:55.341Z</time>
      </trkpt>
      <trkpt lat="50.62928" lon="3.57202">
        <ele>67.3</ele>
        <time>2018-09-06T10:01:56.553Z</time>
      </trkpt>
      <trkpt lat="50.62924" lon="3.57083">
        <ele>65.5</ele>
        <time>2018-09-06T10:01:57.765Z</time>
      </trkpt>
      <trkpt lat="50.62908" lon="3.56991">
        <ele>64</ele>
        <time>2018-09-06T10:01:58.735Z</time>
      </trkpt>
      <trkpt lat="50.62882" lon="3.56904">
        <ele>62.5</ele>
        <time>2018-09-06T10:01:59.713Z</time>
      </trkpt>
      <trkpt lat="50.62872" lon="3.56881">
        <ele>62.2</ele>
        <time>2018-09-06T10:01:59.997Z</time>
      </trkpt>
      <trkpt lat="50.62864" lon="3.56846">
        <ele>62</ele>
        <time>2018-09-06T10:02:00.375Z</time>
      </trkpt>
      <trkpt lat="50.62862" lon="3.56801">
        <ele>62.3</ele>
        <time>2018-09-06T10:02:00.834Z</time>
      </trkpt>
      <trkpt lat="50.62851" lon="3.56698">
        <ele>63.1</ele>
        <time>2018-09-06T10:02:01.898Z</time>
      </trkpt>
      <trkpt lat="50.62839" lon="3.56595">
        <ele>64</ele>
        <time>2018-09-06T10:02:02.962Z</time>
      </trkpt>
      <trkpt lat="50.62843" lon="3.56548">
        <ele>64.5</ele>
        <time>2018-09-06T10:02:03.444Z</time>
      </trkpt>
      <trkpt lat="50.62913" lon="3.56489">
        <ele>65.9</ele>
        <time>2018-09-06T10:02:04.717Z</time>
      </trkpt>
      <trkpt lat="50.62983" lon="3.5643">
        <ele>71</ele>
        <time>2018-09-06T10:02:05.990Z</time>
      </trkpt>
      <trkpt lat="50.62995" lon="3.56424">
        <ele>72</ele>
        <time>2018-09-06T10:02:06.192Z</time>
      </trkpt>
      <trkpt lat="50.63045" lon="3.56418">
        <ele>74.1</ele>
        <time>2018-09-06T10:02:06.996Z</time>
      </trkpt>
      <trkpt lat="50.63095" lon="3.56412">
        <ele>76.5</ele>
        <time>2018-09-06T10:02:07.800Z</time>
      </trkpt>
      <trkpt lat="50.63144" lon="3.56412">
        <ele>77.5</ele>
        <time>2018-09-06T10:02:08.586Z</time>
      </trkpt>
      <trkpt lat="50.63158" lon="3.56398">
        <ele>77.6</ele>
        <time>2018-09-06T10:02:08.852Z</time>
      </trkpt>
      <trkpt lat="50.63165" lon="3.56373">
        <ele>77.5</ele>
        <time>2018-09-06T10:02:09.130Z</time>
      </trkpt>
      <trkpt lat="50.63165" lon="3.56373">
        <ele>77.5</ele>
        <time>2018-09-06T10:02:09.130Z</time>
      </trkpt>
      <trkpt lat="50.63177" lon="3.56283">
        <ele>79.8</ele>
        <time>2018-09-06T10:02:10.065Z</time>
      </trkpt>
      <trkpt lat="50.63174" lon="3.56191">
        <ele>81.7</ele>
        <time>2018-09-06T10:02:11.007Z</time>
      </trkpt>
      <trkpt lat="50.6317" lon="3.56098">
        <ele>83.9</ele>
        <time>2018-09-06T10:02:11.949Z</time>
      </trkpt>
      <trkpt lat="50.63151" lon="3.56015">
        <ele>83.8</ele>
        <time>2018-09-06T10:02:12.849Z</time>
      </trkpt>
      <trkpt lat="50.63131" lon="3.55932">
        <ele>83.7</ele>
        <time>2018-09-06T10:02:13.749Z</time>
      </trkpt>
      <trkpt lat="50.6313" lon="3.55899">
        <ele>83.7</ele>
        <time>2018-09-06T10:02:14.085Z</time>
      </trkpt>
      <trkpt lat="50.63131" lon="3.55882">
        <ele>83.7</ele>
        <time>2018-09-06T10:02:14.259Z</time>
      </trkpt>
      <trkpt lat="50.63136" lon="3.55866">
        <ele>83.8</ele>
        <time>2018-09-06T10:02:14.440Z</time>
      </trkpt>
      <trkpt lat="50.63164" lon="3.55815">
        <ele>84.6</ele>
        <time>2018-09-06T10:02:15.126Z</time>
      </trkpt>
      <trkpt lat="50.63185" lon="3.55782">
        <ele>88.7</ele>
        <time>2018-09-06T10:02:15.601Z</time>
      </trkpt>
      <trkpt lat="50.63242" lon="3.5571">
        <ele>90.7</ele>
        <time>2018-09-06T10:02:16.772Z</time>
      </trkpt>
      <trkpt lat="50.63223" lon="3.55643">
        <ele>89.7</ele>
        <time>2018-09-06T10:02:17.526Z</time>
      </trkpt>
      <trkpt lat="50.63203" lon="3.55575">
        <ele>88.6</ele>
        <time>2018-09-06T10:02:18.280Z</time>
      </trkpt>
      <trkpt lat="50.63184" lon="3.55526">
        <ele>87.9</ele>
        <time>2018-09-06T10:02:18.864Z</time>
      </trkpt>
      <trkpt lat="50.63164" lon="3.55484">
        <ele>84.8</ele>
        <time>2018-09-06T10:02:19.398Z</time>
      </trkpt>
      <trkpt lat="50.63134" lon="3.55353">
        <ele>83.8</ele>
        <time>2018-09-06T10:02:20.814Z</time>
      </trkpt>
      <trkpt lat="50.63122" lon="3.55311">
        <ele>82.6</ele>
        <time>2018-09-06T10:02:21.282Z</time>
      </trkpt>
      <trkpt lat="50.63107" lon="3.55276">
        <ele>82.2</ele>
        <time>2018-09-06T10:02:21.712Z</time>
      </trkpt>
      <trkpt lat="50.63084" lon="3.55236">
        <ele>81.5</ele>
        <time>2018-09-06T10:02:22.261Z</time>
      </trkpt>
      <trkpt lat="50.63057" lon="3.552">
        <ele>81.3</ele>
        <time>2018-09-06T10:02:22.828Z</time>
      </trkpt>
      <trkpt lat="50.6304" lon="3.55169">
        <ele>81.1</ele>
        <time>2018-09-06T10:02:23.245Z</time>
      </trkpt>
      <trkpt lat="50.63029" lon="3.55138">
        <ele>80.9</ele>
        <time>2018-09-06T10:02:23.606Z</time>
      </trkpt>
      <trkpt lat="50.63021" lon="3.55103">
        <ele>80.6</ele>
        <time>2018-09-06T10:02:23.984Z</time>
      </trkpt>
      <trkpt lat="50.63011" lon="3.55024">
        <ele>80</ele>
        <time>2018-09-06T10:02:24.803Z</time>
      </trkpt>
      <trkpt lat="50.62997" lon="3.54969">
        <ele>78.1</ele>
        <time>2018-09-06T10:02:25.406Z</time>
      </trkpt>
      <trkpt lat="50.62963" lon="3.54883">
        <ele>75.2</ele>
        <time>2018-09-06T10:02:26.445Z</time>
      </trkpt>
      <trkpt lat="50.62928" lon="3.54796">
        <ele>75.4</ele>
        <time>2018-09-06T10:02:27.484Z</time>
      </trkpt>
      <trkpt lat="50.62892" lon="3.54847">
        <ele>78.9</ele>
        <time>2018-09-06T10:02:28.260Z</time>
      </trkpt>
      <trkpt lat="50.62856" lon="3.54898">
        <ele>79.5</ele>
        <time>2018-09-06T10:02:29.036Z</time>
      </trkpt>
      <trkpt lat="50.62819" lon="3.54987">
        <ele>79.3</ele>
        <time>2018-09-06T10:02:30.118Z</time>
      </trkpt>
      <trkpt lat="50.62784" lon="3.55048">
        <ele>79.5</ele>
        <time>2018-09-06T10:02:30.954Z</time>
      </trkpt>
      <trkpt lat="50.6273" lon="3.55099">
        <ele>79.9</ele>
        <time>2018-09-06T10:02:31.963Z</time>
      </trkpt>
      <trkpt lat="50.62689" lon="3.55075">
        <ele>78.3</ele>
        <time>2018-09-06T10:02:32.664Z</time>
      </trkpt>
      <trkpt lat="50.62675" lon="3.55074">
        <ele>78.2</ele>
        <time>2018-09-06T10:02:32.889Z</time>
      </trkpt>
      <trkpt lat="50.6266" lon="3.55078">
        <ele>76.8</ele>
        <time>2018-09-06T10:02:33.133Z</time>
      </trkpt>
      <trkpt lat="50.62609" lon="3.55105">
        <ele>76.4</ele>
        <time>2018-09-06T10:02:33.994Z</time>
      </trkpt>
      <trkpt lat="50.62558" lon="3.55131">
        <ele>72.7</ele>
        <time>2018-09-06T10:02:34.855Z</time>
      </trkpt>
      <trkpt lat="50.62497" lon="3.55136">
        <ele>67.8</ele>
        <time>2018-09-06T10:02:35.834Z</time>
      </trkpt>
      <trkpt lat="50.62436" lon="3.55141">
        <ele>67</ele>
        <time>2018-09-06T10:02:36.813Z</time>
      </trkpt>
      <trkpt lat="50.62361" lon="3.55121">
        <ele>64.5</ele>
        <time>2018-09-06T10:02:38.027Z</time>
      </trkpt>
      <trkpt lat="50.62287" lon="3.55101">
        <ele>61.7</ele>
        <time>2018-09-06T10:02:39.241Z</time>
      </trkpt>
      <trkpt lat="50.62212" lon="3.55081">
        <ele>57.4</ele>
        <time>2018-09-06T10:02:40.455Z</time>
      </trkpt>
      <trkpt lat="50.62168" lon="3.55072">
        <ele>57</ele>
        <time>2018-09-06T10:02:41.166Z</time>
      </trkpt>
      <trkpt lat="50.62146" lon="3.55063">
        <ele>56.3</ele>
        <time>2018-09-06T10:02:41.530Z</time>
      </trkpt>
      <trkpt lat="50.62131" lon="3.5505">
        <ele>56.1</ele>
        <time>2018-09-06T10:02:41.804Z</time>
      </trkpt>
      <trkpt lat="50.62059" lon="3.54968">
        <ele>56.2</ele>
        <time>2018-09-06T10:02:43.231Z</time>
      </trkpt>
      <trkpt lat="50.61987" lon="3.54885">
        <ele>58.2</ele>
        <time>2018-09-06T10:02:44.658Z</time>
      </trkpt>
      <trkpt lat="50.61971" lon="3.54876">
        <ele>58.4</ele>
        <time>2018-09-06T10:02:44.930Z</time>
      </trkpt>
      <trkpt lat="50.6196" lon="3.54877">
        <ele>58.5</ele>
        <time>2018-09-06T10:02:45.107Z</time>
      </trkpt>
      <trkpt lat="50.61914" lon="3.54922">
        <ele>58</ele>
        <time>2018-09-06T10:02:45.972Z</time>
      </trkpt>
      <trkpt lat="50.61868" lon="3.54966">
        <ele>58.3</ele>
        <time>2018-09-06T10:02:46.837Z</time>
      </trkpt>
      <trkpt lat="50.61809" lon="3.55006">
        <ele>58.6</ele>
        <time>2018-09-06T10:02:47.872Z</time>
      </trkpt>
      <trkpt lat="50.61749" lon="3.55045">
        <ele>59.1</ele>
        <time>2018-09-06T10:02:48.907Z</time>
      </trkpt>
      <trkpt lat="50.61736" lon="3.55048">
        <ele>59.1</ele>
        <time>2018-09-06T10:02:49.118Z</time>
      </trkpt>
      <trkpt lat="50.61729" lon="3.55042">
        <ele>59.2</ele>
        <time>2018-09-06T10:02:49.246Z</time>
      </trkpt>
      <trkpt lat="50.61703" lon="3.54965">
        <ele>60.4</ele>
        <time>2018-09-06T10:02:50.133Z</time>
      </trkpt>
      <trkpt lat="50.61684" lon="3.54901">
        <ele>62.2</ele>
        <time>2018-09-06T10:02:50.860Z</time>
      </trkpt>
      <trkpt lat="50.61664" lon="3.54836">
        <ele>63.9</ele>
        <time>2018-09-06T10:02:51.587Z</time>
      </trkpt>
      <trkpt lat="50.61658" lon="3.54822">
        <ele>64.6</ele>
        <time>2018-09-06T10:02:51.759Z</time>
      </trkpt>
      <trkpt lat="50.6165" lon="3.54809">
        <ele>64.9</ele>
        <time>2018-09-06T10:02:51.943Z</time>
      </trkpt>
      <trkpt lat="50.61634" lon="3.54797">
        <ele>65.2</ele>
        <time>2018-09-06T10:02:52.227Z</time>
      </trkpt>
      <trkpt lat="50.61619" lon="3.54795">
        <ele>65.2</ele>
        <time>2018-09-06T10:02:52.468Z</time>
      </trkpt>
      <trkpt lat="50.61606" lon="3.54798">
        <ele>65.3</ele>
        <time>2018-09-06T10:02:52.679Z</time>
      </trkpt>
      <trkpt lat="50.61589" lon="3.54799">
        <ele>65.3</ele>
        <time>2018-09-06T10:02:52.952Z</time>
      </trkpt>
      <trkpt lat="50.61561" lon="3.54783">
        <ele>65.9</ele>
        <time>2018-09-06T10:02:53.429Z</time>
      </trkpt>
      <trkpt lat="50.61497" lon="3.54737">
        <ele>67.5</ele>
        <time>2018-09-06T10:02:54.557Z</time>
      </trkpt>
      <trkpt lat="50.61433" lon="3.54691">
        <ele>68.5</ele>
        <time>2018-09-06T10:02:55.685Z</time>
      </trkpt>
      <trkpt lat="50.61433" lon="3.54678">
        <ele>68.6</ele>
        <time>2018-09-06T10:02:55.817Z</time>
      </trkpt>
      <trkpt lat="50.61438" lon="3.54578">
        <ele>69.4</ele>
        <time>2018-09-06T10:02:56.840Z</time>
      </trkpt>
      <trkpt lat="50.61442" lon="3.54477">
        <ele>69.4</ele>
        <time>2018-09-06T10:02:57.863Z</time>
      </trkpt>
      <trkpt lat="50.61447" lon="3.54377">
        <ele>69.6</ele>
        <time>2018-09-06T10:02:58.886Z</time>
      </trkpt>
      <trkpt lat="50.61392" lon="3.54331">
        <ele>69.3</ele>
        <time>2018-09-06T10:02:59.887Z</time>
      </trkpt>
      <trkpt lat="50.61337" lon="3.54284">
        <ele>68.9</ele>
        <time>2018-09-06T10:03:00.888Z</time>
      </trkpt>
      <trkpt lat="50.61305" lon="3.54247">
        <ele>68.4</ele>
        <time>2018-09-06T10:03:01.524Z</time>
      </trkpt>
      <trkpt lat="50.61253" lon="3.54159">
        <ele>67.9</ele>
        <time>2018-09-06T10:03:02.751Z</time>
      </trkpt>
      <trkpt lat="50.612" lon="3.54072">
        <ele>67.6</ele>
        <time>2018-09-06T10:03:03.978Z</time>
      </trkpt>
      <trkpt lat="50.61148" lon="3.53984">
        <ele>67.5</ele>
        <time>2018-09-06T10:03:05.205Z</time>
      </trkpt>
      <trkpt lat="50.61095" lon="3.53896">
        <ele>66.5</ele>
        <time>2018-09-06T10:03:06.432Z</time>
      </trkpt>
      <trkpt lat="50.61057" lon="3.53841">
        <ele>67.7</ele>
        <time>2018-09-06T10:03:07.259Z</time>
      </trkpt>
      <trkpt lat="50.61046" lon="3.53836">
        <ele>67.9</ele>
        <time>2018-09-06T10:03:07.443Z</time>
      </trkpt>
      <trkpt lat="50.61038" lon="3.53841">
        <ele>68.1</ele>
        <time>2018-09-06T10:03:07.581Z</time>
      </trkpt>
      <trkpt lat="50.60992" lon="3.53867">
        <ele>69</ele>
        <time>2018-09-06T10:03:08.370Z</time>
      </trkpt>
      <trkpt lat="50.60945" lon="3.53892">
        <ele>69</ele>
        <time>2018-09-06T10:03:09.159Z</time>
      </trkpt>
      <trkpt lat="50.60913" lon="3.53921">
        <ele>69</ele>
        <time>2018-09-06T10:03:09.751Z</time>
      </trkpt>
      <trkpt lat="50.60866" lon="3.53973">
        <ele>69.1</ele>
        <time>2018-09-06T10:03:10.669Z</time>
      </trkpt>
      <trkpt lat="50.60819" lon="3.54024">
        <ele>71.1</ele>
        <time>2018-09-06T10:03:11.587Z</time>
      </trkpt>
      <trkpt lat="50.60774" lon="3.54068">
        <ele>72.4</ele>
        <time>2018-09-06T10:03:12.436Z</time>
      </trkpt>
      <trkpt lat="50.60725" lon="3.54093">
        <ele>75.1</ele>
        <time>2018-09-06T10:03:13.262Z</time>
      </trkpt>
      <trkpt lat="50.60681" lon="3.54111">
        <ele>75.8</ele>
        <time>2018-09-06T10:03:13.991Z</time>
      </trkpt>
      <trkpt lat="50.60654" lon="3.54111">
        <ele>76.2</ele>
        <time>2018-09-06T10:03:14.424Z</time>
      </trkpt>
      <trkpt lat="50.60583" lon="3.54103">
        <ele>74.7</ele>
        <time>2018-09-06T10:03:15.565Z</time>
      </trkpt>
      <trkpt lat="50.60563" lon="3.54111">
        <ele>74.9</ele>
        <time>2018-09-06T10:03:15.896Z</time>
      </trkpt>
      <trkpt lat="50.60543" lon="3.54123">
        <ele>75</ele>
        <time>2018-09-06T10:03:16.239Z</time>
      </trkpt>
      <trkpt lat="50.60505" lon="3.54199">
        <ele>76.2</ele>
        <time>2018-09-06T10:03:17.223Z</time>
      </trkpt>
      <trkpt lat="50.60467" lon="3.54275">
        <ele>77.4</ele>
        <time>2018-09-06T10:03:18.207Z</time>
      </trkpt>
      <trkpt lat="50.60452" lon="3.54299">
        <ele>78</ele>
        <time>2018-09-06T10:03:18.550Z</time>
      </trkpt>
      <trkpt lat="50.60443" lon="3.54304">
        <ele>78.3</ele>
        <time>2018-09-06T10:03:18.703Z</time>
      </trkpt>
      <trkpt lat="50.60422" lon="3.5429">
        <ele>78.1</ele>
        <time>2018-09-06T10:03:19.069Z</time>
      </trkpt>
      <trkpt lat="50.60398" lon="3.54289">
        <ele>79.1</ele>
        <time>2018-09-06T10:03:19.454Z</time>
      </trkpt>
      <trkpt lat="50.60382" lon="3.54297">
        <ele>79.4</ele>
        <time>2018-09-06T10:03:19.723Z</time>
      </trkpt>
      <trkpt lat="50.60359" lon="3.5432">
        <ele>80.2</ele>
        <time>2018-09-06T10:03:20.160Z</time>
      </trkpt>
      <trkpt lat="50.60349" lon="3.54347">
        <ele>81.7</ele>
        <time>2018-09-06T10:03:20.478Z</time>
      </trkpt>
      <trkpt lat="50.60345" lon="3.54362">
        <ele>81.7</ele>
        <time>2018-09-06T10:03:20.644Z</time>
      </trkpt>
      <trkpt lat="50.60335" lon="3.54429">
        <ele>81.7</ele>
        <time>2018-09-06T10:03:21.344Z</time>
      </trkpt>
      <trkpt lat="50.60329" lon="3.54445">
        <ele>80.9</ele>
        <time>2018-09-06T10:03:21.533Z</time>
      </trkpt>
      <trkpt lat="50.60315" lon="3.54459">
        <ele>80.6</ele>
        <time>2018-09-06T10:03:21.799Z</time>
      </trkpt>
      <trkpt lat="50.60248" lon="3.54485">
        <ele>78.9</ele>
        <time>2018-09-06T10:03:22.905Z</time>
      </trkpt>
      <trkpt lat="50.60229" lon="3.54482">
        <ele>78.3</ele>
        <time>2018-09-06T10:03:23.211Z</time>
      </trkpt>
      <trkpt lat="50.60213" lon="3.54473">
        <ele>77.8</ele>
        <time>2018-09-06T10:03:23.483Z</time>
      </trkpt>
      <trkpt lat="50.60149" lon="3.54429">
        <ele>75</ele>
        <time>2018-09-06T10:03:24.602Z</time>
      </trkpt>
      <trkpt lat="50.60104" lon="3.54396">
        <ele>73.2</ele>
        <time>2018-09-06T10:03:25.407Z</time>
      </trkpt>
      <trkpt lat="50.60058" lon="3.54362">
        <ele>71.6</ele>
        <time>2018-09-06T10:03:26.212Z</time>
      </trkpt>
      <trkpt lat="50.60041" lon="3.54359">
        <ele>71.4</ele>
        <time>2018-09-06T10:03:26.486Z</time>
      </trkpt>
      <trkpt lat="50.59959" lon="3.54388">
        <ele>69.8</ele>
        <time>2018-09-06T10:03:27.833Z</time>
      </trkpt>
      <trkpt lat="50.599" lon="3.5444">
        <ele>69.4</ele>
        <time>2018-09-06T10:03:28.917Z</time>
      </trkpt>
      <trkpt lat="50.59872" lon="3.5446">
        <ele>69.5</ele>
        <time>2018-09-06T10:03:29.410Z</time>
      </trkpt>
      <trkpt lat="50.59809" lon="3.54429">
        <ele>69.5</ele>
        <time>2018-09-06T10:03:30.468Z</time>
      </trkpt>
      <trkpt lat="50.59746" lon="3.54398">
        <ele>69.8</ele>
        <time>2018-09-06T10:03:31.526Z</time>
      </trkpt>
      <trkpt lat="50.5968" lon="3.54363">
        <ele>69.3</ele>
        <time>2018-09-06T10:03:32.645Z</time>
      </trkpt>
      <trkpt lat="50.59614" lon="3.54329">
        <ele>67</ele>
        <time>2018-09-06T10:03:33.764Z</time>
      </trkpt>
      <trkpt lat="50.59547" lon="3.54294">
        <ele>63.9</ele>
        <time>2018-09-06T10:03:34.883Z</time>
      </trkpt>
      <trkpt lat="50.59481" lon="3.54259">
        <ele>60.2</ele>
        <time>2018-09-06T10:03:36.002Z</time>
      </trkpt>
      <trkpt lat="50.59429" lon="3.54234">
        <ele>58.5</ele>
        <time>2018-09-06T10:03:36.874Z</time>
      </trkpt>
      <trkpt lat="50.59368" lon="3.54212">
        <ele>56.5</ele>
        <time>2018-09-06T10:03:37.877Z</time>
      </trkpt>
      <trkpt lat="50.59341" lon="3.54207">
        <ele>56.3</ele>
        <time>2018-09-06T10:03:38.313Z</time>
      </trkpt>
      <trkpt lat="50.59307" lon="3.54209">
        <ele>56</ele>
        <time>2018-09-06T10:03:38.858Z</time>
      </trkpt>
      <trkpt lat="50.59273" lon="3.54214">
        <ele>56</ele>
        <time>2018-09-06T10:03:39.405Z</time>
      </trkpt>
      <trkpt lat="50.59208" lon="3.54227">
        <ele>56.5</ele>
        <time>2018-09-06T10:03:40.463Z</time>
      </trkpt>
      <trkpt lat="50.59142" lon="3.54239">
        <ele>57</ele>
        <time>2018-09-06T10:03:41.521Z</time>
      </trkpt>
      <trkpt lat="50.59066" lon="3.54252">
        <ele>57.6</ele>
        <time>2018-09-06T10:03:42.755Z</time>
      </trkpt>
      <trkpt lat="50.58989" lon="3.54265">
        <ele>58.5</ele>
        <time>2018-09-06T10:03:43.989Z</time>
      </trkpt>
      <trkpt lat="50.58942" lon="3.54272">
        <ele>58</ele>
        <time>2018-09-06T10:03:44.745Z</time>
      </trkpt>
      <trkpt lat="50.58895" lon="3.54278">
        <ele>56.1</ele>
        <time>2018-09-06T10:03:45.501Z</time>
      </trkpt>
      <trkpt lat="50.58835" lon="3.54284">
        <ele>54.8</ele>
        <time>2018-09-06T10:03:46.465Z</time>
      </trkpt>
      <trkpt lat="50.58821" lon="3.54284">
        <ele>53.2</ele>
        <time>2018-09-06T10:03:46.689Z</time>
      </trkpt>
      <trkpt lat="50.58778" lon="3.54301">
        <ele>52.9</ele>
        <time>2018-09-06T10:03:47.400Z</time>
      </trkpt>
      <trkpt lat="50.58736" lon="3.54293">
        <ele>52.7</ele>
        <time>2018-09-06T10:03:48.078Z</time>
      </trkpt>
      <trkpt lat="50.5871" lon="3.54278">
        <ele>52.7</ele>
        <time>2018-09-06T10:03:48.522Z</time>
      </trkpt>
      <trkpt lat="50.58665" lon="3.54258">
        <ele>53.2</ele>
        <time>2018-09-06T10:03:49.272Z</time>
      </trkpt>
      <trkpt lat="50.5862" lon="3.54238">
        <ele>53.5</ele>
        <time>2018-09-06T10:03:50.022Z</time>
      </trkpt>
      <trkpt lat="50.58612" lon="3.54233">
        <ele>53.6</ele>
        <time>2018-09-06T10:03:50.160Z</time>
      </trkpt>
      <trkpt lat="50.58611" lon="3.54233">
        <ele>53.6</ele>
        <time>2018-09-06T10:03:50.176Z</time>
      </trkpt>
      <trkpt lat="50.58552" lon="3.54196">
        <ele>54.4</ele>
        <time>2018-09-06T10:03:51.194Z</time>
      </trkpt>
      <trkpt lat="50.58501" lon="3.54159">
        <ele>54.8</ele>
        <time>2018-09-06T10:03:52.094Z</time>
      </trkpt>
      <trkpt lat="50.58484" lon="3.54149">
        <ele>55</ele>
        <time>2018-09-06T10:03:52.385Z</time>
      </trkpt>
      <trkpt lat="50.58465" lon="3.54147">
        <ele>55.1</ele>
        <time>2018-09-06T10:03:52.690Z</time>
      </trkpt>
      <trkpt lat="50.58442" lon="3.54149">
        <ele>55.3</ele>
        <time>2018-09-06T10:03:53.059Z</time>
      </trkpt>
      <trkpt lat="50.58378" lon="3.54169">
        <ele>55.7</ele>
        <time>2018-09-06T10:03:54.105Z</time>
      </trkpt>
      <trkpt lat="50.58328" lon="3.54171">
        <ele>55</ele>
        <time>2018-09-06T10:03:54.907Z</time>
      </trkpt>
      <trkpt lat="50.5824" lon="3.54169">
        <ele>54.4</ele>
        <time>2018-09-06T10:03:56.318Z</time>
      </trkpt>
      <trkpt lat="50.58152" lon="3.54167">
        <ele>55.7</ele>
        <time>2018-09-06T10:03:57.729Z</time>
      </trkpt>
      <trkpt lat="50.58064" lon="3.54165">
        <ele>57</ele>
        <time>2018-09-06T10:03:59.140Z</time>
      </trkpt>
      <trkpt lat="50.58049" lon="3.54168">
        <ele>57.3</ele>
        <time>2018-09-06T10:03:59.382Z</time>
      </trkpt>
      <trkpt lat="50.58034" lon="3.5418">
        <ele>57.3</ele>
        <time>2018-09-06T10:03:59.652Z</time>
      </trkpt>
      <trkpt lat="50.57982" lon="3.5423">
        <ele>57.7</ele>
        <time>2018-09-06T10:04:00.627Z</time>
      </trkpt>
      <trkpt lat="50.5793" lon="3.54279">
        <ele>58.6</ele>
        <time>2018-09-06T10:04:01.602Z</time>
      </trkpt>
      <trkpt lat="50.57878" lon="3.54329">
        <ele>58.7</ele>
        <time>2018-09-06T10:04:02.577Z</time>
      </trkpt>
      <trkpt lat="50.57819" lon="3.54382">
        <ele>58.7</ele>
        <time>2018-09-06T10:04:03.661Z</time>
      </trkpt>
      <trkpt lat="50.57761" lon="3.54435">
        <ele>58.6</ele>
        <time>2018-09-06T10:04:04.745Z</time>
      </trkpt>
      <trkpt lat="50.57702" lon="3.54488">
        <ele>59.2</ele>
        <time>2018-09-06T10:04:05.829Z</time>
      </trkpt>
      <trkpt lat="50.5764" lon="3.54547">
        <ele>58.8</ele>
        <time>2018-09-06T10:04:06.993Z</time>
      </trkpt>
      <trkpt lat="50.57577" lon="3.54605">
        <ele>59.8</ele>
        <time>2018-09-06T10:04:08.157Z</time>
      </trkpt>
      <trkpt lat="50.57515" lon="3.54664">
        <ele>60.7</ele>
        <time>2018-09-06T10:04:09.321Z</time>
      </trkpt>
      <trkpt lat="50.57497" lon="3.54674">
        <ele>61.3</ele>
        <time>2018-09-06T10:04:09.627Z</time>
      </trkpt>
      <trkpt lat="50.57485" lon="3.54682">
        <ele>61.6</ele>
        <time>2018-09-06T10:04:09.836Z</time>
      </trkpt>
      <trkpt lat="50.57436" lon="3.54697">
        <ele>62.1</ele>
        <time>2018-09-06T10:04:10.644Z</time>
      </trkpt>
      <trkpt lat="50.57386" lon="3.54712">
        <ele>63.4</ele>
        <time>2018-09-06T10:04:11.452Z</time>
      </trkpt>
      <trkpt lat="50.57377" lon="3.54713">
        <ele>63.5</ele>
        <time>2018-09-06T10:04:11.597Z</time>
      </trkpt>
      <trkpt lat="50.57294" lon="3.54681">
        <ele>65.3</ele>
        <time>2018-09-06T10:04:12.967Z</time>
      </trkpt>
      <trkpt lat="50.57229" lon="3.54661">
        <ele>66.4</ele>
        <time>2018-09-06T10:04:14.037Z</time>
      </trkpt>
      <trkpt lat="50.57163" lon="3.54641">
        <ele>67.3</ele>
        <time>2018-09-06T10:04:15.107Z</time>
      </trkpt>
      <trkpt lat="50.57118" lon="3.54621">
        <ele>67</ele>
        <time>2018-09-06T10:04:15.864Z</time>
      </trkpt>
      <trkpt lat="50.57072" lon="3.54601">
        <ele>66.6</ele>
        <time>2018-09-06T10:04:16.621Z</time>
      </trkpt>
      <trkpt lat="50.57058" lon="3.54645">
        <ele>66.1</ele>
        <time>2018-09-06T10:04:17.122Z</time>
      </trkpt>
      <trkpt lat="50.57052" lon="3.54656">
        <ele>66.1</ele>
        <time>2018-09-06T10:04:17.270Z</time>
      </trkpt>
      <trkpt lat="50.57045" lon="3.5466">
        <ele>66</ele>
        <time>2018-09-06T10:04:17.389Z</time>
      </trkpt>
      <trkpt lat="50.57036" lon="3.5466">
        <ele>65.9</ele>
        <time>2018-09-06T10:04:17.533Z</time>
      </trkpt>
      <trkpt lat="50.56952" lon="3.54642">
        <ele>65.8</ele>
        <time>2018-09-06T10:04:18.893Z</time>
      </trkpt>
      <trkpt lat="50.56868" lon="3.54623">
        <ele>65.5</ele>
        <time>2018-09-06T10:04:20.253Z</time>
      </trkpt>
      <trkpt lat="50.56782" lon="3.546">
        <ele>64.7</ele>
        <time>2018-09-06T10:04:21.648Z</time>
      </trkpt>
      <trkpt lat="50.56697" lon="3.54577">
        <ele>63.5</ele>
        <time>2018-09-06T10:04:23.043Z</time>
      </trkpt>
      <trkpt lat="50.56611" lon="3.54554">
        <ele>60.6</ele>
        <time>2018-09-06T10:04:24.438Z</time>
      </trkpt>
      <trkpt lat="50.56525" lon="3.54531">
        <ele>58.4</ele>
        <time>2018-09-06T10:04:25.833Z</time>
      </trkpt>
      <trkpt lat="50.56451" lon="3.54548">
        <ele>56.9</ele>
        <time>2018-09-06T10:04:27.032Z</time>
      </trkpt>
      <trkpt lat="50.56377" lon="3.54566">
        <ele>55.9</ele>
        <time>2018-09-06T10:04:28.231Z</time>
      </trkpt>
      <trkpt lat="50.56303" lon="3.54583">
        <ele>54.9</ele>
        <time>2018-09-06T10:04:29.430Z</time>
      </trkpt>
      <trkpt lat="50.56256" lon="3.54589">
        <ele>53.9</ele>
        <time>2018-09-06T10:04:30.186Z</time>
      </trkpt>
      <trkpt lat="50.56226" lon="3.54601">
        <ele>52.2</ele>
        <time>2018-09-06T10:04:30.682Z</time>
      </trkpt>
      <trkpt lat="50.56189" lon="3.54618">
        <ele>51.3</ele>
        <time>2018-09-06T10:04:31.300Z</time>
      </trkpt>
      <trkpt lat="50.56116" lon="3.54658">
        <ele>49.1</ele>
        <time>2018-09-06T10:04:32.539Z</time>
      </trkpt>
      <trkpt lat="50.5605" lon="3.54705">
        <ele>47.8</ele>
        <time>2018-09-06T10:04:33.700Z</time>
      </trkpt>
      <trkpt lat="50.55984" lon="3.54752">
        <ele>46.8</ele>
        <time>2018-09-06T10:04:34.861Z</time>
      </trkpt>
      <trkpt lat="50.55942" lon="3.54779">
        <ele>46.6</ele>
        <time>2018-09-06T10:04:35.588Z</time>
      </trkpt>
      <trkpt lat="50.5592" lon="3.54777">
        <ele>46.6</ele>
        <time>2018-09-06T10:04:35.941Z</time>
      </trkpt>
      <trkpt lat="50.55899" lon="3.5476">
        <ele>46.1</ele>
        <time>2018-09-06T10:04:36.320Z</time>
      </trkpt>
      <trkpt lat="50.55916" lon="3.54689">
        <ele>46.2</ele>
        <time>2018-09-06T10:04:37.093Z</time>
      </trkpt>
      <trkpt lat="50.55933" lon="3.54618">
        <ele>47.9</ele>
        <time>2018-09-06T10:04:37.866Z</time>
      </trkpt>
      <trkpt lat="50.55941" lon="3.54525">
        <ele>48.4</ele>
        <time>2018-09-06T10:04:38.822Z</time>
      </trkpt>
      <trkpt lat="50.55947" lon="3.54426">
        <ele>48</ele>
        <time>2018-09-06T10:04:39.840Z</time>
      </trkpt>
      <trkpt lat="50.55953" lon="3.54326">
        <ele>48.2</ele>
        <time>2018-09-06T10:04:40.858Z</time>
      </trkpt>
      <trkpt lat="50.5597" lon="3.54193">
        <ele>49.4</ele>
        <time>2018-09-06T10:04:42.240Z</time>
      </trkpt>
      <trkpt lat="50.55971" lon="3.5411">
        <ele>49</ele>
        <time>2018-09-06T10:04:43.085Z</time>
      </trkpt>
      <trkpt lat="50.55967" lon="3.54033">
        <ele>48.2</ele>
        <time>2018-09-06T10:04:43.877Z</time>
      </trkpt>
      <trkpt lat="50.55963" lon="3.53955">
        <ele>47.8</ele>
        <time>2018-09-06T10:04:44.669Z</time>
      </trkpt>
      <trkpt lat="50.55945" lon="3.53959">
        <ele>47.7</ele>
        <time>2018-09-06T10:04:44.960Z</time>
      </trkpt>
      <trkpt lat="50.55923" lon="3.5397">
        <ele>47.7</ele>
        <time>2018-09-06T10:04:45.330Z</time>
      </trkpt>
      <trkpt lat="50.55891" lon="3.53972">
        <ele>47</ele>
        <time>2018-09-06T10:04:45.843Z</time>
      </trkpt>
      <trkpt lat="50.55871" lon="3.53955">
        <ele>46.7</ele>
        <time>2018-09-06T10:04:46.207Z</time>
      </trkpt>
      <trkpt lat="50.55837" lon="3.53915">
        <ele>46.1</ele>
        <time>2018-09-06T10:04:46.887Z</time>
      </trkpt>
      <trkpt lat="50.55794" lon="3.53832">
        <ele>46</ele>
        <time>2018-09-06T10:04:47.978Z</time>
      </trkpt>
      <trkpt lat="50.55743" lon="3.53741">
        <ele>46</ele>
        <time>2018-09-06T10:04:49.214Z</time>
      </trkpt>
      <trkpt lat="50.55717" lon="3.53714">
        <ele>46</ele>
        <time>2018-09-06T10:04:49.713Z</time>
      </trkpt>
      <trkpt lat="50.55692" lon="3.53693">
        <ele>46</ele>
        <time>2018-09-06T10:04:50.167Z</time>
      </trkpt>
      <trkpt lat="50.55679" lon="3.53665">
        <ele>46</ele>
        <time>2018-09-06T10:04:50.520Z</time>
      </trkpt>
      <trkpt lat="50.55672" lon="3.53627">
        <ele>45.8</ele>
        <time>2018-09-06T10:04:50.923Z</time>
      </trkpt>
      <trkpt lat="50.55671" lon="3.53589">
        <ele>45.3</ele>
        <time>2018-09-06T10:04:51.310Z</time>
      </trkpt>
      <trkpt lat="50.55674" lon="3.53448">
        <ele>46.2</ele>
        <time>2018-09-06T10:04:52.747Z</time>
      </trkpt>
      <trkpt lat="50.55667" lon="3.53451">
        <ele>46.2</ele>
        <time>2018-09-06T10:04:52.863Z</time>
      </trkpt>
      <trkpt lat="50.55662" lon="3.53459">
        <ele>45.2</ele>
        <time>2018-09-06T10:04:52.977Z</time>
      </trkpt>
      <trkpt lat="50.55659" lon="3.53531">
        <ele>44.7</ele>
        <time>2018-09-06T10:04:53.707Z</time>
      </trkpt>
      <trkpt lat="50.55656" lon="3.53602">
        <ele>44.9</ele>
        <time>2018-09-06T10:04:54.438Z</time>
      </trkpt>
      <trkpt lat="50.55656" lon="3.53602">
        <ele>44.9</ele>
        <time>2018-09-06T10:04:54.438Z</time>
      </trkpt>
      <trkpt lat="50.55615" lon="3.53597">
        <ele>44.6</ele>
        <time>2018-09-06T10:04:55.097Z</time>
      </trkpt>
      <trkpt lat="50.55617" lon="3.53504">
        <ele>44.4</ele>
        <time>2018-09-06T10:04:56.045Z</time>
      </trkpt>
      <trkpt lat="50.55611" lon="3.53493">
        <ele>44.7</ele>
        <time>2018-09-06T10:04:56.193Z</time>
      </trkpt>
      <trkpt lat="50.55592" lon="3.53494">
        <ele>44.3</ele>
        <time>2018-09-06T10:04:56.498Z</time>
      </trkpt>
      <trkpt lat="50.55586" lon="3.53492">
        <ele>44.3</ele>
        <time>2018-09-06T10:04:56.596Z</time>
      </trkpt>
      <trkpt lat="50.55582" lon="3.53484">
        <ele>44.4</ele>
        <time>2018-09-06T10:04:56.700Z</time>
      </trkpt>
      <trkpt lat="50.55583" lon="3.53467">
        <ele>44.6</ele>
        <time>2018-09-06T10:04:56.874Z</time>
      </trkpt>
      <trkpt lat="50.55555" lon="3.53457">
        <ele>44.7</ele>
        <time>2018-09-06T10:04:57.334Z</time>
      </trkpt>
      <trkpt lat="50.55526" lon="3.53453">
        <ele>44.8</ele>
        <time>2018-09-06T10:04:57.801Z</time>
      </trkpt>
      <trkpt lat="50.55479" lon="3.53456">
        <ele>45.6</ele>
        <time>2018-09-06T10:04:58.555Z</time>
      </trkpt>
      <trkpt lat="50.55432" lon="3.53458">
        <ele>46</ele>
        <time>2018-09-06T10:04:59.309Z</time>
      </trkpt>
      <trkpt lat="50.55371" lon="3.53457">
        <ele>47</ele>
        <time>2018-09-06T10:05:00.287Z</time>
      </trkpt>
      <trkpt lat="50.55328" lon="3.53442">
        <ele>47.9</ele>
        <time>2018-09-06T10:05:00.993Z</time>
      </trkpt>
      <trkpt lat="50.5528" lon="3.53413">
        <ele>47.9</ele>
        <time>2018-09-06T10:05:01.817Z</time>
      </trkpt>
      <trkpt lat="50.55246" lon="3.53406">
        <ele>48.8</ele>
        <time>2018-09-06T10:05:02.367Z</time>
      </trkpt>
      <trkpt lat="50.55218" lon="3.53409">
        <ele>48.7</ele>
        <time>2018-09-06T10:05:02.817Z</time>
      </trkpt>
      <trkpt lat="50.55192" lon="3.53434">
        <ele>49.3</ele>
        <time>2018-09-06T10:05:03.305Z</time>
      </trkpt>
      <trkpt lat="50.55167" lon="3.53496">
        <ele>49.9</ele>
        <time>2018-09-06T10:05:04.053Z</time>
      </trkpt>
      <trkpt lat="50.55142" lon="3.53558">
        <ele>50.9</ele>
        <time>2018-09-06T10:05:04.801Z</time>
      </trkpt>
      <trkpt lat="50.55128" lon="3.53584">
        <ele>50.8</ele>
        <time>2018-09-06T10:05:05.148Z</time>
      </trkpt>
      <trkpt lat="50.55113" lon="3.53593">
        <ele>51</ele>
        <time>2018-09-06T10:05:05.405Z</time>
      </trkpt>
      <trkpt lat="50.55087" lon="3.53629">
        <ele>51</ele>
        <time>2018-09-06T10:05:05.960Z</time>
      </trkpt>
      <trkpt lat="50.55072" lon="3.53665">
        <ele>51.6</ele>
        <time>2018-09-06T10:05:06.399Z</time>
      </trkpt>
      <trkpt lat="50.55058" lon="3.53689">
        <ele>51.6</ele>
        <time>2018-09-06T10:05:06.731Z</time>
      </trkpt>
      <trkpt lat="50.55033" lon="3.53711">
        <ele>51.8</ele>
        <time>2018-09-06T10:05:07.190Z</time>
      </trkpt>
      <trkpt lat="50.54992" lon="3.53724">
        <ele>53.4</ele>
        <time>2018-09-06T10:05:07.860Z</time>
      </trkpt>
      <trkpt lat="50.54963" lon="3.5374">
        <ele>53.9</ele>
        <time>2018-09-06T10:05:08.353Z</time>
      </trkpt>
      <trkpt lat="50.54936" lon="3.53764">
        <ele>53.4</ele>
        <time>2018-09-06T10:05:08.850Z</time>
      </trkpt>
      <trkpt lat="50.54914" lon="3.53791">
        <ele>53.4</ele>
        <time>2018-09-06T10:05:09.297Z</time>
      </trkpt>
      <trkpt lat="50.5488" lon="3.5385">
        <ele>51.8</ele>
        <time>2018-09-06T10:05:10.108Z</time>
      </trkpt>
      <trkpt lat="50.54852" lon="3.53883">
        <ele>51.8</ele>
        <time>2018-09-06T10:05:10.669Z</time>
      </trkpt>
      <trkpt lat="50.54828" lon="3.53898">
        <ele>52</ele>
        <time>2018-09-06T10:05:11.083Z</time>
      </trkpt>
      <trkpt lat="50.54802" lon="3.53901">
        <ele>52</ele>
        <time>2018-09-06T10:05:11.501Z</time>
      </trkpt>
      <trkpt lat="50.54776" lon="3.53893">
        <ele>52</ele>
        <time>2018-09-06T10:05:11.926Z</time>
      </trkpt>
      <trkpt lat="50.54707" lon="3.53861">
        <ele>52.5</ele>
        <time>2018-09-06T10:05:13.079Z</time>
      </trkpt>
      <trkpt lat="50.54638" lon="3.53829">
        <ele>53.2</ele>
        <time>2018-09-06T10:05:14.232Z</time>
      </trkpt>
      <trkpt lat="50.54569" lon="3.53797">
        <ele>52.4</ele>
        <time>2018-09-06T10:05:15.385Z</time>
      </trkpt>
      <trkpt lat="50.545" lon="3.53765">
        <ele>50.2</ele>
        <time>2018-09-06T10:05:16.538Z</time>
      </trkpt>
      <trkpt lat="50.54466" lon="3.53734">
        <ele>48.4</ele>
        <time>2018-09-06T10:05:17.168Z</time>
      </trkpt>
      <trkpt lat="50.54397" lon="3.53648">
        <ele>47.3</ele>
        <time>2018-09-06T10:05:18.583Z</time>
      </trkpt>
      <trkpt lat="50.54327" lon="3.53562">
        <ele>46.5</ele>
        <time>2018-09-06T10:05:19.998Z</time>
      </trkpt>
      <trkpt lat="50.54258" lon="3.53476">
        <ele>47.1</ele>
        <time>2018-09-06T10:05:21.413Z</time>
      </trkpt>
      <trkpt lat="50.54189" lon="3.5339">
        <ele>46.8</ele>
        <time>2018-09-06T10:05:22.828Z</time>
      </trkpt>
      <trkpt lat="50.54119" lon="3.53304">
        <ele>47.1</ele>
        <time>2018-09-06T10:05:24.243Z</time>
      </trkpt>
      <trkpt lat="50.5405" lon="3.53218">
        <ele>47.4</ele>
        <time>2018-09-06T10:05:25.658Z</time>
      </trkpt>
      <trkpt lat="50.54012" lon="3.53176">
        <ele>47.8</ele>
        <time>2018-09-06T10:05:26.402Z</time>
      </trkpt>
      <trkpt lat="50.53977" lon="3.53141">
        <ele>47.8</ele>
        <time>2018-09-06T10:05:27.067Z</time>
      </trkpt>
      <trkpt lat="50.539" lon="3.53069">
        <ele>46.7</ele>
        <time>2018-09-06T10:05:28.503Z</time>
      </trkpt>
      <trkpt lat="50.53884" lon="3.53052">
        <ele>46.6</ele>
        <time>2018-09-06T10:05:28.813Z</time>
      </trkpt>
      <trkpt lat="50.53867" lon="3.53028">
        <ele>46.4</ele>
        <time>2018-09-06T10:05:29.179Z</time>
      </trkpt>
      <trkpt lat="50.53821" lon="3.52924">
        <ele>45.2</ele>
        <time>2018-09-06T10:05:30.467Z</time>
      </trkpt>
      <trkpt lat="50.53775" lon="3.52821">
        <ele>44.7</ele>
        <time>2018-09-06T10:05:31.755Z</time>
      </trkpt>
      <trkpt lat="50.53729" lon="3.52717">
        <ele>43.6</ele>
        <time>2018-09-06T10:05:33.043Z</time>
      </trkpt>
      <trkpt lat="50.53698" lon="3.52662">
        <ele>43.3</ele>
        <time>2018-09-06T10:05:33.792Z</time>
      </trkpt>
      <trkpt lat="50.53645" lon="3.52577">
        <ele>42.4</ele>
        <time>2018-09-06T10:05:35.005Z</time>
      </trkpt>
      <trkpt lat="50.53625" lon="3.52506">
        <ele>42</ele>
        <time>2018-09-06T10:05:35.796Z</time>
      </trkpt>
      <trkpt lat="50.5362" lon="3.52476">
        <ele>41.3</ele>
        <time>2018-09-06T10:05:36.112Z</time>
      </trkpt>
      <trkpt lat="50.53614" lon="3.52444">
        <ele>41</ele>
        <time>2018-09-06T10:05:36.452Z</time>
      </trkpt>
      <trkpt lat="50.53606" lon="3.52417">
        <ele>40.7</ele>
        <time>2018-09-06T10:05:36.756Z</time>
      </trkpt>
      <trkpt lat="50.53593" lon="3.52399">
        <ele>40.1</ele>
        <time>2018-09-06T10:05:37.034Z</time>
      </trkpt>
      <trkpt lat="50.53533" lon="3.52337">
        <ele>38.3</ele>
        <time>2018-09-06T10:05:38.185Z</time>
      </trkpt>
      <trkpt lat="50.53516" lon="3.52328">
        <ele>37.4</ele>
        <time>2018-09-06T10:05:38.473Z</time>
      </trkpt>
      <trkpt lat="50.53501" lon="3.52327">
        <ele>37.2</ele>
        <time>2018-09-06T10:05:38.714Z</time>
      </trkpt>
      <trkpt lat="50.53426" lon="3.52347">
        <ele>36.2</ele>
        <time>2018-09-06T10:05:39.934Z</time>
      </trkpt>
      <trkpt lat="50.53354" lon="3.52348">
        <ele>36.2</ele>
        <time>2018-09-06T10:05:41.088Z</time>
      </trkpt>
      <trkpt lat="50.53283" lon="3.52373">
        <ele>36.2</ele>
        <time>2018-09-06T10:05:42.254Z</time>
      </trkpt>
      <trkpt lat="50.53221" lon="3.52397">
        <ele>36</ele>
        <time>2018-09-06T10:05:43.276Z</time>
      </trkpt>
      <trkpt lat="50.53159" lon="3.5242">
        <ele>35.6</ele>
        <time>2018-09-06T10:05:44.298Z</time>
      </trkpt>
      <trkpt lat="50.5314" lon="3.52431">
        <ele>35</ele>
        <time>2018-09-06T10:05:44.623Z</time>
      </trkpt>
      <trkpt lat="50.53086" lon="3.52472">
        <ele>34.3</ele>
        <time>2018-09-06T10:05:45.584Z</time>
      </trkpt>
      <trkpt lat="50.53075" lon="3.52399">
        <ele>33</ele>
        <time>2018-09-06T10:05:46.349Z</time>
      </trkpt>
      <trkpt lat="50.53046" lon="3.52325">
        <ele>32.8</ele>
        <time>2018-09-06T10:05:47.243Z</time>
      </trkpt>
      <trkpt lat="50.53016" lon="3.5225">
        <ele>32.8</ele>
        <time>2018-09-06T10:05:48.137Z</time>
      </trkpt>
      <trkpt lat="50.53003" lon="3.52201">
        <ele>32.7</ele>
        <time>2018-09-06T10:05:48.678Z</time>
      </trkpt>
      <trkpt lat="50.53012" lon="3.52169">
        <ele>32.8</ele>
        <time>2018-09-06T10:05:49.035Z</time>
      </trkpt>
      <trkpt lat="50.5301" lon="3.52157">
        <ele>33</ele>
        <time>2018-09-06T10:05:49.161Z</time>
      </trkpt>
      <trkpt lat="50.53016" lon="3.52124">
        <ele>33.1</ele>
        <time>2018-09-06T10:05:49.511Z</time>
      </trkpt>
      <trkpt lat="50.53033" lon="3.52074">
        <ele>33.7</ele>
        <time>2018-09-06T10:05:50.089Z</time>
      </trkpt>
      <trkpt lat="50.53059" lon="3.52029">
        <ele>33.6</ele>
        <time>2018-09-06T10:05:50.709Z</time>
      </trkpt>
      <trkpt lat="50.53079" lon="3.52012">
        <ele>33.3</ele>
        <time>2018-09-06T10:05:51.073Z</time>
      </trkpt>
      <trkpt lat="50.53108" lon="3.51997">
        <ele>33.8</ele>
        <time>2018-09-06T10:05:51.562Z</time>
      </trkpt>
      <trkpt lat="50.53083" lon="3.51907">
        <ele>35.1</ele>
        <time>2018-09-06T10:05:52.563Z</time>
      </trkpt>
      <trkpt lat="50.53073" lon="3.51882">
        <ele>35.3</ele>
        <time>2018-09-06T10:05:52.864Z</time>
      </trkpt>
      <trkpt lat="50.53058" lon="3.51825">
        <ele>35.9</ele>
        <time>2018-09-06T10:05:53.493Z</time>
      </trkpt>
      <trkpt lat="50.5305" lon="3.5183">
        <ele>35.9</ele>
        <time>2018-09-06T10:05:53.631Z</time>
      </trkpt>
      <trkpt lat="50.53037" lon="3.51833">
        <ele>35.8</ele>
        <time>2018-09-06T10:05:53.842Z</time>
      </trkpt>
      <trkpt lat="50.52994" lon="3.51871">
        <ele>34.7</ele>
        <time>2018-09-06T10:05:54.640Z</time>
      </trkpt>
      <trkpt lat="50.5295" lon="3.51909">
        <ele>34.4</ele>
        <time>2018-09-06T10:05:55.438Z</time>
      </trkpt>
      <trkpt lat="50.52924" lon="3.51854">
        <ele>34.3</ele>
        <time>2018-09-06T10:05:56.136Z</time>
      </trkpt>
      <trkpt lat="50.52907" lon="3.518">
        <ele>34.1</ele>
        <time>2018-09-06T10:05:56.750Z</time>
      </trkpt>
      <trkpt lat="50.52887" lon="3.51767">
        <ele>34.2</ele>
        <time>2018-09-06T10:05:57.215Z</time>
      </trkpt>
      <trkpt lat="50.52878" lon="3.51747">
        <ele>34.5</ele>
        <time>2018-09-06T10:05:57.465Z</time>
      </trkpt>
      <trkpt lat="50.52867" lon="3.51709">
        <ele>34.5</ele>
        <time>2018-09-06T10:05:57.891Z</time>
      </trkpt>
      <trkpt lat="50.52842" lon="3.51635">
        <ele>34.7</ele>
        <time>2018-09-06T10:05:58.745Z</time>
      </trkpt>
      <trkpt lat="50.52822" lon="3.51588">
        <ele>34.7</ele>
        <time>2018-09-06T10:05:59.321Z</time>
      </trkpt>
      <trkpt lat="50.52805" lon="3.51556">
        <ele>34.6</ele>
        <time>2018-09-06T10:05:59.746Z</time>
      </trkpt>
      <trkpt lat="50.52782" lon="3.51519">
        <ele>34.4</ele>
        <time>2018-09-06T10:06:00.273Z</time>
      </trkpt>
      <trkpt lat="50.52717" lon="3.51438">
        <ele>36.3</ele>
        <time>2018-09-06T10:06:01.602Z</time>
      </trkpt>
      <trkpt lat="50.52706" lon="3.51419">
        <ele>36.6</ele>
        <time>2018-09-06T10:06:01.864Z</time>
      </trkpt>
      <trkpt lat="50.52721" lon="3.51392">
        <ele>36.1</ele>
        <time>2018-09-06T10:06:02.229Z</time>
      </trkpt>
      <trkpt lat="50.52779" lon="3.51297">
        <ele>34.6</ele>
        <time>2018-09-06T10:06:03.571Z</time>
      </trkpt>
      <trkpt lat="50.52791" lon="3.51278">
        <ele>34.5</ele>
        <time>2018-09-06T10:06:03.844Z</time>
      </trkpt>
      <trkpt lat="50.52829" lon="3.51206">
        <ele>34.3</ele>
        <time>2018-09-06T10:06:04.793Z</time>
      </trkpt>
      <trkpt lat="50.52866" lon="3.51134">
        <ele>35.4</ele>
        <time>2018-09-06T10:06:05.742Z</time>
      </trkpt>
      <trkpt lat="50.52899" lon="3.51054">
        <ele>36.9</ele>
        <time>2018-09-06T10:06:06.720Z</time>
      </trkpt>
      <trkpt lat="50.52933" lon="3.50973">
        <ele>37.9</ele>
        <time>2018-09-06T10:06:07.698Z</time>
      </trkpt>
      <trkpt lat="50.52966" lon="3.50893">
        <ele>40.3</ele>
        <time>2018-09-06T10:06:08.676Z</time>
      </trkpt>
      <trkpt lat="50.52997" lon="3.508">
        <ele>42.8</ele>
        <time>2018-09-06T10:06:09.746Z</time>
      </trkpt>
      <trkpt lat="50.53017" lon="3.50734">
        <ele>43</ele>
        <time>2018-09-06T10:06:10.496Z</time>
      </trkpt>
      <trkpt lat="50.53037" lon="3.50667">
        <ele>42.4</ele>
        <time>2018-09-06T10:06:11.246Z</time>
      </trkpt>
      <trkpt lat="50.53061" lon="3.50579">
        <ele>43.6</ele>
        <time>2018-09-06T10:06:12.222Z</time>
      </trkpt>
      <trkpt lat="50.53071" lon="3.50528">
        <ele>44.4</ele>
        <time>2018-09-06T10:06:12.766Z</time>
      </trkpt>
      <trkpt lat="50.53077" lon="3.50501">
        <ele>44.9</ele>
        <time>2018-09-06T10:06:13.057Z</time>
      </trkpt>
      <trkpt lat="50.53076" lon="3.50479">
        <ele>45.7</ele>
        <time>2018-09-06T10:06:13.282Z</time>
      </trkpt>
      <trkpt lat="50.5307" lon="3.50435">
        <ele>46.8</ele>
        <time>2018-09-06T10:06:13.741Z</time>
      </trkpt>
      <trkpt lat="50.53046" lon="3.50366">
        <ele>47.9</ele>
        <time>2018-09-06T10:06:14.547Z</time>
      </trkpt>
      <trkpt lat="50.53022" lon="3.50296">
        <ele>49.1</ele>
        <time>2018-09-06T10:06:15.353Z</time>
      </trkpt>
      <trkpt lat="50.52992" lon="3.50238">
        <ele>48.4</ele>
        <time>2018-09-06T10:06:16.119Z</time>
      </trkpt>
      <trkpt lat="50.52962" lon="3.50179">
        <ele>47.8</ele>
        <time>2018-09-06T10:06:16.885Z</time>
      </trkpt>
      <trkpt lat="50.52946" lon="3.5016">
        <ele>47.4</ele>
        <time>2018-09-06T10:06:17.206Z</time>
      </trkpt>
      <trkpt lat="50.52874" lon="3.50085">
        <ele>42.1</ele>
        <time>2018-09-06T10:06:18.590Z</time>
      </trkpt>
      <trkpt lat="50.52859" lon="3.50051">
        <ele>41.8</ele>
        <time>2018-09-06T10:06:19.012Z</time>
      </trkpt>
      <trkpt lat="50.52837" lon="3.49963">
        <ele>40.9</ele>
        <time>2018-09-06T10:06:19.976Z</time>
      </trkpt>
      <trkpt lat="50.52823" lon="3.49918">
        <ele>38.6</ele>
        <time>2018-09-06T10:06:20.487Z</time>
      </trkpt>
      <trkpt lat="50.52782" lon="3.49812">
        <ele>38.6</ele>
        <time>2018-09-06T10:06:21.752Z</time>
      </trkpt>
      <trkpt lat="50.52747" lon="3.49729">
        <ele>37.2</ele>
        <time>2018-09-06T10:06:22.767Z</time>
      </trkpt>
      <trkpt lat="50.52737" lon="3.49692">
        <ele>37</ele>
        <time>2018-09-06T10:06:23.177Z</time>
      </trkpt>
      <trkpt lat="50.52727" lon="3.49634">
        <ele>37.7</ele>
        <time>2018-09-06T10:06:23.789Z</time>
      </trkpt>
      <trkpt lat="50.52719" lon="3.4955">
        <ele>39.3</ele>
        <time>2018-09-06T10:06:24.655Z</time>
      </trkpt>
      <trkpt lat="50.52712" lon="3.49528">
        <ele>39.4</ele>
        <time>2018-09-06T10:06:24.906Z</time>
      </trkpt>
      <trkpt lat="50.52677" lon="3.49451">
        <ele>40.6</ele>
        <time>2018-09-06T10:06:25.871Z</time>
      </trkpt>
      <trkpt lat="50.52665" lon="3.49437">
        <ele>39.3</ele>
        <time>2018-09-06T10:06:26.111Z</time>
      </trkpt>
      <trkpt lat="50.5263" lon="3.49405">
        <ele>39.8</ele>
        <time>2018-09-06T10:06:26.760Z</time>
      </trkpt>
      <trkpt lat="50.52615" lon="3.49399">
        <ele>39.4</ele>
        <time>2018-09-06T10:06:27.008Z</time>
      </trkpt>
      <trkpt lat="50.52608" lon="3.49393">
        <ele>39.3</ele>
        <time>2018-09-06T10:06:27.136Z</time>
      </trkpt>
      <trkpt lat="50.52607" lon="3.49393">
        <ele>39.3</ele>
        <time>2018-09-06T10:06:27.152Z</time>
      </trkpt>
      <trkpt lat="50.52564" lon="3.49346">
        <ele>38.8</ele>
        <time>2018-09-06T10:06:28.001Z</time>
      </trkpt>
      <trkpt lat="50.5252" lon="3.49298">
        <ele>40</ele>
        <time>2018-09-06T10:06:28.850Z</time>
      </trkpt>
      <trkpt lat="50.52467" lon="3.49265">
        <ele>39.6</ele>
        <time>2018-09-06T10:06:29.764Z</time>
      </trkpt>
      <trkpt lat="50.52436" lon="3.49237">
        <ele>41.2</ele>
        <time>2018-09-06T10:06:30.337Z</time>
      </trkpt>
      <trkpt lat="50.524" lon="3.492">
        <ele>44.5</ele>
        <time>2018-09-06T10:06:31.026Z</time>
      </trkpt>
      <trkpt lat="50.52424" lon="3.49104">
        <ele>44.4</ele>
        <time>2018-09-06T10:06:32.072Z</time>
      </trkpt>
      <trkpt lat="50.52447" lon="3.49009">
        <ele>47.1</ele>
        <time>2018-09-06T10:06:33.118Z</time>
      </trkpt>
      <trkpt lat="50.52471" lon="3.48913">
        <ele>49</ele>
        <time>2018-09-06T10:06:34.164Z</time>
      </trkpt>
      <trkpt lat="50.52444" lon="3.4889">
        <ele>48.4</ele>
        <time>2018-09-06T10:06:34.656Z</time>
      </trkpt>
      <trkpt lat="50.52377" lon="3.48803">
        <ele>47.6</ele>
        <time>2018-09-06T10:06:36.049Z</time>
      </trkpt>
      <trkpt lat="50.52339" lon="3.48759">
        <ele>46.6</ele>
        <time>2018-09-06T10:06:36.805Z</time>
      </trkpt>
      <trkpt lat="50.52295" lon="3.48719">
        <ele>44.4</ele>
        <time>2018-09-06T10:06:37.620Z</time>
      </trkpt>
      <trkpt lat="50.5228" lon="3.48701">
        <ele>44.1</ele>
        <time>2018-09-06T10:06:37.922Z</time>
      </trkpt>
      <trkpt lat="50.5228" lon="3.487">
        <ele>44.1</ele>
        <time>2018-09-06T10:06:37.932Z</time>
      </trkpt>
      <trkpt lat="50.52238" lon="3.4865">
        <ele>42</ele>
        <time>2018-09-06T10:06:38.776Z</time>
      </trkpt>
      <trkpt lat="50.5217" lon="3.48573">
        <ele>40.1</ele>
        <time>2018-09-06T10:06:40.119Z</time>
      </trkpt>
      <trkpt lat="50.52102" lon="3.48496">
        <ele>39.2</ele>
        <time>2018-09-06T10:06:41.462Z</time>
      </trkpt>
      <trkpt lat="50.52057" lon="3.4845">
        <ele>37.4</ele>
        <time>2018-09-06T10:06:42.332Z</time>
      </trkpt>
      <trkpt lat="50.52011" lon="3.48403">
        <ele>36</ele>
        <time>2018-09-06T10:06:43.202Z</time>
      </trkpt>
      <trkpt lat="50.51938" lon="3.48321">
        <ele>31.8</ele>
        <time>2018-09-06T10:06:44.642Z</time>
      </trkpt>
      <trkpt lat="50.51865" lon="3.48238">
        <ele>33.8</ele>
        <time>2018-09-06T10:06:46.082Z</time>
      </trkpt>
      <trkpt lat="50.51792" lon="3.48156">
        <ele>31</ele>
        <time>2018-09-06T10:06:47.522Z</time>
      </trkpt>
      <trkpt lat="50.51776" lon="3.48155">
        <ele>30.5</ele>
        <time>2018-09-06T10:06:47.779Z</time>
      </trkpt>
      <trkpt lat="50.51728" lon="3.48204">
        <ele>28.6</ele>
        <time>2018-09-06T10:06:48.696Z</time>
      </trkpt>
      <trkpt lat="50.51702" lon="3.48165">
        <ele>27.9</ele>
        <time>2018-09-06T10:06:49.272Z</time>
      </trkpt>
      <trkpt lat="50.51702" lon="3.48164">
        <ele>27.9</ele>
        <time>2018-09-06T10:06:49.282Z</time>
      </trkpt>
      <trkpt lat="50.51695" lon="3.48153">
        <ele>27.7</ele>
        <time>2018-09-06T10:06:49.441Z</time>
      </trkpt>
      <trkpt lat="50.51647" lon="3.48057">
        <ele>27.7</ele>
        <time>2018-09-06T10:06:50.686Z</time>
      </trkpt>
      <trkpt lat="50.51598" lon="3.47982">
        <ele>28.1</ele>
        <time>2018-09-06T10:06:51.782Z</time>
      </trkpt>
      <trkpt lat="50.51526" lon="3.47903">
        <ele>27.2</ele>
        <time>2018-09-06T10:06:53.189Z</time>
      </trkpt>
      <trkpt lat="50.51503" lon="3.47867">
        <ele>27.1</ele>
        <time>2018-09-06T10:06:53.709Z</time>
      </trkpt>
      <trkpt lat="50.51492" lon="3.47838">
        <ele>27</ele>
        <time>2018-09-06T10:06:54.053Z</time>
      </trkpt>
      <trkpt lat="50.5148" lon="3.47796">
        <ele>26.2</ele>
        <time>2018-09-06T10:06:54.522Z</time>
      </trkpt>
      <trkpt lat="50.51464" lon="3.47765">
        <ele>26</ele>
        <time>2018-09-06T10:06:54.929Z</time>
      </trkpt>
      <trkpt lat="50.51418" lon="3.47684">
        <ele>25</ele>
        <time>2018-09-06T10:06:56.039Z</time>
      </trkpt>
      <trkpt lat="50.51372" lon="3.47603">
        <ele>24.6</ele>
        <time>2018-09-06T10:06:57.149Z</time>
      </trkpt>
      <trkpt lat="50.51325" lon="3.47522">
        <ele>24.5</ele>
        <time>2018-09-06T10:06:58.259Z</time>
      </trkpt>
      <trkpt lat="50.51279" lon="3.47441">
        <ele>23.7</ele>
        <time>2018-09-06T10:06:59.369Z</time>
      </trkpt>
      <trkpt lat="50.51232" lon="3.47368">
        <ele>24.2</ele>
        <time>2018-09-06T10:07:00.428Z</time>
      </trkpt>
      <trkpt lat="50.51193" lon="3.47315">
        <ele>24.3</ele>
        <time>2018-09-06T10:07:01.254Z</time>
      </trkpt>
      <trkpt lat="50.5117" lon="3.47294">
        <ele>24.3</ele>
        <time>2018-09-06T10:07:01.680Z</time>
      </trkpt>
      <trkpt lat="50.51144" lon="3.47282">
        <ele>24.5</ele>
        <time>2018-09-06T10:07:02.114Z</time>
      </trkpt>
      <trkpt lat="50.51065" lon="3.47262">
        <ele>23.9</ele>
        <time>2018-09-06T10:07:03.397Z</time>
      </trkpt>
      <trkpt lat="50.51052" lon="3.47236">
        <ele>24</ele>
        <time>2018-09-06T10:07:03.734Z</time>
      </trkpt>
      <trkpt lat="50.51" lon="3.47183">
        <ele>24</ele>
        <time>2018-09-06T10:07:04.727Z</time>
      </trkpt>
      <trkpt lat="50.50948" lon="3.4713">
        <ele>24.5</ele>
        <time>2018-09-06T10:07:05.720Z</time>
      </trkpt>
      <trkpt lat="50.50948" lon="3.47129">
        <ele>24.5</ele>
        <time>2018-09-06T10:07:05.730Z</time>
      </trkpt>
      <trkpt lat="50.50935" lon="3.47116">
        <ele>24.5</ele>
        <time>2018-09-06T10:07:05.977Z</time>
      </trkpt>
      <trkpt lat="50.50898" lon="3.47061">
        <ele>24.3</ele>
        <time>2018-09-06T10:07:06.793Z</time>
      </trkpt>
      <trkpt lat="50.50849" lon="3.46978">
        <ele>24.8</ele>
        <time>2018-09-06T10:07:07.948Z</time>
      </trkpt>
      <trkpt lat="50.5084" lon="3.4694">
        <ele>24.9</ele>
        <time>2018-09-06T10:07:08.361Z</time>
      </trkpt>
      <trkpt lat="50.50836" lon="3.46857">
        <ele>25.1</ele>
        <time>2018-09-06T10:07:09.210Z</time>
      </trkpt>
      <trkpt lat="50.5083" lon="3.4684">
        <ele>25.1</ele>
        <time>2018-09-06T10:07:09.408Z</time>
      </trkpt>
      <trkpt lat="50.50782" lon="3.46773">
        <ele>25</ele>
        <time>2018-09-06T10:07:10.437Z</time>
      </trkpt>
      <trkpt lat="50.50734" lon="3.46706">
        <ele>25</ele>
        <time>2018-09-06T10:07:11.466Z</time>
      </trkpt>
      <trkpt lat="50.50707" lon="3.46671">
        <ele>25.2</ele>
        <time>2018-09-06T10:07:12.027Z</time>
      </trkpt>
      <trkpt lat="50.5068" lon="3.4665">
        <ele>25.1</ele>
        <time>2018-09-06T10:07:12.510Z</time>
      </trkpt>
      <trkpt lat="50.50601" lon="3.46611">
        <ele>23.9</ele>
        <time>2018-09-06T10:07:13.839Z</time>
      </trkpt>
      <trkpt lat="50.50522" lon="3.46571">
        <ele>21.7</ele>
        <time>2018-09-06T10:07:15.168Z</time>
      </trkpt>
      <trkpt lat="50.50481" lon="3.4654">
        <ele>21.4</ele>
        <time>2018-09-06T10:07:15.900Z</time>
      </trkpt>
      <trkpt lat="50.5044" lon="3.46508">
        <ele>21.7</ele>
        <time>2018-09-06T10:07:16.632Z</time>
      </trkpt>
      <trkpt lat="50.5039" lon="3.46474">
        <ele>21.4</ele>
        <time>2018-09-06T10:07:17.507Z</time>
      </trkpt>
      <trkpt lat="50.5034" lon="3.46439">
        <ele>21.1</ele>
        <time>2018-09-06T10:07:18.382Z</time>
      </trkpt>
      <trkpt lat="50.5034" lon="3.46438">
        <ele>21.1</ele>
        <time>2018-09-06T10:07:18.392Z</time>
      </trkpt>
      <trkpt lat="50.50315" lon="3.46421">
        <ele>20.7</ele>
        <time>2018-09-06T10:07:18.829Z</time>
      </trkpt>
      <trkpt lat="50.50312" lon="3.4641">
        <ele>20.7</ele>
        <time>2018-09-06T10:07:18.951Z</time>
      </trkpt>
      <trkpt lat="50.50328" lon="3.46283">
        <ele>21.3</ele>
        <time>2018-09-06T10:07:20.276Z</time>
      </trkpt>
      <trkpt lat="50.50344" lon="3.46155">
        <ele>21.3</ele>
        <time>2018-09-06T10:07:21.601Z</time>
      </trkpt>
      <trkpt lat="50.5036" lon="3.46074">
        <ele>19.8</ele>
        <time>2018-09-06T10:07:22.466Z</time>
      </trkpt>
      <trkpt lat="50.50385" lon="3.45962">
        <ele>19.8</ele>
        <time>2018-09-06T10:07:23.676Z</time>
      </trkpt>
      <trkpt lat="50.5041" lon="3.4585">
        <ele>20.5</ele>
        <time>2018-09-06T10:07:24.886Z</time>
      </trkpt>
      <trkpt lat="50.50433" lon="3.45719">
        <ele>19.6</ele>
        <time>2018-09-06T10:07:26.272Z</time>
      </trkpt>
      <trkpt lat="50.50436" lon="3.45642">
        <ele>19.3</ele>
        <time>2018-09-06T10:07:27.059Z</time>
      </trkpt>
      <trkpt lat="50.50441" lon="3.45567">
        <ele>18.6</ele>
        <time>2018-09-06T10:07:27.828Z</time>
      </trkpt>
      <trkpt lat="50.50448" lon="3.45508">
        <ele>18.6</ele>
        <time>2018-09-06T10:07:28.440Z</time>
      </trkpt>
      <trkpt lat="50.50447" lon="3.45489">
        <ele>18.3</ele>
        <time>2018-09-06T10:07:28.634Z</time>
      </trkpt>
      <trkpt lat="50.50443" lon="3.45482">
        <ele>18.3</ele>
        <time>2018-09-06T10:07:28.730Z</time>
      </trkpt>
      <trkpt lat="50.50399" lon="3.45454">
        <ele>18.1</ele>
        <time>2018-09-06T10:07:29.500Z</time>
      </trkpt>
      <trkpt lat="50.50354" lon="3.45425">
        <ele>17.6</ele>
        <time>2018-09-06T10:07:30.270Z</time>
      </trkpt>
      <trkpt lat="50.50309" lon="3.45386">
        <ele>16.8</ele>
        <time>2018-09-06T10:07:31.094Z</time>
      </trkpt>
      <trkpt lat="50.50324" lon="3.45316">
        <ele>16.3</ele>
        <time>2018-09-06T10:07:31.847Z</time>
      </trkpt>
      <trkpt lat="50.50326" lon="3.45266">
        <ele>16.2</ele>
        <time>2018-09-06T10:07:32.358Z</time>
      </trkpt>
      <trkpt lat="50.50321" lon="3.45186">
        <ele>16.3</ele>
        <time>2018-09-06T10:07:33.178Z</time>
      </trkpt>
      <trkpt lat="50.50321" lon="3.45172">
        <ele>16.2</ele>
        <time>2018-09-06T10:07:33.321Z</time>
      </trkpt>
      <trkpt lat="50.50332" lon="3.45163">
        <ele>16</ele>
        <time>2018-09-06T10:07:33.520Z</time>
      </trkpt>
      <trkpt lat="50.5038" lon="3.45061">
        <ele>16.5</ele>
        <time>2018-09-06T10:07:34.814Z</time>
      </trkpt>
      <trkpt lat="50.50397" lon="3.45024">
        <ele>16.6</ele>
        <time>2018-09-06T10:07:35.279Z</time>
      </trkpt>
      <trkpt lat="50.50399" lon="3.45004">
        <ele>16.7</ele>
        <time>2018-09-06T10:07:35.485Z</time>
      </trkpt>
      <trkpt lat="50.50396" lon="3.44979">
        <ele>16.3</ele>
        <time>2018-09-06T10:07:35.744Z</time>
      </trkpt>
      <trkpt lat="50.50388" lon="3.44944">
        <ele>16</ele>
        <time>2018-09-06T10:07:36.123Z</time>
      </trkpt>
      <trkpt lat="50.50376" lon="3.44907">
        <ele>15.5</ele>
        <time>2018-09-06T10:07:36.546Z</time>
      </trkpt>
      <trkpt lat="50.50351" lon="3.44846">
        <ele>15.3</ele>
        <time>2018-09-06T10:07:37.286Z</time>
      </trkpt>
      <trkpt lat="50.5033" lon="3.44813">
        <ele>15.4</ele>
        <time>2018-09-06T10:07:37.762Z</time>
      </trkpt>
    </trkseg>
  </trk>
</gpx>